<?xml version="1.0" encoding="UTF-8"?>
<gpx version="1.1" creator="RoadTrp.org" xmlns="http://www.topografix.com/GPX/1/1">
<trk><name>Intermediate Trail — Johnston Woods — July 22, 2026</name><trkseg>
<trkpt lat="35.137244" lon="-84.951723"><ele>266.4</ele><time>2026-07-22T16:08:38Z</time></trkpt>
<trkpt lat="35.137238" lon="-84.951724"><ele>266.1</ele><time>2026-07-22T16:08:39Z</time></trkpt>
<trkpt lat="35.13721" lon="-84.951701"><ele>264.6</ele><time>2026-07-22T16:08:43Z</time></trkpt>
<trkpt lat="35.137217" lon="-84.95166"><ele>263.3</ele><time>2026-07-22T16:08:46Z</time></trkpt>
<trkpt lat="35.137228" lon="-84.951623"><ele>262.7</ele><time>2026-07-22T16:08:49Z</time></trkpt>
<trkpt lat="35.137245" lon="-84.951586"><ele>262.4</ele><time>2026-07-22T16:08:52Z</time></trkpt>
<trkpt lat="35.137255" lon="-84.95155"><ele>262.4</ele><time>2026-07-22T16:08:55Z</time></trkpt>
<trkpt lat="35.137269" lon="-84.95152"><ele>262.1</ele><time>2026-07-22T16:08:59Z</time></trkpt>
<trkpt lat="35.137269" lon="-84.951519"><ele>262.4</ele><time>2026-07-22T16:09:00Z</time></trkpt>
<trkpt lat="35.137263" lon="-84.951518"><ele>263.0</ele><time>2026-07-22T16:09:02Z</time></trkpt>
<trkpt lat="35.137262" lon="-84.95152"><ele>263.3</ele><time>2026-07-22T16:09:03Z</time></trkpt>
<trkpt lat="35.137261" lon="-84.95152"><ele>263.3</ele><time>2026-07-22T16:09:04Z</time></trkpt>
<trkpt lat="35.13726" lon="-84.95152"><ele>263.7</ele><time>2026-07-22T16:09:13Z</time></trkpt>
<trkpt lat="35.137261" lon="-84.95152"><ele>263.3</ele><time>2026-07-22T16:09:14Z</time></trkpt>
<trkpt lat="35.137259" lon="-84.951521"><ele>264.0</ele><time>2026-07-22T16:09:15Z</time></trkpt>
<trkpt lat="35.137259" lon="-84.951521"><ele>264.0</ele><time>2026-07-22T16:09:17Z</time></trkpt>
<trkpt lat="35.137257" lon="-84.951522"><ele>264.0</ele><time>2026-07-22T16:09:18Z</time></trkpt>
<trkpt lat="35.137258" lon="-84.951522"><ele>264.0</ele><time>2026-07-22T16:09:19Z</time></trkpt>
<trkpt lat="35.137258" lon="-84.951521"><ele>264.0</ele><time>2026-07-22T16:09:36Z</time></trkpt>
<trkpt lat="35.137258" lon="-84.951522"><ele>264.9</ele><time>2026-07-22T16:09:37Z</time></trkpt>
<trkpt lat="35.137259" lon="-84.951523"><ele>264.6</ele><time>2026-07-22T16:09:38Z</time></trkpt>
<trkpt lat="35.137263" lon="-84.951525"><ele>264.6</ele><time>2026-07-22T16:09:42Z</time></trkpt>
<trkpt lat="35.137264" lon="-84.951529"><ele>264.6</ele><time>2026-07-22T16:09:43Z</time></trkpt>
<trkpt lat="35.137264" lon="-84.951531"><ele>264.6</ele><time>2026-07-22T16:09:44Z</time></trkpt>
<trkpt lat="35.137264" lon="-84.951529"><ele>264.9</ele><time>2026-07-22T16:09:53Z</time></trkpt>
<trkpt lat="35.137267" lon="-84.95153"><ele>265.2</ele><time>2026-07-22T16:09:54Z</time></trkpt>
<trkpt lat="35.137259" lon="-84.951577"><ele>264.3</ele><time>2026-07-22T16:09:59Z</time></trkpt>
<trkpt lat="35.137253" lon="-84.951612"><ele>263.3</ele><time>2026-07-22T16:10:01Z</time></trkpt>
<trkpt lat="35.13724" lon="-84.951652"><ele>262.4</ele><time>2026-07-22T16:10:04Z</time></trkpt>
<trkpt lat="35.137221" lon="-84.951685"><ele>260.9</ele><time>2026-07-22T16:10:07Z</time></trkpt>
<trkpt lat="35.137211" lon="-84.951724"><ele>260.3</ele><time>2026-07-22T16:10:10Z</time></trkpt>
<trkpt lat="35.137195" lon="-84.951768"><ele>261.5</ele><time>2026-07-22T16:10:13Z</time></trkpt>
<trkpt lat="35.137202" lon="-84.951801"><ele>262.1</ele><time>2026-07-22T16:10:15Z</time></trkpt>
<trkpt lat="35.137204" lon="-84.951846"><ele>262.7</ele><time>2026-07-22T16:10:18Z</time></trkpt>
<trkpt lat="35.137195" lon="-84.951889"><ele>263.0</ele><time>2026-07-22T16:10:21Z</time></trkpt>
<trkpt lat="35.137192" lon="-84.951923"><ele>264.3</ele><time>2026-07-22T16:10:26Z</time></trkpt>
<trkpt lat="35.137195" lon="-84.951923"><ele>264.3</ele><time>2026-07-22T16:10:27Z</time></trkpt>
<trkpt lat="35.137196" lon="-84.951919"><ele>264.6</ele><time>2026-07-22T16:10:32Z</time></trkpt>
<trkpt lat="35.137196" lon="-84.951917"><ele>264.6</ele><time>2026-07-22T16:10:33Z</time></trkpt>
<trkpt lat="35.137196" lon="-84.951916"><ele>264.9</ele><time>2026-07-22T16:10:34Z</time></trkpt>
<trkpt lat="35.137195" lon="-84.951916"><ele>264.9</ele><time>2026-07-22T16:10:35Z</time></trkpt>
<trkpt lat="35.137196" lon="-84.95191"><ele>264.6</ele><time>2026-07-22T16:10:36Z</time></trkpt>
<trkpt lat="35.137171" lon="-84.951932"><ele>263.7</ele><time>2026-07-22T16:10:41Z</time></trkpt>
<trkpt lat="35.137159" lon="-84.951968"><ele>263.3</ele><time>2026-07-22T16:10:44Z</time></trkpt>
<trkpt lat="35.137157" lon="-84.952013"><ele>262.4</ele><time>2026-07-22T16:10:47Z</time></trkpt>
<trkpt lat="35.137157" lon="-84.952052"><ele>260.6</ele><time>2026-07-22T16:10:50Z</time></trkpt>
<trkpt lat="35.137145" lon="-84.952091"><ele>260.6</ele><time>2026-07-22T16:10:53Z</time></trkpt>
<trkpt lat="35.137122" lon="-84.952125"><ele>261.2</ele><time>2026-07-22T16:10:56Z</time></trkpt>
<trkpt lat="35.137101" lon="-84.952147"><ele>261.8</ele><time>2026-07-22T16:10:58Z</time></trkpt>
<trkpt lat="35.13708" lon="-84.952162"><ele>260.9</ele><time>2026-07-22T16:11:00Z</time></trkpt>
<trkpt lat="35.137082" lon="-84.952171"><ele>260.6</ele><time>2026-07-22T16:11:01Z</time></trkpt>
<trkpt lat="35.13709" lon="-84.95218"><ele>260.9</ele><time>2026-07-22T16:11:39Z</time></trkpt>
<trkpt lat="35.137087" lon="-84.952182"><ele>260.3</ele><time>2026-07-22T16:11:40Z</time></trkpt>
<trkpt lat="35.137062" lon="-84.952207"><ele>259.7</ele><time>2026-07-22T16:11:43Z</time></trkpt>
<trkpt lat="35.137047" lon="-84.952245"><ele>259.4</ele><time>2026-07-22T16:11:46Z</time></trkpt>
<trkpt lat="35.137047" lon="-84.952286"><ele>260.9</ele><time>2026-07-22T16:11:50Z</time></trkpt>
<trkpt lat="35.137029" lon="-84.952318"><ele>259.7</ele><time>2026-07-22T16:11:54Z</time></trkpt>
<trkpt lat="35.137013" lon="-84.952356"><ele>262.1</ele><time>2026-07-22T16:11:58Z</time></trkpt>
<trkpt lat="35.136995" lon="-84.952382"><ele>263.0</ele><time>2026-07-22T16:12:01Z</time></trkpt>
<trkpt lat="35.136969" lon="-84.952413"><ele>260.3</ele><time>2026-07-22T16:12:05Z</time></trkpt>
<trkpt lat="35.136943" lon="-84.95243"><ele>260.6</ele><time>2026-07-22T16:12:08Z</time></trkpt>
<trkpt lat="35.136916" lon="-84.952442"><ele>260.9</ele><time>2026-07-22T16:12:11Z</time></trkpt>
<trkpt lat="35.136892" lon="-84.95246"><ele>259.7</ele><time>2026-07-22T16:12:14Z</time></trkpt>
<trkpt lat="35.136858" lon="-84.952481"><ele>258.8</ele><time>2026-07-22T16:12:18Z</time></trkpt>
<trkpt lat="35.13683" lon="-84.952503"><ele>257.3</ele><time>2026-07-22T16:12:21Z</time></trkpt>
<trkpt lat="35.136796" lon="-84.952513"><ele>256.6</ele><time>2026-07-22T16:12:24Z</time></trkpt>
<trkpt lat="35.136764" lon="-84.952519"><ele>256.3</ele><time>2026-07-22T16:12:27Z</time></trkpt>
<trkpt lat="35.136734" lon="-84.952532"><ele>256.0</ele><time>2026-07-22T16:12:30Z</time></trkpt>
<trkpt lat="35.136703" lon="-84.952561"><ele>257.3</ele><time>2026-07-22T16:12:33Z</time></trkpt>
<trkpt lat="35.136677" lon="-84.952583"><ele>257.3</ele><time>2026-07-22T16:12:36Z</time></trkpt>
<trkpt lat="35.136655" lon="-84.952618"><ele>258.2</ele><time>2026-07-22T16:12:39Z</time></trkpt>
<trkpt lat="35.136631" lon="-84.952651"><ele>261.8</ele><time>2026-07-22T16:12:42Z</time></trkpt>
<trkpt lat="35.136602" lon="-84.952666"><ele>258.8</ele><time>2026-07-22T16:12:44Z</time></trkpt>
<trkpt lat="35.136561" lon="-84.952674"><ele>258.5</ele><time>2026-07-22T16:12:47Z</time></trkpt>
<trkpt lat="35.136522" lon="-84.952685"><ele>257.6</ele><time>2026-07-22T16:12:50Z</time></trkpt>
<trkpt lat="35.136494" lon="-84.952689"><ele>257.9</ele><time>2026-07-22T16:12:52Z</time></trkpt>
<trkpt lat="35.136453" lon="-84.952695"><ele>257.6</ele><time>2026-07-22T16:12:55Z</time></trkpt>
<trkpt lat="35.136424" lon="-84.952696"><ele>257.9</ele><time>2026-07-22T16:12:57Z</time></trkpt>
<trkpt lat="35.136399" lon="-84.95271"><ele>257.9</ele><time>2026-07-22T16:12:59Z</time></trkpt>
<trkpt lat="35.13636" lon="-84.952717"><ele>259.4</ele><time>2026-07-22T16:13:02Z</time></trkpt>
<trkpt lat="35.136332" lon="-84.952725"><ele>257.3</ele><time>2026-07-22T16:13:04Z</time></trkpt>
<trkpt lat="35.136303" lon="-84.952732"><ele>258.5</ele><time>2026-07-22T16:13:06Z</time></trkpt>
<trkpt lat="35.136275" lon="-84.952741"><ele>257.3</ele><time>2026-07-22T16:13:08Z</time></trkpt>
<trkpt lat="35.136241" lon="-84.952765"><ele>257.6</ele><time>2026-07-22T16:13:11Z</time></trkpt>
<trkpt lat="35.13622" lon="-84.952794"><ele>257.3</ele><time>2026-07-22T16:13:14Z</time></trkpt>
<trkpt lat="35.136191" lon="-84.952812"><ele>256.6</ele><time>2026-07-22T16:13:17Z</time></trkpt>
<trkpt lat="35.136159" lon="-84.952833"><ele>256.9</ele><time>2026-07-22T16:13:20Z</time></trkpt>
<trkpt lat="35.136136" lon="-84.952852"><ele>257.6</ele><time>2026-07-22T16:13:22Z</time></trkpt>
<trkpt lat="35.136102" lon="-84.952873"><ele>257.6</ele><time>2026-07-22T16:13:25Z</time></trkpt>
<trkpt lat="35.136072" lon="-84.952907"><ele>257.3</ele><time>2026-07-22T16:13:28Z</time></trkpt>
<trkpt lat="35.136059" lon="-84.952952"><ele>255.7</ele><time>2026-07-22T16:13:31Z</time></trkpt>
<trkpt lat="35.13605" lon="-84.952984"><ele>256.3</ele><time>2026-07-22T16:13:33Z</time></trkpt>
<trkpt lat="35.136055" lon="-84.953021"><ele>256.0</ele><time>2026-07-22T16:13:35Z</time></trkpt>
<trkpt lat="35.136063" lon="-84.953056"><ele>257.6</ele><time>2026-07-22T16:13:37Z</time></trkpt>
<trkpt lat="35.136077" lon="-84.95309"><ele>258.5</ele><time>2026-07-22T16:13:39Z</time></trkpt>
<trkpt lat="35.1361" lon="-84.95312"><ele>257.3</ele><time>2026-07-22T16:13:41Z</time></trkpt>
<trkpt lat="35.136123" lon="-84.953139"><ele>257.9</ele><time>2026-07-22T16:13:43Z</time></trkpt>
<trkpt lat="35.136145" lon="-84.953161"><ele>258.2</ele><time>2026-07-22T16:13:45Z</time></trkpt>
<trkpt lat="35.13617" lon="-84.95318"><ele>259.7</ele><time>2026-07-22T16:13:47Z</time></trkpt>
<trkpt lat="35.13619" lon="-84.953203"><ele>259.7</ele><time>2026-07-22T16:13:49Z</time></trkpt>
<trkpt lat="35.136197" lon="-84.953241"><ele>259.1</ele><time>2026-07-22T16:13:51Z</time></trkpt>
<trkpt lat="35.136195" lon="-84.953277"><ele>258.8</ele><time>2026-07-22T16:13:53Z</time></trkpt>
<trkpt lat="35.13618" lon="-84.953307"><ele>260.9</ele><time>2026-07-22T16:13:55Z</time></trkpt>
<trkpt lat="35.136152" lon="-84.953346"><ele>262.1</ele><time>2026-07-22T16:13:58Z</time></trkpt>
<trkpt lat="35.136117" lon="-84.953367"><ele>260.0</ele><time>2026-07-22T16:14:01Z</time></trkpt>
<trkpt lat="35.136077" lon="-84.953373"><ele>260.6</ele><time>2026-07-22T16:14:04Z</time></trkpt>
<trkpt lat="35.136053" lon="-84.953352"><ele>261.5</ele><time>2026-07-22T16:14:06Z</time></trkpt>
<trkpt lat="35.136043" lon="-84.953338"><ele>261.5</ele><time>2026-07-22T16:14:07Z</time></trkpt>
<trkpt lat="35.136041" lon="-84.953335"><ele>262.1</ele><time>2026-07-22T16:14:08Z</time></trkpt>
<trkpt lat="35.136039" lon="-84.953341"><ele>263.3</ele><time>2026-07-22T16:14:11Z</time></trkpt>
<trkpt lat="35.136035" lon="-84.953342"><ele>262.7</ele><time>2026-07-22T16:14:12Z</time></trkpt>
<trkpt lat="35.136009" lon="-84.95337"><ele>261.8</ele><time>2026-07-22T16:14:17Z</time></trkpt>
<trkpt lat="35.135975" lon="-84.953389"><ele>262.7</ele><time>2026-07-22T16:14:20Z</time></trkpt>
<trkpt lat="35.135959" lon="-84.953428"><ele>263.3</ele><time>2026-07-22T16:14:22Z</time></trkpt>
<trkpt lat="35.135968" lon="-84.953479"><ele>264.3</ele><time>2026-07-22T16:14:24Z</time></trkpt>
<trkpt lat="35.135964" lon="-84.953524"><ele>265.5</ele><time>2026-07-22T16:14:26Z</time></trkpt>
<trkpt lat="35.13597" lon="-84.953563"><ele>267.6</ele><time>2026-07-22T16:14:28Z</time></trkpt>
<trkpt lat="35.135984" lon="-84.953595"><ele>267.3</ele><time>2026-07-22T16:14:30Z</time></trkpt>
<trkpt lat="35.136005" lon="-84.953617"><ele>268.2</ele><time>2026-07-22T16:14:32Z</time></trkpt>
<trkpt lat="35.136034" lon="-84.95363"><ele>267.0</ele><time>2026-07-22T16:14:34Z</time></trkpt>
<trkpt lat="35.136059" lon="-84.953648"><ele>266.4</ele><time>2026-07-22T16:14:36Z</time></trkpt>
<trkpt lat="35.136093" lon="-84.95367"><ele>265.8</ele><time>2026-07-22T16:14:39Z</time></trkpt>
<trkpt lat="35.136119" lon="-84.953683"><ele>265.8</ele><time>2026-07-22T16:14:41Z</time></trkpt>
<trkpt lat="35.13615" lon="-84.953716"><ele>267.0</ele><time>2026-07-22T16:14:44Z</time></trkpt>
<trkpt lat="35.136168" lon="-84.953761"><ele>264.3</ele><time>2026-07-22T16:14:47Z</time></trkpt>
<trkpt lat="35.136154" lon="-84.953796"><ele>264.0</ele><time>2026-07-22T16:14:49Z</time></trkpt>
<trkpt lat="35.136134" lon="-84.953823"><ele>264.9</ele><time>2026-07-22T16:14:51Z</time></trkpt>
<trkpt lat="35.136117" lon="-84.953855"><ele>265.2</ele><time>2026-07-22T16:14:53Z</time></trkpt>
<trkpt lat="35.136111" lon="-84.953891"><ele>267.9</ele><time>2026-07-22T16:14:55Z</time></trkpt>
<trkpt lat="35.136118" lon="-84.953932"><ele>267.0</ele><time>2026-07-22T16:14:57Z</time></trkpt>
<trkpt lat="35.136087" lon="-84.953966"><ele>263.7</ele><time>2026-07-22T16:15:00Z</time></trkpt>
<trkpt lat="35.136058" lon="-84.953976"><ele>262.1</ele><time>2026-07-22T16:15:02Z</time></trkpt>
<trkpt lat="35.13603" lon="-84.953976"><ele>260.9</ele><time>2026-07-22T16:15:04Z</time></trkpt>
<trkpt lat="35.136004" lon="-84.953948"><ele>260.6</ele><time>2026-07-22T16:15:06Z</time></trkpt>
<trkpt lat="35.135971" lon="-84.953921"><ele>261.8</ele><time>2026-07-22T16:15:09Z</time></trkpt>
<trkpt lat="35.135945" lon="-84.953903"><ele>260.0</ele><time>2026-07-22T16:15:11Z</time></trkpt>
<trkpt lat="35.135909" lon="-84.953885"><ele>257.6</ele><time>2026-07-22T16:15:14Z</time></trkpt>
<trkpt lat="35.135874" lon="-84.953885"><ele>256.3</ele><time>2026-07-22T16:15:17Z</time></trkpt>
<trkpt lat="35.135842" lon="-84.953889"><ele>256.0</ele><time>2026-07-22T16:15:19Z</time></trkpt>
<trkpt lat="35.135815" lon="-84.953887"><ele>255.7</ele><time>2026-07-22T16:15:21Z</time></trkpt>
<trkpt lat="35.135785" lon="-84.953885"><ele>253.6</ele><time>2026-07-22T16:15:23Z</time></trkpt>
<trkpt lat="35.135756" lon="-84.953881"><ele>253.6</ele><time>2026-07-22T16:15:25Z</time></trkpt>
<trkpt lat="35.135721" lon="-84.953884"><ele>254.8</ele><time>2026-07-22T16:15:28Z</time></trkpt>
<trkpt lat="35.135692" lon="-84.953882"><ele>254.8</ele><time>2026-07-22T16:15:30Z</time></trkpt>
<trkpt lat="35.135658" lon="-84.953881"><ele>254.8</ele><time>2026-07-22T16:15:32Z</time></trkpt>
<trkpt lat="35.135623" lon="-84.953891"><ele>253.9</ele><time>2026-07-22T16:15:34Z</time></trkpt>
<trkpt lat="35.135592" lon="-84.953896"><ele>253.0</ele><time>2026-07-22T16:15:36Z</time></trkpt>
<trkpt lat="35.135561" lon="-84.953894"><ele>253.3</ele><time>2026-07-22T16:15:38Z</time></trkpt>
<trkpt lat="35.135533" lon="-84.953887"><ele>254.5</ele><time>2026-07-22T16:15:40Z</time></trkpt>
<trkpt lat="35.135497" lon="-84.953875"><ele>255.1</ele><time>2026-07-22T16:15:43Z</time></trkpt>
<trkpt lat="35.135465" lon="-84.953899"><ele>254.5</ele><time>2026-07-22T16:15:46Z</time></trkpt>
<trkpt lat="35.13544" lon="-84.95394"><ele>252.4</ele><time>2026-07-22T16:15:49Z</time></trkpt>
<trkpt lat="35.13542" lon="-84.95397"><ele>251.2</ele><time>2026-07-22T16:15:51Z</time></trkpt>
<trkpt lat="35.135399" lon="-84.953995"><ele>252.4</ele><time>2026-07-22T16:15:53Z</time></trkpt>
<trkpt lat="35.135374" lon="-84.954026"><ele>253.0</ele><time>2026-07-22T16:15:56Z</time></trkpt>
<trkpt lat="35.135365" lon="-84.954028"><ele>252.7</ele><time>2026-07-22T16:15:57Z</time></trkpt>
<trkpt lat="35.135379" lon="-84.954018"><ele>249.3</ele><time>2026-07-22T16:15:58Z</time></trkpt>
<trkpt lat="35.135376" lon="-84.954024"><ele>249.6</ele><time>2026-07-22T16:15:59Z</time></trkpt>
<trkpt lat="35.13537" lon="-84.954033"><ele>249.9</ele><time>2026-07-22T16:16:00Z</time></trkpt>
<trkpt lat="35.13538" lon="-84.954026"><ele>247.5</ele><time>2026-07-22T16:16:01Z</time></trkpt>
<trkpt lat="35.135384" lon="-84.954025"><ele>246.9</ele><time>2026-07-22T16:16:03Z</time></trkpt>
<trkpt lat="35.135381" lon="-84.954025"><ele>247.8</ele><time>2026-07-22T16:16:04Z</time></trkpt>
<trkpt lat="35.135381" lon="-84.954025"><ele>247.8</ele><time>2026-07-22T16:16:05Z</time></trkpt>
<trkpt lat="35.135381" lon="-84.954025"><ele>247.8</ele><time>2026-07-22T16:16:24Z</time></trkpt>
<trkpt lat="35.135381" lon="-84.954024"><ele>247.8</ele><time>2026-07-22T16:16:25Z</time></trkpt>
<trkpt lat="35.135408" lon="-84.954034"><ele>248.7</ele><time>2026-07-22T16:16:28Z</time></trkpt>
<trkpt lat="35.135434" lon="-84.954062"><ele>249.6</ele><time>2026-07-22T16:16:31Z</time></trkpt>
<trkpt lat="35.135466" lon="-84.954089"><ele>252.4</ele><time>2026-07-22T16:16:34Z</time></trkpt>
<trkpt lat="35.135501" lon="-84.954087"><ele>252.4</ele><time>2026-07-22T16:16:37Z</time></trkpt>
<trkpt lat="35.135529" lon="-84.954087"><ele>251.5</ele><time>2026-07-22T16:16:39Z</time></trkpt>
<trkpt lat="35.13556" lon="-84.954091"><ele>252.4</ele><time>2026-07-22T16:16:41Z</time></trkpt>
<trkpt lat="35.135591" lon="-84.954092"><ele>251.8</ele><time>2026-07-22T16:16:43Z</time></trkpt>
<trkpt lat="35.135621" lon="-84.954105"><ele>253.6</ele><time>2026-07-22T16:16:45Z</time></trkpt>
<trkpt lat="35.13566" lon="-84.954121"><ele>254.5</ele><time>2026-07-22T16:16:48Z</time></trkpt>
<trkpt lat="35.135696" lon="-84.954135"><ele>253.3</ele><time>2026-07-22T16:16:51Z</time></trkpt>
<trkpt lat="35.135722" lon="-84.954154"><ele>250.9</ele><time>2026-07-22T16:16:54Z</time></trkpt>
<trkpt lat="35.135747" lon="-84.954182"><ele>252.1</ele><time>2026-07-22T16:16:57Z</time></trkpt>
<trkpt lat="35.135777" lon="-84.954178"><ele>253.9</ele><time>2026-07-22T16:17:00Z</time></trkpt>
<trkpt lat="35.135806" lon="-84.954181"><ele>252.7</ele><time>2026-07-22T16:17:02Z</time></trkpt>
<trkpt lat="35.135839" lon="-84.954179"><ele>251.8</ele><time>2026-07-22T16:17:04Z</time></trkpt>
<trkpt lat="35.135868" lon="-84.954178"><ele>252.7</ele><time>2026-07-22T16:17:06Z</time></trkpt>
<trkpt lat="35.135909" lon="-84.954182"><ele>253.9</ele><time>2026-07-22T16:17:09Z</time></trkpt>
<trkpt lat="35.135934" lon="-84.954196"><ele>253.3</ele><time>2026-07-22T16:17:11Z</time></trkpt>
<trkpt lat="35.135966" lon="-84.954221"><ele>254.2</ele><time>2026-07-22T16:17:14Z</time></trkpt>
<trkpt lat="35.135993" lon="-84.954241"><ele>253.6</ele><time>2026-07-22T16:17:16Z</time></trkpt>
<trkpt lat="35.136019" lon="-84.954256"><ele>253.6</ele><time>2026-07-22T16:17:18Z</time></trkpt>
<trkpt lat="35.136058" lon="-84.954263"><ele>253.6</ele><time>2026-07-22T16:17:21Z</time></trkpt>
<trkpt lat="35.136095" lon="-84.954259"><ele>255.1</ele><time>2026-07-22T16:17:24Z</time></trkpt>
<trkpt lat="35.136134" lon="-84.954252"><ele>254.8</ele><time>2026-07-22T16:17:27Z</time></trkpt>
<trkpt lat="35.136166" lon="-84.954268"><ele>257.9</ele><time>2026-07-22T16:17:31Z</time></trkpt>
<trkpt lat="35.136197" lon="-84.954291"><ele>258.2</ele><time>2026-07-22T16:17:34Z</time></trkpt>
<trkpt lat="35.136212" lon="-84.954329"><ele>257.6</ele><time>2026-07-22T16:17:37Z</time></trkpt>
<trkpt lat="35.13621" lon="-84.954364"><ele>258.5</ele><time>2026-07-22T16:17:39Z</time></trkpt>
<trkpt lat="35.136199" lon="-84.954399"><ele>257.6</ele><time>2026-07-22T16:17:41Z</time></trkpt>
<trkpt lat="35.13618" lon="-84.954432"><ele>259.1</ele><time>2026-07-22T16:17:43Z</time></trkpt>
<trkpt lat="35.136154" lon="-84.954465"><ele>260.3</ele><time>2026-07-22T16:17:45Z</time></trkpt>
<trkpt lat="35.136121" lon="-84.954476"><ele>261.2</ele><time>2026-07-22T16:17:47Z</time></trkpt>
<trkpt lat="35.136096" lon="-84.954459"><ele>260.9</ele><time>2026-07-22T16:17:49Z</time></trkpt>
<trkpt lat="35.136075" lon="-84.954436"><ele>260.6</ele><time>2026-07-22T16:17:51Z</time></trkpt>
<trkpt lat="35.136044" lon="-84.954409"><ele>260.3</ele><time>2026-07-22T16:17:54Z</time></trkpt>
<trkpt lat="35.136012" lon="-84.95441"><ele>259.4</ele><time>2026-07-22T16:17:56Z</time></trkpt>
<trkpt lat="35.135986" lon="-84.954424"><ele>261.2</ele><time>2026-07-22T16:17:58Z</time></trkpt>
<trkpt lat="35.135961" lon="-84.95444"><ele>260.9</ele><time>2026-07-22T16:18:00Z</time></trkpt>
<trkpt lat="35.135925" lon="-84.954465"><ele>262.4</ele><time>2026-07-22T16:18:03Z</time></trkpt>
<trkpt lat="35.135898" lon="-84.954469"><ele>262.1</ele><time>2026-07-22T16:18:05Z</time></trkpt>
<trkpt lat="35.135859" lon="-84.954473"><ele>263.3</ele><time>2026-07-22T16:18:08Z</time></trkpt>
<trkpt lat="35.135821" lon="-84.954453"><ele>260.9</ele><time>2026-07-22T16:18:11Z</time></trkpt>
<trkpt lat="35.135794" lon="-84.95443"><ele>259.4</ele><time>2026-07-22T16:18:13Z</time></trkpt>
<trkpt lat="35.13576" lon="-84.954417"><ele>260.3</ele><time>2026-07-22T16:18:16Z</time></trkpt>
<trkpt lat="35.13572" lon="-84.9544"><ele>261.5</ele><time>2026-07-22T16:18:19Z</time></trkpt>
<trkpt lat="35.135683" lon="-84.954383"><ele>260.6</ele><time>2026-07-22T16:18:22Z</time></trkpt>
<trkpt lat="35.135651" lon="-84.954359"><ele>259.4</ele><time>2026-07-22T16:18:25Z</time></trkpt>
<trkpt lat="35.135619" lon="-84.954331"><ele>257.9</ele><time>2026-07-22T16:18:28Z</time></trkpt>
<trkpt lat="35.135581" lon="-84.954318"><ele>257.6</ele><time>2026-07-22T16:18:31Z</time></trkpt>
<trkpt lat="35.135554" lon="-84.954309"><ele>257.3</ele><time>2026-07-22T16:18:33Z</time></trkpt>
<trkpt lat="35.135516" lon="-84.954303"><ele>256.6</ele><time>2026-07-22T16:18:36Z</time></trkpt>
<trkpt lat="35.135483" lon="-84.954298"><ele>256.3</ele><time>2026-07-22T16:18:39Z</time></trkpt>
<trkpt lat="35.135465" lon="-84.954338"><ele>256.6</ele><time>2026-07-22T16:18:42Z</time></trkpt>
<trkpt lat="35.135474" lon="-84.954369"><ele>255.7</ele><time>2026-07-22T16:18:44Z</time></trkpt>
<trkpt lat="35.135501" lon="-84.954394"><ele>255.4</ele><time>2026-07-22T16:18:46Z</time></trkpt>
<trkpt lat="35.135529" lon="-84.95441"><ele>256.0</ele><time>2026-07-22T16:18:48Z</time></trkpt>
<trkpt lat="35.135558" lon="-84.954438"><ele>254.2</ele><time>2026-07-22T16:18:51Z</time></trkpt>
<trkpt lat="35.135587" lon="-84.954469"><ele>253.3</ele><time>2026-07-22T16:18:54Z</time></trkpt>
<trkpt lat="35.135614" lon="-84.954485"><ele>251.5</ele><time>2026-07-22T16:18:56Z</time></trkpt>
<trkpt lat="35.135647" lon="-84.954499"><ele>250.5</ele><time>2026-07-22T16:18:58Z</time></trkpt>
<trkpt lat="35.135674" lon="-84.954507"><ele>248.1</ele><time>2026-07-22T16:19:00Z</time></trkpt>
<trkpt lat="35.135709" lon="-84.954528"><ele>248.1</ele><time>2026-07-22T16:19:03Z</time></trkpt>
<trkpt lat="35.135744" lon="-84.954548"><ele>249.0</ele><time>2026-07-22T16:19:06Z</time></trkpt>
<trkpt lat="35.135768" lon="-84.954566"><ele>248.4</ele><time>2026-07-22T16:19:08Z</time></trkpt>
<trkpt lat="35.135791" lon="-84.954586"><ele>248.1</ele><time>2026-07-22T16:19:10Z</time></trkpt>
<trkpt lat="35.135814" lon="-84.954605"><ele>246.9</ele><time>2026-07-22T16:19:12Z</time></trkpt>
<trkpt lat="35.135839" lon="-84.954626"><ele>246.6</ele><time>2026-07-22T16:19:14Z</time></trkpt>
<trkpt lat="35.135862" lon="-84.954648"><ele>246.9</ele><time>2026-07-22T16:19:16Z</time></trkpt>
<trkpt lat="35.135872" lon="-84.954682"><ele>246.9</ele><time>2026-07-22T16:19:18Z</time></trkpt>
<trkpt lat="35.135858" lon="-84.95473"><ele>247.8</ele><time>2026-07-22T16:19:21Z</time></trkpt>
<trkpt lat="35.135824" lon="-84.954741"><ele>247.8</ele><time>2026-07-22T16:19:24Z</time></trkpt>
<trkpt lat="35.13581" lon="-84.954709"><ele>248.1</ele><time>2026-07-22T16:19:26Z</time></trkpt>
<trkpt lat="35.135839" lon="-84.954683"><ele>246.3</ele><time>2026-07-22T16:19:28Z</time></trkpt>
<trkpt lat="35.135855" lon="-84.95472"><ele>246.6</ele><time>2026-07-22T16:19:30Z</time></trkpt>
<trkpt lat="35.135823" lon="-84.954731"><ele>245.1</ele><time>2026-07-22T16:19:32Z</time></trkpt>
<trkpt lat="35.135801" lon="-84.954699"><ele>246.6</ele><time>2026-07-22T16:19:35Z</time></trkpt>
<trkpt lat="35.135773" lon="-84.954675"><ele>248.4</ele><time>2026-07-22T16:19:38Z</time></trkpt>
<trkpt lat="35.135743" lon="-84.954667"><ele>247.5</ele><time>2026-07-22T16:19:41Z</time></trkpt>
<trkpt lat="35.135723" lon="-84.954697"><ele>249.0</ele><time>2026-07-22T16:19:44Z</time></trkpt>
<trkpt lat="35.135725" lon="-84.954742"><ele>248.7</ele><time>2026-07-22T16:19:47Z</time></trkpt>
<trkpt lat="35.135716" lon="-84.954783"><ele>248.1</ele><time>2026-07-22T16:19:50Z</time></trkpt>
<trkpt lat="35.135704" lon="-84.954826"><ele>248.7</ele><time>2026-07-22T16:19:53Z</time></trkpt>
<trkpt lat="35.135685" lon="-84.954851"><ele>249.0</ele><time>2026-07-22T16:19:55Z</time></trkpt>
<trkpt lat="35.135649" lon="-84.954866"><ele>248.7</ele><time>2026-07-22T16:19:58Z</time></trkpt>
<trkpt lat="35.135616" lon="-84.954886"><ele>250.2</ele><time>2026-07-22T16:20:01Z</time></trkpt>
<trkpt lat="35.135619" lon="-84.954885"><ele>249.9</ele><time>2026-07-22T16:20:02Z</time></trkpt>
<trkpt lat="35.135621" lon="-84.954884"><ele>249.9</ele><time>2026-07-22T16:20:05Z</time></trkpt>
<trkpt lat="35.135616" lon="-84.954891"><ele>250.5</ele><time>2026-07-22T16:20:06Z</time></trkpt>
<trkpt lat="35.13559" lon="-84.954934"><ele>250.5</ele><time>2026-07-22T16:20:10Z</time></trkpt>
<trkpt lat="35.135567" lon="-84.95497"><ele>250.9</ele><time>2026-07-22T16:20:12Z</time></trkpt>
<trkpt lat="35.135533" lon="-84.954992"><ele>250.2</ele><time>2026-07-22T16:20:14Z</time></trkpt>
<trkpt lat="35.135492" lon="-84.954997"><ele>249.9</ele><time>2026-07-22T16:20:16Z</time></trkpt>
<trkpt lat="35.135455" lon="-84.955009"><ele>251.2</ele><time>2026-07-22T16:20:18Z</time></trkpt>
<trkpt lat="35.135428" lon="-84.955011"><ele>251.8</ele><time>2026-07-22T16:20:20Z</time></trkpt>
<trkpt lat="35.135396" lon="-84.955009"><ele>253.3</ele><time>2026-07-22T16:20:23Z</time></trkpt>
<trkpt lat="35.135363" lon="-84.954998"><ele>254.8</ele><time>2026-07-22T16:20:26Z</time></trkpt>
<trkpt lat="35.135355" lon="-84.955037"><ele>256.3</ele><time>2026-07-22T16:20:30Z</time></trkpt>
<trkpt lat="35.135326" lon="-84.955068"><ele>256.9</ele><time>2026-07-22T16:20:33Z</time></trkpt>
<trkpt lat="35.135294" lon="-84.955077"><ele>256.0</ele><time>2026-07-22T16:20:35Z</time></trkpt>
<trkpt lat="35.135256" lon="-84.955071"><ele>255.7</ele><time>2026-07-22T16:20:37Z</time></trkpt>
<trkpt lat="35.13523" lon="-84.955049"><ele>255.1</ele><time>2026-07-22T16:20:39Z</time></trkpt>
<trkpt lat="35.135211" lon="-84.95502"><ele>253.6</ele><time>2026-07-22T16:20:41Z</time></trkpt>
<trkpt lat="35.13519" lon="-84.954997"><ele>253.6</ele><time>2026-07-22T16:20:43Z</time></trkpt>
<trkpt lat="35.135158" lon="-84.954975"><ele>254.8</ele><time>2026-07-22T16:20:46Z</time></trkpt>
<trkpt lat="35.13513" lon="-84.95495"><ele>254.2</ele><time>2026-07-22T16:20:49Z</time></trkpt>
<trkpt lat="35.135096" lon="-84.95493"><ele>254.8</ele><time>2026-07-22T16:20:52Z</time></trkpt>
<trkpt lat="35.135069" lon="-84.954918"><ele>254.2</ele><time>2026-07-22T16:20:54Z</time></trkpt>
<trkpt lat="35.135037" lon="-84.954895"><ele>252.1</ele><time>2026-07-22T16:20:57Z</time></trkpt>
<trkpt lat="35.135003" lon="-84.954877"><ele>251.8</ele><time>2026-07-22T16:21:00Z</time></trkpt>
<trkpt lat="35.134975" lon="-84.954869"><ele>252.4</ele><time>2026-07-22T16:21:02Z</time></trkpt>
<trkpt lat="35.134948" lon="-84.954872"><ele>253.3</ele><time>2026-07-22T16:21:04Z</time></trkpt>
<trkpt lat="35.134907" lon="-84.954875"><ele>252.1</ele><time>2026-07-22T16:21:07Z</time></trkpt>
<trkpt lat="35.134879" lon="-84.954872"><ele>250.9</ele><time>2026-07-22T16:21:09Z</time></trkpt>
<trkpt lat="35.134845" lon="-84.954883"><ele>249.9</ele><time>2026-07-22T16:21:12Z</time></trkpt>
<trkpt lat="35.134813" lon="-84.954893"><ele>249.6</ele><time>2026-07-22T16:21:15Z</time></trkpt>
<trkpt lat="35.134776" lon="-84.95491"><ele>249.9</ele><time>2026-07-22T16:21:18Z</time></trkpt>
<trkpt lat="35.134739" lon="-84.954919"><ele>249.9</ele><time>2026-07-22T16:21:21Z</time></trkpt>
<trkpt lat="35.134712" lon="-84.954926"><ele>249.6</ele><time>2026-07-22T16:21:23Z</time></trkpt>
<trkpt lat="35.134673" lon="-84.954932"><ele>250.9</ele><time>2026-07-22T16:21:26Z</time></trkpt>
<trkpt lat="35.134644" lon="-84.954934"><ele>251.5</ele><time>2026-07-22T16:21:28Z</time></trkpt>
<trkpt lat="35.134616" lon="-84.954937"><ele>250.5</ele><time>2026-07-22T16:21:30Z</time></trkpt>
<trkpt lat="35.134577" lon="-84.954949"><ele>252.1</ele><time>2026-07-22T16:21:33Z</time></trkpt>
<trkpt lat="35.134538" lon="-84.954957"><ele>253.6</ele><time>2026-07-22T16:21:36Z</time></trkpt>
<trkpt lat="35.134508" lon="-84.954962"><ele>254.2</ele><time>2026-07-22T16:21:38Z</time></trkpt>
<trkpt lat="35.134479" lon="-84.954968"><ele>253.9</ele><time>2026-07-22T16:21:40Z</time></trkpt>
<trkpt lat="35.134449" lon="-84.954966"><ele>253.6</ele><time>2026-07-22T16:21:42Z</time></trkpt>
<trkpt lat="35.13442" lon="-84.954966"><ele>253.6</ele><time>2026-07-22T16:21:44Z</time></trkpt>
<trkpt lat="35.134391" lon="-84.954967"><ele>252.1</ele><time>2026-07-22T16:21:46Z</time></trkpt>
<trkpt lat="35.1344" lon="-84.955006"><ele>249.3</ele><time>2026-07-22T16:21:53Z</time></trkpt>
<trkpt lat="35.134425" lon="-84.955026"><ele>249.0</ele><time>2026-07-22T16:21:55Z</time></trkpt>
<trkpt lat="35.134454" lon="-84.955049"><ele>247.8</ele><time>2026-07-22T16:21:57Z</time></trkpt>
<trkpt lat="35.134478" lon="-84.955067"><ele>246.9</ele><time>2026-07-22T16:21:59Z</time></trkpt>
<trkpt lat="35.134503" lon="-84.955085"><ele>247.2</ele><time>2026-07-22T16:22:01Z</time></trkpt>
<trkpt lat="35.134534" lon="-84.955115"><ele>247.2</ele><time>2026-07-22T16:22:04Z</time></trkpt>
<trkpt lat="35.13456" lon="-84.955133"><ele>245.7</ele><time>2026-07-22T16:22:06Z</time></trkpt>
<trkpt lat="35.134587" lon="-84.955145"><ele>246.3</ele><time>2026-07-22T16:22:08Z</time></trkpt>
<trkpt lat="35.134627" lon="-84.955151"><ele>245.1</ele><time>2026-07-22T16:22:11Z</time></trkpt>
<trkpt lat="35.134651" lon="-84.955118"><ele>244.1</ele><time>2026-07-22T16:22:13Z</time></trkpt>
<trkpt lat="35.134675" lon="-84.955079"><ele>246.3</ele><time>2026-07-22T16:22:16Z</time></trkpt>
<trkpt lat="35.134701" lon="-84.955067"><ele>246.3</ele><time>2026-07-22T16:22:18Z</time></trkpt>
<trkpt lat="35.134731" lon="-84.955064"><ele>246.3</ele><time>2026-07-22T16:22:20Z</time></trkpt>
<trkpt lat="35.134768" lon="-84.955058"><ele>246.6</ele><time>2026-07-22T16:22:23Z</time></trkpt>
<trkpt lat="35.134806" lon="-84.955058"><ele>246.0</ele><time>2026-07-22T16:22:26Z</time></trkpt>
<trkpt lat="35.134834" lon="-84.955059"><ele>245.7</ele><time>2026-07-22T16:22:28Z</time></trkpt>
<trkpt lat="35.134864" lon="-84.955064"><ele>245.4</ele><time>2026-07-22T16:22:30Z</time></trkpt>
<trkpt lat="35.134891" lon="-84.955079"><ele>246.6</ele><time>2026-07-22T16:22:32Z</time></trkpt>
<trkpt lat="35.134919" lon="-84.955089"><ele>246.0</ele><time>2026-07-22T16:22:34Z</time></trkpt>
<trkpt lat="35.134957" lon="-84.955107"><ele>247.2</ele><time>2026-07-22T16:22:37Z</time></trkpt>
<trkpt lat="35.134984" lon="-84.955141"><ele>247.8</ele><time>2026-07-22T16:22:40Z</time></trkpt>
<trkpt lat="35.134949" lon="-84.955162"><ele>252.7</ele><time>2026-07-22T16:22:44Z</time></trkpt>
<trkpt lat="35.13492" lon="-84.955156"><ele>255.1</ele><time>2026-07-22T16:22:46Z</time></trkpt>
<trkpt lat="35.134887" lon="-84.955155"><ele>253.9</ele><time>2026-07-22T16:22:48Z</time></trkpt>
<trkpt lat="35.134858" lon="-84.955165"><ele>254.5</ele><time>2026-07-22T16:22:50Z</time></trkpt>
<trkpt lat="35.134832" lon="-84.955181"><ele>254.5</ele><time>2026-07-22T16:22:52Z</time></trkpt>
<trkpt lat="35.134796" lon="-84.955198"><ele>256.6</ele><time>2026-07-22T16:22:55Z</time></trkpt>
<trkpt lat="35.134768" lon="-84.955231"><ele>258.2</ele><time>2026-07-22T16:22:58Z</time></trkpt>
<trkpt lat="35.134752" lon="-84.955265"><ele>258.2</ele><time>2026-07-22T16:23:01Z</time></trkpt>
<trkpt lat="35.134739" lon="-84.955311"><ele>260.6</ele><time>2026-07-22T16:23:04Z</time></trkpt>
<trkpt lat="35.134719" lon="-84.955337"><ele>260.9</ele><time>2026-07-22T16:23:06Z</time></trkpt>
<trkpt lat="35.13469" lon="-84.955345"><ele>259.4</ele><time>2026-07-22T16:23:08Z</time></trkpt>
<trkpt lat="35.134659" lon="-84.955341"><ele>260.3</ele><time>2026-07-22T16:23:10Z</time></trkpt>
<trkpt lat="35.134619" lon="-84.955341"><ele>260.9</ele><time>2026-07-22T16:23:13Z</time></trkpt>
<trkpt lat="35.13459" lon="-84.955344"><ele>260.9</ele><time>2026-07-22T16:23:15Z</time></trkpt>
<trkpt lat="35.134559" lon="-84.955349"><ele>261.5</ele><time>2026-07-22T16:23:17Z</time></trkpt>
<trkpt lat="35.134531" lon="-84.955348"><ele>260.9</ele><time>2026-07-22T16:23:19Z</time></trkpt>
<trkpt lat="35.134491" lon="-84.955343"><ele>262.1</ele><time>2026-07-22T16:23:22Z</time></trkpt>
<trkpt lat="35.134463" lon="-84.955344"><ele>262.4</ele><time>2026-07-22T16:23:24Z</time></trkpt>
<trkpt lat="35.134435" lon="-84.955359"><ele>262.1</ele><time>2026-07-22T16:23:26Z</time></trkpt>
<trkpt lat="35.134412" lon="-84.95538"><ele>263.3</ele><time>2026-07-22T16:23:28Z</time></trkpt>
<trkpt lat="35.134402" lon="-84.955425"><ele>262.7</ele><time>2026-07-22T16:23:31Z</time></trkpt>
<trkpt lat="35.134402" lon="-84.955467"><ele>260.0</ele><time>2026-07-22T16:23:34Z</time></trkpt>
<trkpt lat="35.134416" lon="-84.955496"><ele>258.5</ele><time>2026-07-22T16:23:36Z</time></trkpt>
<trkpt lat="35.134433" lon="-84.955538"><ele>258.8</ele><time>2026-07-22T16:23:39Z</time></trkpt>
<trkpt lat="35.134442" lon="-84.955583"><ele>259.4</ele><time>2026-07-22T16:23:42Z</time></trkpt>
<trkpt lat="35.134461" lon="-84.955623"><ele>260.6</ele><time>2026-07-22T16:23:45Z</time></trkpt>
<trkpt lat="35.134484" lon="-84.955646"><ele>260.3</ele><time>2026-07-22T16:23:47Z</time></trkpt>
<trkpt lat="35.134507" lon="-84.955667"><ele>260.0</ele><time>2026-07-22T16:23:49Z</time></trkpt>
<trkpt lat="35.134539" lon="-84.955697"><ele>259.4</ele><time>2026-07-22T16:23:52Z</time></trkpt>
<trkpt lat="35.134556" lon="-84.955727"><ele>258.8</ele><time>2026-07-22T16:23:54Z</time></trkpt>
<trkpt lat="35.134577" lon="-84.955763"><ele>257.6</ele><time>2026-07-22T16:23:57Z</time></trkpt>
<trkpt lat="35.134595" lon="-84.955805"><ele>258.2</ele><time>2026-07-22T16:24:00Z</time></trkpt>
<trkpt lat="35.134593" lon="-84.955848"><ele>259.4</ele><time>2026-07-22T16:24:02Z</time></trkpt>
<trkpt lat="35.134573" lon="-84.955886"><ele>259.7</ele><time>2026-07-22T16:24:04Z</time></trkpt>
<trkpt lat="35.13455" lon="-84.955917"><ele>258.2</ele><time>2026-07-22T16:24:06Z</time></trkpt>
<trkpt lat="35.134523" lon="-84.955948"><ele>259.1</ele><time>2026-07-22T16:24:08Z</time></trkpt>
<trkpt lat="35.134494" lon="-84.955969"><ele>260.6</ele><time>2026-07-22T16:24:10Z</time></trkpt>
<trkpt lat="35.134466" lon="-84.955984"><ele>260.3</ele><time>2026-07-22T16:24:12Z</time></trkpt>
<trkpt lat="35.134435" lon="-84.95599"><ele>259.4</ele><time>2026-07-22T16:24:14Z</time></trkpt>
<trkpt lat="35.134395" lon="-84.955993"><ele>260.6</ele><time>2026-07-22T16:24:17Z</time></trkpt>
<trkpt lat="35.134368" lon="-84.955985"><ele>260.0</ele><time>2026-07-22T16:24:19Z</time></trkpt>
<trkpt lat="35.134342" lon="-84.955974"><ele>259.4</ele><time>2026-07-22T16:24:21Z</time></trkpt>
<trkpt lat="35.134313" lon="-84.955969"><ele>257.9</ele><time>2026-07-22T16:24:23Z</time></trkpt>
<trkpt lat="35.134284" lon="-84.955956"><ele>257.3</ele><time>2026-07-22T16:24:25Z</time></trkpt>
<trkpt lat="35.134256" lon="-84.955946"><ele>256.9</ele><time>2026-07-22T16:24:27Z</time></trkpt>
<trkpt lat="35.134224" lon="-84.955944"><ele>258.2</ele><time>2026-07-22T16:24:29Z</time></trkpt>
<trkpt lat="35.134194" lon="-84.955948"><ele>258.2</ele><time>2026-07-22T16:24:31Z</time></trkpt>
<trkpt lat="35.13416" lon="-84.95597"><ele>259.4</ele><time>2026-07-22T16:24:34Z</time></trkpt>
<trkpt lat="35.134141" lon="-84.955999"><ele>260.9</ele><time>2026-07-22T16:24:36Z</time></trkpt>
<trkpt lat="35.134127" lon="-84.95603"><ele>261.8</ele><time>2026-07-22T16:24:38Z</time></trkpt>
<trkpt lat="35.134117" lon="-84.956078"><ele>261.2</ele><time>2026-07-22T16:24:41Z</time></trkpt>
<trkpt lat="35.134111" lon="-84.956113"><ele>261.2</ele><time>2026-07-22T16:24:43Z</time></trkpt>
<trkpt lat="35.134115" lon="-84.956163"><ele>261.2</ele><time>2026-07-22T16:24:46Z</time></trkpt>
<trkpt lat="35.134134" lon="-84.956206"><ele>262.4</ele><time>2026-07-22T16:24:49Z</time></trkpt>
<trkpt lat="35.134154" lon="-84.956229"><ele>262.1</ele><time>2026-07-22T16:24:51Z</time></trkpt>
<trkpt lat="35.134187" lon="-84.956257"><ele>262.1</ele><time>2026-07-22T16:24:54Z</time></trkpt>
<trkpt lat="35.134211" lon="-84.956296"><ele>262.7</ele><time>2026-07-22T16:24:57Z</time></trkpt>
<trkpt lat="35.134213" lon="-84.956345"><ele>263.7</ele><time>2026-07-22T16:25:00Z</time></trkpt>
<trkpt lat="35.134193" lon="-84.956378"><ele>263.0</ele><time>2026-07-22T16:25:02Z</time></trkpt>
<trkpt lat="35.134169" lon="-84.956403"><ele>263.3</ele><time>2026-07-22T16:25:04Z</time></trkpt>
<trkpt lat="35.134145" lon="-84.956421"><ele>264.0</ele><time>2026-07-22T16:25:06Z</time></trkpt>
<trkpt lat="35.134118" lon="-84.956443"><ele>263.3</ele><time>2026-07-22T16:25:08Z</time></trkpt>
<trkpt lat="35.134095" lon="-84.956468"><ele>263.7</ele><time>2026-07-22T16:25:10Z</time></trkpt>
<trkpt lat="35.134065" lon="-84.956495"><ele>264.6</ele><time>2026-07-22T16:25:13Z</time></trkpt>
<trkpt lat="35.134053" lon="-84.956538"><ele>264.3</ele><time>2026-07-22T16:25:16Z</time></trkpt>
<trkpt lat="35.134062" lon="-84.95657"><ele>264.6</ele><time>2026-07-22T16:25:18Z</time></trkpt>
<trkpt lat="35.134089" lon="-84.956607"><ele>262.4</ele><time>2026-07-22T16:25:21Z</time></trkpt>
<trkpt lat="35.134105" lon="-84.956652"><ele>264.0</ele><time>2026-07-22T16:25:24Z</time></trkpt>
<trkpt lat="35.134127" lon="-84.956688"><ele>262.4</ele><time>2026-07-22T16:25:27Z</time></trkpt>
<trkpt lat="35.134151" lon="-84.956727"><ele>261.2</ele><time>2026-07-22T16:25:30Z</time></trkpt>
<trkpt lat="35.134177" lon="-84.956761"><ele>261.8</ele><time>2026-07-22T16:25:33Z</time></trkpt>
<trkpt lat="35.134192" lon="-84.95679"><ele>261.2</ele><time>2026-07-22T16:25:35Z</time></trkpt>
<trkpt lat="35.134214" lon="-84.956831"><ele>260.9</ele><time>2026-07-22T16:25:38Z</time></trkpt>
<trkpt lat="35.13422" lon="-84.956867"><ele>262.4</ele><time>2026-07-22T16:25:40Z</time></trkpt>
<trkpt lat="35.13422" lon="-84.956905"><ele>263.7</ele><time>2026-07-22T16:25:42Z</time></trkpt>
<trkpt lat="35.134221" lon="-84.956939"><ele>264.0</ele><time>2026-07-22T16:25:44Z</time></trkpt>
<trkpt lat="35.134218" lon="-84.956974"><ele>264.3</ele><time>2026-07-22T16:25:46Z</time></trkpt>
<trkpt lat="35.134208" lon="-84.957008"><ele>264.9</ele><time>2026-07-22T16:25:48Z</time></trkpt>
<trkpt lat="35.134182" lon="-84.957035"><ele>266.1</ele><time>2026-07-22T16:25:50Z</time></trkpt>
<trkpt lat="35.134151" lon="-84.957046"><ele>265.2</ele><time>2026-07-22T16:25:52Z</time></trkpt>
<trkpt lat="35.134115" lon="-84.957043"><ele>263.0</ele><time>2026-07-22T16:25:54Z</time></trkpt>
<trkpt lat="35.134084" lon="-84.95703"><ele>263.0</ele><time>2026-07-22T16:25:56Z</time></trkpt>
<trkpt lat="35.134053" lon="-84.957022"><ele>262.1</ele><time>2026-07-22T16:25:58Z</time></trkpt>
<trkpt lat="35.134023" lon="-84.957024"><ele>262.7</ele><time>2026-07-22T16:26:00Z</time></trkpt>
<trkpt lat="35.133995" lon="-84.95704"><ele>264.9</ele><time>2026-07-22T16:26:02Z</time></trkpt>
<trkpt lat="35.133956" lon="-84.957048"><ele>265.2</ele><time>2026-07-22T16:26:05Z</time></trkpt>
<trkpt lat="35.13393" lon="-84.957064"><ele>265.2</ele><time>2026-07-22T16:26:07Z</time></trkpt>
<trkpt lat="35.133904" lon="-84.957078"><ele>265.2</ele><time>2026-07-22T16:26:09Z</time></trkpt>
<trkpt lat="35.133868" lon="-84.957095"><ele>265.5</ele><time>2026-07-22T16:26:12Z</time></trkpt>
<trkpt lat="35.133843" lon="-84.95711"><ele>264.3</ele><time>2026-07-22T16:26:14Z</time></trkpt>
<trkpt lat="35.133837" lon="-84.957157"><ele>265.8</ele><time>2026-07-22T16:26:17Z</time></trkpt>
<trkpt lat="35.133839" lon="-84.957202"><ele>265.8</ele><time>2026-07-22T16:26:20Z</time></trkpt>
<trkpt lat="35.133845" lon="-84.957239"><ele>264.9</ele><time>2026-07-22T16:26:23Z</time></trkpt>
<trkpt lat="35.13387" lon="-84.957258"><ele>263.7</ele><time>2026-07-22T16:26:25Z</time></trkpt>
<trkpt lat="35.133907" lon="-84.957278"><ele>263.3</ele><time>2026-07-22T16:26:28Z</time></trkpt>
<trkpt lat="35.133944" lon="-84.95729"><ele>262.7</ele><time>2026-07-22T16:26:31Z</time></trkpt>
<trkpt lat="35.133981" lon="-84.957293"><ele>262.7</ele><time>2026-07-22T16:26:34Z</time></trkpt>
<trkpt lat="35.134019" lon="-84.957307"><ele>261.5</ele><time>2026-07-22T16:26:37Z</time></trkpt>
<trkpt lat="35.134055" lon="-84.957317"><ele>261.8</ele><time>2026-07-22T16:26:40Z</time></trkpt>
<trkpt lat="35.134086" lon="-84.957354"><ele>263.3</ele><time>2026-07-22T16:26:43Z</time></trkpt>
<trkpt lat="35.134108" lon="-84.957377"><ele>263.3</ele><time>2026-07-22T16:26:45Z</time></trkpt>
<trkpt lat="35.134131" lon="-84.957397"><ele>263.7</ele><time>2026-07-22T16:26:47Z</time></trkpt>
<trkpt lat="35.134162" lon="-84.957425"><ele>264.3</ele><time>2026-07-22T16:26:50Z</time></trkpt>
<trkpt lat="35.134174" lon="-84.957472"><ele>265.2</ele><time>2026-07-22T16:26:53Z</time></trkpt>
<trkpt lat="35.134165" lon="-84.95752"><ele>265.8</ele><time>2026-07-22T16:26:56Z</time></trkpt>
<trkpt lat="35.134168" lon="-84.957571"><ele>265.5</ele><time>2026-07-22T16:26:59Z</time></trkpt>
<trkpt lat="35.134169" lon="-84.957606"><ele>266.1</ele><time>2026-07-22T16:27:01Z</time></trkpt>
<trkpt lat="35.134171" lon="-84.957643"><ele>268.2</ele><time>2026-07-22T16:27:03Z</time></trkpt>
<trkpt lat="35.134158" lon="-84.957676"><ele>269.1</ele><time>2026-07-22T16:27:05Z</time></trkpt>
<trkpt lat="35.134143" lon="-84.957706"><ele>270.4</ele><time>2026-07-22T16:27:07Z</time></trkpt>
<trkpt lat="35.134117" lon="-84.957743"><ele>272.2</ele><time>2026-07-22T16:27:10Z</time></trkpt>
<trkpt lat="35.1341" lon="-84.957772"><ele>273.4</ele><time>2026-07-22T16:27:12Z</time></trkpt>
<trkpt lat="35.134096" lon="-84.957778"><ele>273.4</ele><time>2026-07-22T16:27:13Z</time></trkpt>
<trkpt lat="35.134095" lon="-84.957767"><ele>273.1</ele><time>2026-07-22T16:27:15Z</time></trkpt>
<trkpt lat="35.134094" lon="-84.957771"><ele>272.8</ele><time>2026-07-22T16:27:16Z</time></trkpt>
<trkpt lat="35.134063" lon="-84.957797"><ele>274.3</ele><time>2026-07-22T16:27:20Z</time></trkpt>
<trkpt lat="35.134026" lon="-84.957816"><ele>275.5</ele><time>2026-07-22T16:27:23Z</time></trkpt>
<trkpt lat="35.133995" lon="-84.957823"><ele>275.8</ele><time>2026-07-22T16:27:25Z</time></trkpt>
<trkpt lat="35.133962" lon="-84.957822"><ele>275.8</ele><time>2026-07-22T16:27:27Z</time></trkpt>
<trkpt lat="35.133933" lon="-84.957823"><ele>273.7</ele><time>2026-07-22T16:27:29Z</time></trkpt>
<trkpt lat="35.133904" lon="-84.957817"><ele>272.5</ele><time>2026-07-22T16:27:31Z</time></trkpt>
<trkpt lat="35.133876" lon="-84.957819"><ele>272.2</ele><time>2026-07-22T16:27:33Z</time></trkpt>
<trkpt lat="35.13384" lon="-84.957833"><ele>273.7</ele><time>2026-07-22T16:27:36Z</time></trkpt>
<trkpt lat="35.133815" lon="-84.957861"><ele>272.8</ele><time>2026-07-22T16:27:39Z</time></trkpt>
<trkpt lat="35.133801" lon="-84.957889"><ele>272.8</ele><time>2026-07-22T16:27:41Z</time></trkpt>
<trkpt lat="35.133792" lon="-84.957929"><ele>272.5</ele><time>2026-07-22T16:27:44Z</time></trkpt>
<trkpt lat="35.133771" lon="-84.957967"><ele>272.8</ele><time>2026-07-22T16:27:47Z</time></trkpt>
<trkpt lat="35.133739" lon="-84.957995"><ele>272.8</ele><time>2026-07-22T16:27:50Z</time></trkpt>
<trkpt lat="35.133719" lon="-84.958026"><ele>273.1</ele><time>2026-07-22T16:27:52Z</time></trkpt>
<trkpt lat="35.133708" lon="-84.958058"><ele>270.1</ele><time>2026-07-22T16:27:54Z</time></trkpt>
<trkpt lat="35.133699" lon="-84.9581"><ele>271.6</ele><time>2026-07-22T16:27:57Z</time></trkpt>
<trkpt lat="35.133689" lon="-84.958141"><ele>270.1</ele><time>2026-07-22T16:28:00Z</time></trkpt>
<trkpt lat="35.13369" lon="-84.958188"><ele>270.4</ele><time>2026-07-22T16:28:03Z</time></trkpt>
<trkpt lat="35.133698" lon="-84.958222"><ele>271.6</ele><time>2026-07-22T16:28:05Z</time></trkpt>
<trkpt lat="35.133717" lon="-84.958254"><ele>270.7</ele><time>2026-07-22T16:28:07Z</time></trkpt>
<trkpt lat="35.133736" lon="-84.958284"><ele>270.4</ele><time>2026-07-22T16:28:09Z</time></trkpt>
<trkpt lat="35.13375" lon="-84.958318"><ele>270.4</ele><time>2026-07-22T16:28:11Z</time></trkpt>
<trkpt lat="35.133764" lon="-84.958351"><ele>270.4</ele><time>2026-07-22T16:28:13Z</time></trkpt>
<trkpt lat="35.133772" lon="-84.958388"><ele>268.8</ele><time>2026-07-22T16:28:15Z</time></trkpt>
<trkpt lat="35.133774" lon="-84.958427"><ele>270.4</ele><time>2026-07-22T16:28:17Z</time></trkpt>
<trkpt lat="35.133754" lon="-84.958467"><ele>271.6</ele><time>2026-07-22T16:28:19Z</time></trkpt>
<trkpt lat="35.133733" lon="-84.958496"><ele>272.8</ele><time>2026-07-22T16:28:21Z</time></trkpt>
<trkpt lat="35.133705" lon="-84.958499"><ele>273.4</ele><time>2026-07-22T16:28:23Z</time></trkpt>
<trkpt lat="35.133673" lon="-84.958497"><ele>274.0</ele><time>2026-07-22T16:28:25Z</time></trkpt>
<trkpt lat="35.133642" lon="-84.958493"><ele>274.6</ele><time>2026-07-22T16:28:27Z</time></trkpt>
<trkpt lat="35.133609" lon="-84.958495"><ele>273.4</ele><time>2026-07-22T16:28:29Z</time></trkpt>
<trkpt lat="35.133575" lon="-84.958498"><ele>273.4</ele><time>2026-07-22T16:28:31Z</time></trkpt>
<trkpt lat="35.133547" lon="-84.958492"><ele>273.7</ele><time>2026-07-22T16:28:33Z</time></trkpt>
<trkpt lat="35.133507" lon="-84.95848"><ele>273.1</ele><time>2026-07-22T16:28:36Z</time></trkpt>
<trkpt lat="35.133478" lon="-84.958474"><ele>271.6</ele><time>2026-07-22T16:28:38Z</time></trkpt>
<trkpt lat="35.133446" lon="-84.958475"><ele>271.0</ele><time>2026-07-22T16:28:40Z</time></trkpt>
<trkpt lat="35.133416" lon="-84.958466"><ele>271.9</ele><time>2026-07-22T16:28:42Z</time></trkpt>
<trkpt lat="35.133388" lon="-84.958451"><ele>270.4</ele><time>2026-07-22T16:28:44Z</time></trkpt>
<trkpt lat="35.13335" lon="-84.958442"><ele>269.7</ele><time>2026-07-22T16:28:47Z</time></trkpt>
<trkpt lat="35.133322" lon="-84.958438"><ele>269.7</ele><time>2026-07-22T16:28:49Z</time></trkpt>
<trkpt lat="35.133295" lon="-84.958436"><ele>270.1</ele><time>2026-07-22T16:28:51Z</time></trkpt>
<trkpt lat="35.133256" lon="-84.95844"><ele>268.8</ele><time>2026-07-22T16:28:54Z</time></trkpt>
<trkpt lat="35.133224" lon="-84.958456"><ele>270.4</ele><time>2026-07-22T16:28:57Z</time></trkpt>
<trkpt lat="35.133187" lon="-84.958472"><ele>270.1</ele><time>2026-07-22T16:29:00Z</time></trkpt>
<trkpt lat="35.133172" lon="-84.95852"><ele>269.4</ele><time>2026-07-22T16:29:03Z</time></trkpt>
<trkpt lat="35.133181" lon="-84.958556"><ele>269.4</ele><time>2026-07-22T16:29:05Z</time></trkpt>
<trkpt lat="35.133192" lon="-84.958602"><ele>273.1</ele><time>2026-07-22T16:29:08Z</time></trkpt>
<trkpt lat="35.133212" lon="-84.958628"><ele>273.7</ele><time>2026-07-22T16:29:10Z</time></trkpt>
<trkpt lat="35.133209" lon="-84.958678"><ele>274.3</ele><time>2026-07-22T16:29:13Z</time></trkpt>
<trkpt lat="35.133191" lon="-84.958706"><ele>274.0</ele><time>2026-07-22T16:29:15Z</time></trkpt>
<trkpt lat="35.133172" lon="-84.958745"><ele>274.9</ele><time>2026-07-22T16:29:18Z</time></trkpt>
<trkpt lat="35.133159" lon="-84.958789"><ele>274.3</ele><time>2026-07-22T16:29:21Z</time></trkpt>
<trkpt lat="35.133158" lon="-84.958834"><ele>275.5</ele><time>2026-07-22T16:29:24Z</time></trkpt>
<trkpt lat="35.133149" lon="-84.958867"><ele>276.5</ele><time>2026-07-22T16:29:26Z</time></trkpt>
<trkpt lat="35.133147" lon="-84.958901"><ele>277.7</ele><time>2026-07-22T16:29:28Z</time></trkpt>
<trkpt lat="35.13314" lon="-84.958934"><ele>278.0</ele><time>2026-07-22T16:29:30Z</time></trkpt>
<trkpt lat="35.133117" lon="-84.958959"><ele>276.5</ele><time>2026-07-22T16:29:32Z</time></trkpt>
<trkpt lat="35.133091" lon="-84.958995"><ele>276.1</ele><time>2026-07-22T16:29:35Z</time></trkpt>
<trkpt lat="35.133073" lon="-84.959021"><ele>276.1</ele><time>2026-07-22T16:29:37Z</time></trkpt>
<trkpt lat="35.133059" lon="-84.959056"><ele>276.5</ele><time>2026-07-22T16:29:39Z</time></trkpt>
<trkpt lat="35.133044" lon="-84.959088"><ele>276.5</ele><time>2026-07-22T16:29:41Z</time></trkpt>
<trkpt lat="35.133026" lon="-84.959119"><ele>276.8</ele><time>2026-07-22T16:29:43Z</time></trkpt>
<trkpt lat="35.133007" lon="-84.959149"><ele>276.1</ele><time>2026-07-22T16:29:45Z</time></trkpt>
<trkpt lat="35.132981" lon="-84.959185"><ele>276.5</ele><time>2026-07-22T16:29:48Z</time></trkpt>
<trkpt lat="35.132954" lon="-84.95922"><ele>276.5</ele><time>2026-07-22T16:29:51Z</time></trkpt>
<trkpt lat="35.132932" lon="-84.959257"><ele>276.5</ele><time>2026-07-22T16:29:54Z</time></trkpt>
<trkpt lat="35.132907" lon="-84.959294"><ele>275.2</ele><time>2026-07-22T16:29:57Z</time></trkpt>
<trkpt lat="35.132886" lon="-84.959332"><ele>273.4</ele><time>2026-07-22T16:30:00Z</time></trkpt>
<trkpt lat="35.132872" lon="-84.959363"><ele>273.4</ele><time>2026-07-22T16:30:02Z</time></trkpt>
<trkpt lat="35.132869" lon="-84.959398"><ele>272.5</ele><time>2026-07-22T16:30:04Z</time></trkpt>
<trkpt lat="35.132868" lon="-84.959432"><ele>271.9</ele><time>2026-07-22T16:30:06Z</time></trkpt>
<trkpt lat="35.132873" lon="-84.959481"><ele>273.7</ele><time>2026-07-22T16:30:09Z</time></trkpt>
<trkpt lat="35.132882" lon="-84.959516"><ele>273.4</ele><time>2026-07-22T16:30:11Z</time></trkpt>
<trkpt lat="35.132878" lon="-84.959552"><ele>273.7</ele><time>2026-07-22T16:30:13Z</time></trkpt>
<trkpt lat="35.132869" lon="-84.959599"><ele>277.7</ele><time>2026-07-22T16:30:16Z</time></trkpt>
<trkpt lat="35.132868" lon="-84.959597"><ele>277.4</ele><time>2026-07-22T16:30:17Z</time></trkpt>
<trkpt lat="35.132867" lon="-84.959596"><ele>277.4</ele><time>2026-07-22T16:30:18Z</time></trkpt>
<trkpt lat="35.132867" lon="-84.959601"><ele>277.4</ele><time>2026-07-22T16:30:19Z</time></trkpt>
<trkpt lat="35.132854" lon="-84.959634"><ele>278.3</ele><time>2026-07-22T16:30:22Z</time></trkpt>
<trkpt lat="35.132814" lon="-84.959646"><ele>276.8</ele><time>2026-07-22T16:30:25Z</time></trkpt>
<trkpt lat="35.132784" lon="-84.959644"><ele>274.6</ele><time>2026-07-22T16:30:27Z</time></trkpt>
<trkpt lat="35.132747" lon="-84.95964"><ele>274.6</ele><time>2026-07-22T16:30:29Z</time></trkpt>
<trkpt lat="35.132708" lon="-84.959626"><ele>272.2</ele><time>2026-07-22T16:30:31Z</time></trkpt>
<trkpt lat="35.13267" lon="-84.959615"><ele>273.1</ele><time>2026-07-22T16:30:33Z</time></trkpt>
<trkpt lat="35.132637" lon="-84.959601"><ele>271.6</ele><time>2026-07-22T16:30:35Z</time></trkpt>
<trkpt lat="35.132615" lon="-84.959581"><ele>271.0</ele><time>2026-07-22T16:30:37Z</time></trkpt>
<trkpt lat="35.13258" lon="-84.959558"><ele>270.4</ele><time>2026-07-22T16:30:40Z</time></trkpt>
<trkpt lat="35.132541" lon="-84.959546"><ele>270.7</ele><time>2026-07-22T16:30:43Z</time></trkpt>
<trkpt lat="35.132504" lon="-84.959532"><ele>270.4</ele><time>2026-07-22T16:30:46Z</time></trkpt>
<trkpt lat="35.132477" lon="-84.959524"><ele>271.3</ele><time>2026-07-22T16:30:48Z</time></trkpt>
<trkpt lat="35.132439" lon="-84.95952"><ele>271.6</ele><time>2026-07-22T16:30:51Z</time></trkpt>
<trkpt lat="35.132399" lon="-84.95951"><ele>272.5</ele><time>2026-07-22T16:30:54Z</time></trkpt>
<trkpt lat="35.132368" lon="-84.959509"><ele>272.5</ele><time>2026-07-22T16:30:56Z</time></trkpt>
<trkpt lat="35.13234" lon="-84.959514"><ele>271.6</ele><time>2026-07-22T16:30:58Z</time></trkpt>
<trkpt lat="35.132311" lon="-84.959519"><ele>271.3</ele><time>2026-07-22T16:31:00Z</time></trkpt>
<trkpt lat="35.132271" lon="-84.959522"><ele>270.1</ele><time>2026-07-22T16:31:03Z</time></trkpt>
<trkpt lat="35.132243" lon="-84.959523"><ele>271.9</ele><time>2026-07-22T16:31:05Z</time></trkpt>
<trkpt lat="35.132209" lon="-84.959535"><ele>272.2</ele><time>2026-07-22T16:31:08Z</time></trkpt>
<trkpt lat="35.13218" lon="-84.95954"><ele>271.3</ele><time>2026-07-22T16:31:10Z</time></trkpt>
<trkpt lat="35.132143" lon="-84.959548"><ele>271.3</ele><time>2026-07-22T16:31:13Z</time></trkpt>
<trkpt lat="35.132116" lon="-84.959554"><ele>270.7</ele><time>2026-07-22T16:31:15Z</time></trkpt>
<trkpt lat="35.132087" lon="-84.959559"><ele>270.1</ele><time>2026-07-22T16:31:17Z</time></trkpt>
<trkpt lat="35.132053" lon="-84.959584"><ele>268.5</ele><time>2026-07-22T16:31:20Z</time></trkpt>
<trkpt lat="35.132031" lon="-84.959627"><ele>269.4</ele><time>2026-07-22T16:31:23Z</time></trkpt>
<trkpt lat="35.132009" lon="-84.959661"><ele>270.1</ele><time>2026-07-22T16:31:26Z</time></trkpt>
<trkpt lat="35.131972" lon="-84.959671"><ele>270.1</ele><time>2026-07-22T16:31:29Z</time></trkpt>
<trkpt lat="35.131932" lon="-84.959683"><ele>271.9</ele><time>2026-07-22T16:31:32Z</time></trkpt>
<trkpt lat="35.131896" lon="-84.959705"><ele>274.0</ele><time>2026-07-22T16:31:35Z</time></trkpt>
<trkpt lat="35.131872" lon="-84.959723"><ele>274.9</ele><time>2026-07-22T16:31:37Z</time></trkpt>
<trkpt lat="35.13184" lon="-84.959753"><ele>278.0</ele><time>2026-07-22T16:31:40Z</time></trkpt>
<trkpt lat="35.131813" lon="-84.959762"><ele>275.5</ele><time>2026-07-22T16:31:42Z</time></trkpt>
<trkpt lat="35.131784" lon="-84.959772"><ele>274.6</ele><time>2026-07-22T16:31:44Z</time></trkpt>
<trkpt lat="35.131748" lon="-84.959796"><ele>273.7</ele><time>2026-07-22T16:31:47Z</time></trkpt>
<trkpt lat="35.131717" lon="-84.959804"><ele>273.4</ele><time>2026-07-22T16:31:49Z</time></trkpt>
<trkpt lat="35.131685" lon="-84.95981"><ele>270.7</ele><time>2026-07-22T16:31:51Z</time></trkpt>
<trkpt lat="35.131656" lon="-84.95982"><ele>269.4</ele><time>2026-07-22T16:31:53Z</time></trkpt>
<trkpt lat="35.131625" lon="-84.959818"><ele>268.5</ele><time>2026-07-22T16:31:55Z</time></trkpt>
<trkpt lat="35.131593" lon="-84.95983"><ele>268.5</ele><time>2026-07-22T16:31:57Z</time></trkpt>
<trkpt lat="35.131562" lon="-84.959841"><ele>268.5</ele><time>2026-07-22T16:31:59Z</time></trkpt>
<trkpt lat="35.131531" lon="-84.95985"><ele>272.2</ele><time>2026-07-22T16:32:01Z</time></trkpt>
<trkpt lat="35.131505" lon="-84.959865"><ele>272.8</ele><time>2026-07-22T16:32:03Z</time></trkpt>
<trkpt lat="35.131475" lon="-84.959873"><ele>272.8</ele><time>2026-07-22T16:32:05Z</time></trkpt>
<trkpt lat="35.131435" lon="-84.959871"><ele>271.0</ele><time>2026-07-22T16:32:08Z</time></trkpt>
<trkpt lat="35.131397" lon="-84.959885"><ele>272.5</ele><time>2026-07-22T16:32:11Z</time></trkpt>
<trkpt lat="35.131366" lon="-84.959896"><ele>273.4</ele><time>2026-07-22T16:32:13Z</time></trkpt>
<trkpt lat="35.13134" lon="-84.959907"><ele>271.6</ele><time>2026-07-22T16:32:15Z</time></trkpt>
<trkpt lat="35.131302" lon="-84.959923"><ele>271.6</ele><time>2026-07-22T16:32:18Z</time></trkpt>
<trkpt lat="35.131266" lon="-84.959942"><ele>271.0</ele><time>2026-07-22T16:32:21Z</time></trkpt>
<trkpt lat="35.13124" lon="-84.959959"><ele>270.7</ele><time>2026-07-22T16:32:23Z</time></trkpt>
<trkpt lat="35.131215" lon="-84.959979"><ele>268.8</ele><time>2026-07-22T16:32:25Z</time></trkpt>
<trkpt lat="35.131183" lon="-84.960003"><ele>268.8</ele><time>2026-07-22T16:32:28Z</time></trkpt>
<trkpt lat="35.131159" lon="-84.960034"><ele>267.6</ele><time>2026-07-22T16:32:31Z</time></trkpt>
<trkpt lat="35.131135" lon="-84.960074"><ele>268.2</ele><time>2026-07-22T16:32:34Z</time></trkpt>
<trkpt lat="35.131107" lon="-84.960102"><ele>264.9</ele><time>2026-07-22T16:32:37Z</time></trkpt>
<trkpt lat="35.131076" lon="-84.960136"><ele>264.9</ele><time>2026-07-22T16:32:40Z</time></trkpt>
<trkpt lat="35.131046" lon="-84.960169"><ele>264.3</ele><time>2026-07-22T16:32:43Z</time></trkpt>
<trkpt lat="35.131028" lon="-84.960196"><ele>264.3</ele><time>2026-07-22T16:32:45Z</time></trkpt>
<trkpt lat="35.131011" lon="-84.960226"><ele>265.2</ele><time>2026-07-22T16:32:47Z</time></trkpt>
<trkpt lat="35.130993" lon="-84.960257"><ele>265.5</ele><time>2026-07-22T16:32:49Z</time></trkpt>
<trkpt lat="35.130984" lon="-84.960304"><ele>265.5</ele><time>2026-07-22T16:32:52Z</time></trkpt>
<trkpt lat="35.130972" lon="-84.96035"><ele>265.2</ele><time>2026-07-22T16:32:55Z</time></trkpt>
<trkpt lat="35.130963" lon="-84.960382"><ele>266.1</ele><time>2026-07-22T16:32:57Z</time></trkpt>
<trkpt lat="35.130942" lon="-84.960414"><ele>266.4</ele><time>2026-07-22T16:33:00Z</time></trkpt>
<trkpt lat="35.130907" lon="-84.960406"><ele>265.5</ele><time>2026-07-22T16:33:03Z</time></trkpt>
<trkpt lat="35.130886" lon="-84.960382"><ele>264.6</ele><time>2026-07-22T16:33:05Z</time></trkpt>
<trkpt lat="35.13087" lon="-84.96035"><ele>263.0</ele><time>2026-07-22T16:33:08Z</time></trkpt>
<trkpt lat="35.130857" lon="-84.960318"><ele>260.3</ele><time>2026-07-22T16:33:11Z</time></trkpt>
<trkpt lat="35.130838" lon="-84.960282"><ele>258.8</ele><time>2026-07-22T16:33:14Z</time></trkpt>
<trkpt lat="35.130804" lon="-84.96026"><ele>259.4</ele><time>2026-07-22T16:33:17Z</time></trkpt>
<trkpt lat="35.130773" lon="-84.960234"><ele>260.0</ele><time>2026-07-22T16:33:20Z</time></trkpt>
<trkpt lat="35.130746" lon="-84.9602"><ele>259.1</ele><time>2026-07-22T16:33:23Z</time></trkpt>
<trkpt lat="35.130729" lon="-84.960156"><ele>259.1</ele><time>2026-07-22T16:33:26Z</time></trkpt>
<trkpt lat="35.130717" lon="-84.960109"><ele>259.4</ele><time>2026-07-22T16:33:29Z</time></trkpt>
<trkpt lat="35.130743" lon="-84.960071"><ele>259.7</ele><time>2026-07-22T16:33:32Z</time></trkpt>
<trkpt lat="35.130765" lon="-84.960049"><ele>259.4</ele><time>2026-07-22T16:33:34Z</time></trkpt>
<trkpt lat="35.130793" lon="-84.960034"><ele>258.2</ele><time>2026-07-22T16:33:36Z</time></trkpt>
<trkpt lat="35.130824" lon="-84.960016"><ele>257.6</ele><time>2026-07-22T16:33:39Z</time></trkpt>
<trkpt lat="35.130846" lon="-84.959983"><ele>258.8</ele><time>2026-07-22T16:33:42Z</time></trkpt>
<trkpt lat="35.130877" lon="-84.959958"><ele>260.0</ele><time>2026-07-22T16:33:46Z</time></trkpt>
<trkpt lat="35.130913" lon="-84.959945"><ele>263.7</ele><time>2026-07-22T16:33:49Z</time></trkpt>
<trkpt lat="35.130943" lon="-84.959933"><ele>263.3</ele><time>2026-07-22T16:33:51Z</time></trkpt>
<trkpt lat="35.130973" lon="-84.959929"><ele>263.7</ele><time>2026-07-22T16:33:53Z</time></trkpt>
<trkpt lat="35.131001" lon="-84.959909"><ele>261.8</ele><time>2026-07-22T16:33:56Z</time></trkpt>
<trkpt lat="35.131014" lon="-84.959868"><ele>262.7</ele><time>2026-07-22T16:33:59Z</time></trkpt>
<trkpt lat="35.131034" lon="-84.959845"><ele>262.4</ele><time>2026-07-22T16:34:01Z</time></trkpt>
<trkpt lat="35.131055" lon="-84.959804"><ele>261.5</ele><time>2026-07-22T16:34:04Z</time></trkpt>
<trkpt lat="35.131079" lon="-84.959774"><ele>260.0</ele><time>2026-07-22T16:34:06Z</time></trkpt>
<trkpt lat="35.131113" lon="-84.959776"><ele>262.1</ele><time>2026-07-22T16:34:08Z</time></trkpt>
<trkpt lat="35.131148" lon="-84.95978"><ele>262.1</ele><time>2026-07-22T16:34:11Z</time></trkpt>
<trkpt lat="35.131168" lon="-84.959756"><ele>261.5</ele><time>2026-07-22T16:34:13Z</time></trkpt>
<trkpt lat="35.131204" lon="-84.959732"><ele>261.2</ele><time>2026-07-22T16:34:16Z</time></trkpt>
<trkpt lat="35.131227" lon="-84.959712"><ele>261.5</ele><time>2026-07-22T16:34:18Z</time></trkpt>
<trkpt lat="35.131253" lon="-84.959697"><ele>263.7</ele><time>2026-07-22T16:34:20Z</time></trkpt>
<trkpt lat="35.131284" lon="-84.959676"><ele>260.3</ele><time>2026-07-22T16:34:22Z</time></trkpt>
<trkpt lat="35.131312" lon="-84.959671"><ele>259.1</ele><time>2026-07-22T16:34:24Z</time></trkpt>
<trkpt lat="35.131349" lon="-84.959671"><ele>260.6</ele><time>2026-07-22T16:34:27Z</time></trkpt>
<trkpt lat="35.131385" lon="-84.959668"><ele>261.2</ele><time>2026-07-22T16:34:30Z</time></trkpt>
<trkpt lat="35.131413" lon="-84.959658"><ele>262.4</ele><time>2026-07-22T16:34:32Z</time></trkpt>
<trkpt lat="35.131443" lon="-84.959654"><ele>262.4</ele><time>2026-07-22T16:34:34Z</time></trkpt>
<trkpt lat="35.131472" lon="-84.959654"><ele>262.7</ele><time>2026-07-22T16:34:36Z</time></trkpt>
<trkpt lat="35.13151" lon="-84.959644"><ele>262.7</ele><time>2026-07-22T16:34:39Z</time></trkpt>
<trkpt lat="35.131543" lon="-84.959619"><ele>263.0</ele><time>2026-07-22T16:34:42Z</time></trkpt>
<trkpt lat="35.131575" lon="-84.95961"><ele>263.0</ele><time>2026-07-22T16:34:45Z</time></trkpt>
<trkpt lat="35.131607" lon="-84.959586"><ele>264.0</ele><time>2026-07-22T16:34:48Z</time></trkpt>
<trkpt lat="35.131636" lon="-84.959576"><ele>263.7</ele><time>2026-07-22T16:34:50Z</time></trkpt>
<trkpt lat="35.131656" lon="-84.959553"><ele>266.7</ele><time>2026-07-22T16:34:52Z</time></trkpt>
<trkpt lat="35.131687" lon="-84.959526"><ele>264.9</ele><time>2026-07-22T16:34:55Z</time></trkpt>
<trkpt lat="35.131707" lon="-84.959502"><ele>263.7</ele><time>2026-07-22T16:34:57Z</time></trkpt>
<trkpt lat="35.131727" lon="-84.959476"><ele>261.2</ele><time>2026-07-22T16:34:59Z</time></trkpt>
<trkpt lat="35.131748" lon="-84.959452"><ele>263.0</ele><time>2026-07-22T16:35:01Z</time></trkpt>
<trkpt lat="35.131767" lon="-84.959413"><ele>260.0</ele><time>2026-07-22T16:35:04Z</time></trkpt>
<trkpt lat="35.131789" lon="-84.959369"><ele>259.4</ele><time>2026-07-22T16:35:07Z</time></trkpt>
<trkpt lat="35.131807" lon="-84.959338"><ele>258.8</ele><time>2026-07-22T16:35:09Z</time></trkpt>
<trkpt lat="35.131822" lon="-84.95931"><ele>259.4</ele><time>2026-07-22T16:35:11Z</time></trkpt>
<trkpt lat="35.131844" lon="-84.959272"><ele>257.6</ele><time>2026-07-22T16:35:14Z</time></trkpt>
<trkpt lat="35.131864" lon="-84.959236"><ele>259.7</ele><time>2026-07-22T16:35:17Z</time></trkpt>
<trkpt lat="35.131888" lon="-84.959199"><ele>257.9</ele><time>2026-07-22T16:35:20Z</time></trkpt>
<trkpt lat="35.131921" lon="-84.959172"><ele>255.4</ele><time>2026-07-22T16:35:23Z</time></trkpt>
<trkpt lat="35.131948" lon="-84.959135"><ele>255.4</ele><time>2026-07-22T16:35:26Z</time></trkpt>
<trkpt lat="35.131972" lon="-84.959112"><ele>254.8</ele><time>2026-07-22T16:35:28Z</time></trkpt>
<trkpt lat="35.132" lon="-84.959094"><ele>253.0</ele><time>2026-07-22T16:35:30Z</time></trkpt>
<trkpt lat="35.132027" lon="-84.959075"><ele>251.2</ele><time>2026-07-22T16:35:32Z</time></trkpt>
<trkpt lat="35.132053" lon="-84.959059"><ele>250.9</ele><time>2026-07-22T16:35:34Z</time></trkpt>
<trkpt lat="35.13208" lon="-84.959045"><ele>251.8</ele><time>2026-07-22T16:35:36Z</time></trkpt>
<trkpt lat="35.132108" lon="-84.959037"><ele>251.5</ele><time>2026-07-22T16:35:38Z</time></trkpt>
<trkpt lat="35.132137" lon="-84.959037"><ele>252.7</ele><time>2026-07-22T16:35:40Z</time></trkpt>
<trkpt lat="35.132178" lon="-84.959041"><ele>253.0</ele><time>2026-07-22T16:35:43Z</time></trkpt>
<trkpt lat="35.132206" lon="-84.959044"><ele>253.9</ele><time>2026-07-22T16:35:45Z</time></trkpt>
<trkpt lat="35.132246" lon="-84.959043"><ele>255.1</ele><time>2026-07-22T16:35:48Z</time></trkpt>
<trkpt lat="35.132285" lon="-84.959049"><ele>255.7</ele><time>2026-07-22T16:35:51Z</time></trkpt>
<trkpt lat="35.132313" lon="-84.959045"><ele>256.9</ele><time>2026-07-22T16:35:53Z</time></trkpt>
<trkpt lat="35.132343" lon="-84.959044"><ele>256.6</ele><time>2026-07-22T16:35:55Z</time></trkpt>
<trkpt lat="35.132378" lon="-84.959031"><ele>258.2</ele><time>2026-07-22T16:35:58Z</time></trkpt>
<trkpt lat="35.132407" lon="-84.959002"><ele>257.9</ele><time>2026-07-22T16:36:01Z</time></trkpt>
<trkpt lat="35.132408" lon="-84.958967"><ele>256.9</ele><time>2026-07-22T16:36:03Z</time></trkpt>
<trkpt lat="35.132392" lon="-84.958936"><ele>257.3</ele><time>2026-07-22T16:36:05Z</time></trkpt>
<trkpt lat="35.132376" lon="-84.958908"><ele>258.8</ele><time>2026-07-22T16:36:07Z</time></trkpt>
<trkpt lat="35.132352" lon="-84.958891"><ele>259.7</ele><time>2026-07-22T16:36:09Z</time></trkpt>
<trkpt lat="35.132321" lon="-84.95887"><ele>260.6</ele><time>2026-07-22T16:36:12Z</time></trkpt>
<trkpt lat="35.132283" lon="-84.95885"><ele>260.3</ele><time>2026-07-22T16:36:15Z</time></trkpt>
<trkpt lat="35.132258" lon="-84.958834"><ele>260.0</ele><time>2026-07-22T16:36:17Z</time></trkpt>
<trkpt lat="35.132221" lon="-84.958816"><ele>258.8</ele><time>2026-07-22T16:36:20Z</time></trkpt>
<trkpt lat="35.132181" lon="-84.9588"><ele>258.8</ele><time>2026-07-22T16:36:23Z</time></trkpt>
<trkpt lat="35.132157" lon="-84.958781"><ele>260.0</ele><time>2026-07-22T16:36:25Z</time></trkpt>
<trkpt lat="35.13213" lon="-84.958769"><ele>261.5</ele><time>2026-07-22T16:36:27Z</time></trkpt>
<trkpt lat="35.132091" lon="-84.958754"><ele>263.3</ele><time>2026-07-22T16:36:30Z</time></trkpt>
<trkpt lat="35.132063" lon="-84.958747"><ele>263.3</ele><time>2026-07-22T16:36:32Z</time></trkpt>
<trkpt lat="35.132038" lon="-84.958734"><ele>264.3</ele><time>2026-07-22T16:36:34Z</time></trkpt>
<trkpt lat="35.132002" lon="-84.958707"><ele>264.3</ele><time>2026-07-22T16:36:37Z</time></trkpt>
<trkpt lat="35.131979" lon="-84.958688"><ele>264.3</ele><time>2026-07-22T16:36:39Z</time></trkpt>
<trkpt lat="35.131946" lon="-84.958665"><ele>265.2</ele><time>2026-07-22T16:36:42Z</time></trkpt>
<trkpt lat="35.131913" lon="-84.958639"><ele>266.1</ele><time>2026-07-22T16:36:45Z</time></trkpt>
<trkpt lat="35.131889" lon="-84.958604"><ele>266.1</ele><time>2026-07-22T16:36:48Z</time></trkpt>
<trkpt lat="35.13188" lon="-84.958563"><ele>262.4</ele><time>2026-07-22T16:36:50Z</time></trkpt>
<trkpt lat="35.131876" lon="-84.95852"><ele>259.4</ele><time>2026-07-22T16:36:52Z</time></trkpt>
<trkpt lat="35.131876" lon="-84.95848"><ele>260.0</ele><time>2026-07-22T16:36:54Z</time></trkpt>
<trkpt lat="35.131872" lon="-84.958433"><ele>260.3</ele><time>2026-07-22T16:36:57Z</time></trkpt>
<trkpt lat="35.131873" lon="-84.958398"><ele>258.5</ele><time>2026-07-22T16:36:59Z</time></trkpt>
<trkpt lat="35.13188" lon="-84.958362"><ele>258.2</ele><time>2026-07-22T16:37:01Z</time></trkpt>
<trkpt lat="35.131898" lon="-84.958329"><ele>257.3</ele><time>2026-07-22T16:37:03Z</time></trkpt>
<trkpt lat="35.13192" lon="-84.958301"><ele>256.6</ele><time>2026-07-22T16:37:05Z</time></trkpt>
<trkpt lat="35.131951" lon="-84.958278"><ele>256.3</ele><time>2026-07-22T16:37:07Z</time></trkpt>
<trkpt lat="35.131976" lon="-84.958254"><ele>255.4</ele><time>2026-07-22T16:37:09Z</time></trkpt>
<trkpt lat="35.131991" lon="-84.958227"><ele>256.6</ele><time>2026-07-22T16:37:11Z</time></trkpt>
<trkpt lat="35.132013" lon="-84.958186"><ele>254.8</ele><time>2026-07-22T16:37:14Z</time></trkpt>
<trkpt lat="35.132037" lon="-84.958161"><ele>254.8</ele><time>2026-07-22T16:37:16Z</time></trkpt>
<trkpt lat="35.132059" lon="-84.958137"><ele>254.2</ele><time>2026-07-22T16:37:18Z</time></trkpt>
<trkpt lat="35.132082" lon="-84.958119"><ele>253.9</ele><time>2026-07-22T16:37:20Z</time></trkpt>
<trkpt lat="35.132106" lon="-84.958103"><ele>254.8</ele><time>2026-07-22T16:37:22Z</time></trkpt>
<trkpt lat="35.132132" lon="-84.958086"><ele>257.9</ele><time>2026-07-22T16:37:24Z</time></trkpt>
<trkpt lat="35.132171" lon="-84.958072"><ele>257.3</ele><time>2026-07-22T16:37:27Z</time></trkpt>
<trkpt lat="35.132208" lon="-84.958061"><ele>255.4</ele><time>2026-07-22T16:37:30Z</time></trkpt>
<trkpt lat="35.132235" lon="-84.958056"><ele>255.1</ele><time>2026-07-22T16:37:32Z</time></trkpt>
<trkpt lat="35.132262" lon="-84.958067"><ele>254.5</ele><time>2026-07-22T16:37:34Z</time></trkpt>
<trkpt lat="35.13229" lon="-84.958075"><ele>253.6</ele><time>2026-07-22T16:37:36Z</time></trkpt>
<trkpt lat="35.132317" lon="-84.958064"><ele>254.5</ele><time>2026-07-22T16:37:38Z</time></trkpt>
<trkpt lat="35.132324" lon="-84.958027"><ele>252.7</ele><time>2026-07-22T16:37:40Z</time></trkpt>
<trkpt lat="35.132325" lon="-84.957992"><ele>252.4</ele><time>2026-07-22T16:37:42Z</time></trkpt>
<trkpt lat="35.132336" lon="-84.957944"><ele>253.3</ele><time>2026-07-22T16:37:45Z</time></trkpt>
<trkpt lat="35.132352" lon="-84.957914"><ele>252.1</ele><time>2026-07-22T16:37:47Z</time></trkpt>
<trkpt lat="35.132372" lon="-84.957891"><ele>254.5</ele><time>2026-07-22T16:37:49Z</time></trkpt>
<trkpt lat="35.132391" lon="-84.957865"><ele>255.4</ele><time>2026-07-22T16:37:51Z</time></trkpt>
<trkpt lat="35.132392" lon="-84.957853"><ele>256.0</ele><time>2026-07-22T16:37:53Z</time></trkpt>
<trkpt lat="35.132392" lon="-84.957854"><ele>256.0</ele><time>2026-07-22T16:37:54Z</time></trkpt>
<trkpt lat="35.1324" lon="-84.957843"><ele>257.6</ele><time>2026-07-22T16:37:59Z</time></trkpt>
<trkpt lat="35.132397" lon="-84.957837"><ele>258.2</ele><time>2026-07-22T16:38:00Z</time></trkpt>
<trkpt lat="35.132392" lon="-84.95783"><ele>259.7</ele><time>2026-07-22T16:38:01Z</time></trkpt>
<trkpt lat="35.132395" lon="-84.957823"><ele>261.2</ele><time>2026-07-22T16:38:02Z</time></trkpt>
<trkpt lat="35.132396" lon="-84.957821"><ele>261.2</ele><time>2026-07-22T16:38:09Z</time></trkpt>
<trkpt lat="35.132397" lon="-84.957821"><ele>260.9</ele><time>2026-07-22T16:38:10Z</time></trkpt>
<trkpt lat="35.132376" lon="-84.957786"><ele>262.1</ele><time>2026-07-22T16:38:16Z</time></trkpt>
<trkpt lat="35.132348" lon="-84.95778"><ele>261.2</ele><time>2026-07-22T16:38:18Z</time></trkpt>
<trkpt lat="35.132317" lon="-84.957758"><ele>261.5</ele><time>2026-07-22T16:38:21Z</time></trkpt>
<trkpt lat="35.132284" lon="-84.957731"><ele>262.4</ele><time>2026-07-22T16:38:24Z</time></trkpt>
<trkpt lat="35.132254" lon="-84.957702"><ele>260.0</ele><time>2026-07-22T16:38:27Z</time></trkpt>
<trkpt lat="35.132234" lon="-84.957675"><ele>260.9</ele><time>2026-07-22T16:38:29Z</time></trkpt>
<trkpt lat="35.132247" lon="-84.957667"><ele>256.3</ele><time>2026-07-22T16:38:32Z</time></trkpt>
<trkpt lat="35.132251" lon="-84.957659"><ele>256.6</ele><time>2026-07-22T16:38:33Z</time></trkpt>
<trkpt lat="35.132253" lon="-84.957655"><ele>256.6</ele><time>2026-07-22T16:38:46Z</time></trkpt>
<trkpt lat="35.132253" lon="-84.957653"><ele>256.6</ele><time>2026-07-22T16:38:47Z</time></trkpt>
<trkpt lat="35.132243" lon="-84.957647"><ele>256.6</ele><time>2026-07-22T16:38:54Z</time></trkpt>
<trkpt lat="35.13225" lon="-84.957642"><ele>256.6</ele><time>2026-07-22T16:38:55Z</time></trkpt>
<trkpt lat="35.132254" lon="-84.957637"><ele>256.6</ele><time>2026-07-22T16:38:56Z</time></trkpt>
<trkpt lat="35.132265" lon="-84.957638"><ele>256.0</ele><time>2026-07-22T16:38:57Z</time></trkpt>
<trkpt lat="35.132268" lon="-84.957635"><ele>256.0</ele><time>2026-07-22T16:38:58Z</time></trkpt>
<trkpt lat="35.132268" lon="-84.957634"><ele>256.0</ele><time>2026-07-22T16:39:03Z</time></trkpt>
<trkpt lat="35.132267" lon="-84.957633"><ele>256.3</ele><time>2026-07-22T16:39:04Z</time></trkpt>
<trkpt lat="35.132234" lon="-84.95762"><ele>254.5</ele><time>2026-07-22T16:39:07Z</time></trkpt>
<trkpt lat="35.132198" lon="-84.957611"><ele>254.8</ele><time>2026-07-22T16:39:10Z</time></trkpt>
<trkpt lat="35.132158" lon="-84.957611"><ele>258.5</ele><time>2026-07-22T16:39:13Z</time></trkpt>
<trkpt lat="35.132132" lon="-84.957625"><ele>257.6</ele><time>2026-07-22T16:39:15Z</time></trkpt>
<trkpt lat="35.132097" lon="-84.95765"><ele>256.9</ele><time>2026-07-22T16:39:18Z</time></trkpt>
<trkpt lat="35.132065" lon="-84.957677"><ele>255.4</ele><time>2026-07-22T16:39:21Z</time></trkpt>
<trkpt lat="35.132041" lon="-84.957696"><ele>254.8</ele><time>2026-07-22T16:39:23Z</time></trkpt>
<trkpt lat="35.13201" lon="-84.957692"><ele>254.8</ele><time>2026-07-22T16:39:25Z</time></trkpt>
<trkpt lat="35.131974" lon="-84.957708"><ele>258.2</ele><time>2026-07-22T16:39:28Z</time></trkpt>
<trkpt lat="35.131949" lon="-84.957723"><ele>257.3</ele><time>2026-07-22T16:39:30Z</time></trkpt>
<trkpt lat="35.131909" lon="-84.957734"><ele>257.6</ele><time>2026-07-22T16:39:33Z</time></trkpt>
<trkpt lat="35.131872" lon="-84.957739"><ele>257.6</ele><time>2026-07-22T16:39:36Z</time></trkpt>
<trkpt lat="35.131837" lon="-84.957744"><ele>255.4</ele><time>2026-07-22T16:39:39Z</time></trkpt>
<trkpt lat="35.1318" lon="-84.957729"><ele>255.1</ele><time>2026-07-22T16:39:42Z</time></trkpt>
<trkpt lat="35.131772" lon="-84.95772"><ele>256.0</ele><time>2026-07-22T16:39:44Z</time></trkpt>
<trkpt lat="35.131742" lon="-84.957694"><ele>254.8</ele><time>2026-07-22T16:39:47Z</time></trkpt>
<trkpt lat="35.131719" lon="-84.957656"><ele>256.0</ele><time>2026-07-22T16:39:50Z</time></trkpt>
<trkpt lat="35.131718" lon="-84.957609"><ele>253.9</ele><time>2026-07-22T16:39:53Z</time></trkpt>
<trkpt lat="35.131733" lon="-84.957578"><ele>255.4</ele><time>2026-07-22T16:39:55Z</time></trkpt>
<trkpt lat="35.131753" lon="-84.95755"><ele>255.7</ele><time>2026-07-22T16:39:57Z</time></trkpt>
<trkpt lat="35.131777" lon="-84.957527"><ele>256.6</ele><time>2026-07-22T16:39:59Z</time></trkpt>
<trkpt lat="35.131799" lon="-84.957501"><ele>258.2</ele><time>2026-07-22T16:40:01Z</time></trkpt>
<trkpt lat="35.131817" lon="-84.957475"><ele>257.9</ele><time>2026-07-22T16:40:03Z</time></trkpt>
<trkpt lat="35.13184" lon="-84.957453"><ele>258.2</ele><time>2026-07-22T16:40:05Z</time></trkpt>
<trkpt lat="35.131865" lon="-84.957437"><ele>258.5</ele><time>2026-07-22T16:40:07Z</time></trkpt>
<trkpt lat="35.131906" lon="-84.957428"><ele>259.7</ele><time>2026-07-22T16:40:10Z</time></trkpt>
<trkpt lat="35.131936" lon="-84.957429"><ele>260.9</ele><time>2026-07-22T16:40:12Z</time></trkpt>
<trkpt lat="35.131966" lon="-84.957431"><ele>262.7</ele><time>2026-07-22T16:40:14Z</time></trkpt>
<trkpt lat="35.131998" lon="-84.957432"><ele>262.1</ele><time>2026-07-22T16:40:16Z</time></trkpt>
<trkpt lat="35.132027" lon="-84.95743"><ele>263.0</ele><time>2026-07-22T16:40:18Z</time></trkpt>
<trkpt lat="35.132066" lon="-84.957423"><ele>263.0</ele><time>2026-07-22T16:40:21Z</time></trkpt>
<trkpt lat="35.132103" lon="-84.95743"><ele>263.3</ele><time>2026-07-22T16:40:24Z</time></trkpt>
<trkpt lat="35.13214" lon="-84.957444"><ele>264.0</ele><time>2026-07-22T16:40:27Z</time></trkpt>
<trkpt lat="35.132169" lon="-84.957432"><ele>263.3</ele><time>2026-07-22T16:40:29Z</time></trkpt>
<trkpt lat="35.132193" lon="-84.957409"><ele>262.7</ele><time>2026-07-22T16:40:31Z</time></trkpt>
<trkpt lat="35.132208" lon="-84.957378"><ele>263.7</ele><time>2026-07-22T16:40:33Z</time></trkpt>
<trkpt lat="35.132214" lon="-84.957341"><ele>264.3</ele><time>2026-07-22T16:40:35Z</time></trkpt>
<trkpt lat="35.132225" lon="-84.957309"><ele>264.6</ele><time>2026-07-22T16:40:37Z</time></trkpt>
<trkpt lat="35.132248" lon="-84.957271"><ele>265.2</ele><time>2026-07-22T16:40:40Z</time></trkpt>
<trkpt lat="35.132273" lon="-84.957242"><ele>264.0</ele><time>2026-07-22T16:40:43Z</time></trkpt>
<trkpt lat="35.132302" lon="-84.957209"><ele>264.3</ele><time>2026-07-22T16:40:46Z</time></trkpt>
<trkpt lat="35.132328" lon="-84.95717"><ele>264.3</ele><time>2026-07-22T16:40:49Z</time></trkpt>
<trkpt lat="35.132353" lon="-84.957133"><ele>265.2</ele><time>2026-07-22T16:40:52Z</time></trkpt>
<trkpt lat="35.132372" lon="-84.957108"><ele>265.2</ele><time>2026-07-22T16:40:54Z</time></trkpt>
<trkpt lat="35.132396" lon="-84.957068"><ele>265.5</ele><time>2026-07-22T16:40:57Z</time></trkpt>
<trkpt lat="35.132414" lon="-84.957042"><ele>266.1</ele><time>2026-07-22T16:40:59Z</time></trkpt>
<trkpt lat="35.132439" lon="-84.957004"><ele>265.8</ele><time>2026-07-22T16:41:02Z</time></trkpt>
<trkpt lat="35.132467" lon="-84.956968"><ele>267.6</ele><time>2026-07-22T16:41:05Z</time></trkpt>
<trkpt lat="35.13249" lon="-84.95694"><ele>266.7</ele><time>2026-07-22T16:41:07Z</time></trkpt>
<trkpt lat="35.132513" lon="-84.956911"><ele>266.1</ele><time>2026-07-22T16:41:09Z</time></trkpt>
<trkpt lat="35.132526" lon="-84.956877"><ele>267.0</ele><time>2026-07-22T16:41:11Z</time></trkpt>
<trkpt lat="35.132519" lon="-84.956841"><ele>264.6</ele><time>2026-07-22T16:41:13Z</time></trkpt>
<trkpt lat="35.132502" lon="-84.956806"><ele>263.3</ele><time>2026-07-22T16:41:15Z</time></trkpt>
<trkpt lat="35.132468" lon="-84.956778"><ele>260.9</ele><time>2026-07-22T16:41:17Z</time></trkpt>
<trkpt lat="35.132431" lon="-84.95676"><ele>259.7</ele><time>2026-07-22T16:41:19Z</time></trkpt>
<trkpt lat="35.132396" lon="-84.956753"><ele>260.0</ele><time>2026-07-22T16:41:21Z</time></trkpt>
<trkpt lat="35.132359" lon="-84.956759"><ele>259.7</ele><time>2026-07-22T16:41:23Z</time></trkpt>
<trkpt lat="35.132327" lon="-84.956778"><ele>259.7</ele><time>2026-07-22T16:41:25Z</time></trkpt>
<trkpt lat="35.132298" lon="-84.956792"><ele>259.7</ele><time>2026-07-22T16:41:27Z</time></trkpt>
<trkpt lat="35.132272" lon="-84.95681"><ele>259.7</ele><time>2026-07-22T16:41:29Z</time></trkpt>
<trkpt lat="35.13225" lon="-84.956834"><ele>259.1</ele><time>2026-07-22T16:41:31Z</time></trkpt>
<trkpt lat="35.132225" lon="-84.956849"><ele>259.1</ele><time>2026-07-22T16:41:33Z</time></trkpt>
<trkpt lat="35.13219" lon="-84.956873"><ele>260.6</ele><time>2026-07-22T16:41:36Z</time></trkpt>
<trkpt lat="35.132162" lon="-84.956886"><ele>260.3</ele><time>2026-07-22T16:41:38Z</time></trkpt>
<trkpt lat="35.132137" lon="-84.956907"><ele>260.6</ele><time>2026-07-22T16:41:40Z</time></trkpt>
<trkpt lat="35.132113" lon="-84.956932"><ele>261.5</ele><time>2026-07-22T16:41:42Z</time></trkpt>
<trkpt lat="35.13209" lon="-84.956955"><ele>262.1</ele><time>2026-07-22T16:41:44Z</time></trkpt>
<trkpt lat="35.13207" lon="-84.956979"><ele>262.4</ele><time>2026-07-22T16:41:46Z</time></trkpt>
<trkpt lat="35.132053" lon="-84.957006"><ele>261.2</ele><time>2026-07-22T16:41:48Z</time></trkpt>
<trkpt lat="35.132033" lon="-84.957032"><ele>260.0</ele><time>2026-07-22T16:41:50Z</time></trkpt>
<trkpt lat="35.132008" lon="-84.957048"><ele>258.8</ele><time>2026-07-22T16:41:52Z</time></trkpt>
<trkpt lat="35.131982" lon="-84.957066"><ele>258.5</ele><time>2026-07-22T16:41:54Z</time></trkpt>
<trkpt lat="35.131954" lon="-84.957079"><ele>259.4</ele><time>2026-07-22T16:41:56Z</time></trkpt>
<trkpt lat="35.131927" lon="-84.957091"><ele>260.3</ele><time>2026-07-22T16:41:58Z</time></trkpt>
<trkpt lat="35.1319" lon="-84.957108"><ele>261.2</ele><time>2026-07-22T16:42:00Z</time></trkpt>
<trkpt lat="35.131872" lon="-84.957124"><ele>261.5</ele><time>2026-07-22T16:42:02Z</time></trkpt>
<trkpt lat="35.131845" lon="-84.957139"><ele>261.2</ele><time>2026-07-22T16:42:04Z</time></trkpt>
<trkpt lat="35.131817" lon="-84.957155"><ele>260.3</ele><time>2026-07-22T16:42:06Z</time></trkpt>
<trkpt lat="35.131791" lon="-84.957178"><ele>261.8</ele><time>2026-07-22T16:42:08Z</time></trkpt>
<trkpt lat="35.131765" lon="-84.957198"><ele>261.8</ele><time>2026-07-22T16:42:10Z</time></trkpt>
<trkpt lat="35.131738" lon="-84.957212"><ele>259.7</ele><time>2026-07-22T16:42:12Z</time></trkpt>
<trkpt lat="35.131712" lon="-84.957233"><ele>260.6</ele><time>2026-07-22T16:42:14Z</time></trkpt>
<trkpt lat="35.131685" lon="-84.957252"><ele>261.5</ele><time>2026-07-22T16:42:16Z</time></trkpt>
<trkpt lat="35.131656" lon="-84.957271"><ele>260.3</ele><time>2026-07-22T16:42:18Z</time></trkpt>
<trkpt lat="35.131622" lon="-84.957297"><ele>260.9</ele><time>2026-07-22T16:42:21Z</time></trkpt>
<trkpt lat="35.131595" lon="-84.957311"><ele>262.4</ele><time>2026-07-22T16:42:23Z</time></trkpt>
<trkpt lat="35.131566" lon="-84.957319"><ele>262.7</ele><time>2026-07-22T16:42:25Z</time></trkpt>
<trkpt lat="35.131538" lon="-84.95733"><ele>262.4</ele><time>2026-07-22T16:42:27Z</time></trkpt>
<trkpt lat="35.131507" lon="-84.957338"><ele>261.5</ele><time>2026-07-22T16:42:29Z</time></trkpt>
<trkpt lat="35.131482" lon="-84.957353"><ele>261.2</ele><time>2026-07-22T16:42:31Z</time></trkpt>
<trkpt lat="35.131456" lon="-84.957367"><ele>262.1</ele><time>2026-07-22T16:42:33Z</time></trkpt>
<trkpt lat="35.131427" lon="-84.957377"><ele>262.7</ele><time>2026-07-22T16:42:35Z</time></trkpt>
<trkpt lat="35.131396" lon="-84.957382"><ele>262.1</ele><time>2026-07-22T16:42:37Z</time></trkpt>
<trkpt lat="35.131357" lon="-84.957395"><ele>260.6</ele><time>2026-07-22T16:42:40Z</time></trkpt>
<trkpt lat="35.131329" lon="-84.957397"><ele>260.3</ele><time>2026-07-22T16:42:42Z</time></trkpt>
<trkpt lat="35.13129" lon="-84.9574"><ele>261.2</ele><time>2026-07-22T16:42:45Z</time></trkpt>
<trkpt lat="35.131253" lon="-84.957398"><ele>261.8</ele><time>2026-07-22T16:42:48Z</time></trkpt>
<trkpt lat="35.131226" lon="-84.957408"><ele>261.8</ele><time>2026-07-22T16:42:50Z</time></trkpt>
<trkpt lat="35.13119" lon="-84.95739"><ele>258.5</ele><time>2026-07-22T16:42:53Z</time></trkpt>
<trkpt lat="35.131173" lon="-84.957362"><ele>258.2</ele><time>2026-07-22T16:42:55Z</time></trkpt>
<trkpt lat="35.131145" lon="-84.957346"><ele>255.7</ele><time>2026-07-22T16:42:58Z</time></trkpt>
<trkpt lat="35.131109" lon="-84.957341"><ele>254.2</ele><time>2026-07-22T16:43:01Z</time></trkpt>
<trkpt lat="35.131089" lon="-84.957376"><ele>258.5</ele><time>2026-07-22T16:43:03Z</time></trkpt>
<trkpt lat="35.131086" lon="-84.957394"><ele>261.2</ele><time>2026-07-22T16:43:04Z</time></trkpt>
<trkpt lat="35.131089" lon="-84.957397"><ele>260.6</ele><time>2026-07-22T16:43:05Z</time></trkpt>
<trkpt lat="35.131087" lon="-84.957395"><ele>260.9</ele><time>2026-07-22T16:43:08Z</time></trkpt>
<trkpt lat="35.131085" lon="-84.957397"><ele>261.5</ele><time>2026-07-22T16:43:09Z</time></trkpt>
<trkpt lat="35.131066" lon="-84.957437"><ele>262.1</ele><time>2026-07-22T16:43:12Z</time></trkpt>
<trkpt lat="35.13106" lon="-84.957477"><ele>262.7</ele><time>2026-07-22T16:43:14Z</time></trkpt>
<trkpt lat="35.13106" lon="-84.957513"><ele>261.8</ele><time>2026-07-22T16:43:16Z</time></trkpt>
<trkpt lat="35.131044" lon="-84.957554"><ele>258.5</ele><time>2026-07-22T16:43:19Z</time></trkpt>
<trkpt lat="35.131024" lon="-84.95758"><ele>257.6</ele><time>2026-07-22T16:43:21Z</time></trkpt>
<trkpt lat="35.131008" lon="-84.957607"><ele>257.9</ele><time>2026-07-22T16:43:23Z</time></trkpt>
<trkpt lat="35.130991" lon="-84.957639"><ele>257.3</ele><time>2026-07-22T16:43:25Z</time></trkpt>
<trkpt lat="35.130963" lon="-84.957665"><ele>256.6</ele><time>2026-07-22T16:43:27Z</time></trkpt>
<trkpt lat="35.130934" lon="-84.957689"><ele>259.7</ele><time>2026-07-22T16:43:29Z</time></trkpt>
<trkpt lat="35.130903" lon="-84.957673"><ele>259.4</ele><time>2026-07-22T16:43:31Z</time></trkpt>
<trkpt lat="35.130881" lon="-84.957649"><ele>257.9</ele><time>2026-07-22T16:43:33Z</time></trkpt>
<trkpt lat="35.130852" lon="-84.957627"><ele>258.5</ele><time>2026-07-22T16:43:36Z</time></trkpt>
<trkpt lat="35.130824" lon="-84.957642"><ele>260.0</ele><time>2026-07-22T16:43:38Z</time></trkpt>
<trkpt lat="35.1308" lon="-84.957663"><ele>260.9</ele><time>2026-07-22T16:43:40Z</time></trkpt>
<trkpt lat="35.130791" lon="-84.957696"><ele>260.9</ele><time>2026-07-22T16:43:42Z</time></trkpt>
<trkpt lat="35.130794" lon="-84.957729"><ele>260.0</ele><time>2026-07-22T16:43:44Z</time></trkpt>
<trkpt lat="35.130797" lon="-84.957764"><ele>260.0</ele><time>2026-07-22T16:43:46Z</time></trkpt>
<trkpt lat="35.130794" lon="-84.9578"><ele>261.2</ele><time>2026-07-22T16:43:48Z</time></trkpt>
<trkpt lat="35.130778" lon="-84.957831"><ele>260.9</ele><time>2026-07-22T16:43:50Z</time></trkpt>
<trkpt lat="35.130753" lon="-84.957859"><ele>263.0</ele><time>2026-07-22T16:43:52Z</time></trkpt>
<trkpt lat="35.130726" lon="-84.957883"><ele>263.7</ele><time>2026-07-22T16:43:54Z</time></trkpt>
<trkpt lat="35.130701" lon="-84.95791"><ele>265.2</ele><time>2026-07-22T16:43:56Z</time></trkpt>
<trkpt lat="35.130676" lon="-84.957938"><ele>267.0</ele><time>2026-07-22T16:43:58Z</time></trkpt>
<trkpt lat="35.130645" lon="-84.957956"><ele>267.6</ele><time>2026-07-22T16:44:00Z</time></trkpt>
<trkpt lat="35.130615" lon="-84.957963"><ele>267.9</ele><time>2026-07-22T16:44:02Z</time></trkpt>
<trkpt lat="35.130584" lon="-84.957964"><ele>266.4</ele><time>2026-07-22T16:44:04Z</time></trkpt>
<trkpt lat="35.130553" lon="-84.957965"><ele>265.8</ele><time>2026-07-22T16:44:06Z</time></trkpt>
<trkpt lat="35.130523" lon="-84.957971"><ele>266.1</ele><time>2026-07-22T16:44:08Z</time></trkpt>
<trkpt lat="35.130492" lon="-84.957982"><ele>265.8</ele><time>2026-07-22T16:44:10Z</time></trkpt>
<trkpt lat="35.130467" lon="-84.958003"><ele>265.8</ele><time>2026-07-22T16:44:12Z</time></trkpt>
<trkpt lat="35.130437" lon="-84.958034"><ele>265.8</ele><time>2026-07-22T16:44:15Z</time></trkpt>
<trkpt lat="35.130412" lon="-84.95806"><ele>266.7</ele><time>2026-07-22T16:44:17Z</time></trkpt>
<trkpt lat="35.130389" lon="-84.958086"><ele>267.3</ele><time>2026-07-22T16:44:19Z</time></trkpt>
<trkpt lat="35.13037" lon="-84.958116"><ele>267.9</ele><time>2026-07-22T16:44:21Z</time></trkpt>
<trkpt lat="35.130348" lon="-84.958145"><ele>266.7</ele><time>2026-07-22T16:44:23Z</time></trkpt>
<trkpt lat="35.130328" lon="-84.958171"><ele>266.4</ele><time>2026-07-22T16:44:25Z</time></trkpt>
<trkpt lat="35.130306" lon="-84.958192"><ele>268.2</ele><time>2026-07-22T16:44:27Z</time></trkpt>
<trkpt lat="35.13028" lon="-84.958214"><ele>268.2</ele><time>2026-07-22T16:44:29Z</time></trkpt>
<trkpt lat="35.130255" lon="-84.958233"><ele>267.9</ele><time>2026-07-22T16:44:31Z</time></trkpt>
<trkpt lat="35.130226" lon="-84.958244"><ele>268.8</ele><time>2026-07-22T16:44:33Z</time></trkpt>
<trkpt lat="35.130197" lon="-84.95824"><ele>267.9</ele><time>2026-07-22T16:44:35Z</time></trkpt>
<trkpt lat="35.130171" lon="-84.958225"><ele>267.0</ele><time>2026-07-22T16:44:37Z</time></trkpt>
<trkpt lat="35.130152" lon="-84.9582"><ele>265.5</ele><time>2026-07-22T16:44:39Z</time></trkpt>
<trkpt lat="35.130131" lon="-84.958157"><ele>263.7</ele><time>2026-07-22T16:44:42Z</time></trkpt>
<trkpt lat="35.130116" lon="-84.958111"><ele>260.9</ele><time>2026-07-22T16:44:45Z</time></trkpt>
<trkpt lat="35.130103" lon="-84.958081"><ele>261.5</ele><time>2026-07-22T16:44:47Z</time></trkpt>
<trkpt lat="35.130072" lon="-84.958054"><ele>263.0</ele><time>2026-07-22T16:44:50Z</time></trkpt>
<trkpt lat="35.130039" lon="-84.958066"><ele>261.5</ele><time>2026-07-22T16:44:52Z</time></trkpt>
<trkpt lat="35.13002" lon="-84.958106"><ele>260.9</ele><time>2026-07-22T16:44:54Z</time></trkpt>
<trkpt lat="35.130002" lon="-84.958136"><ele>260.9</ele><time>2026-07-22T16:44:56Z</time></trkpt>
<trkpt lat="35.129981" lon="-84.958163"><ele>260.3</ele><time>2026-07-22T16:44:58Z</time></trkpt>
<trkpt lat="35.129955" lon="-84.958187"><ele>260.3</ele><time>2026-07-22T16:45:00Z</time></trkpt>
<trkpt lat="35.129933" lon="-84.958212"><ele>260.9</ele><time>2026-07-22T16:45:02Z</time></trkpt>
<trkpt lat="35.129906" lon="-84.958235"><ele>261.8</ele><time>2026-07-22T16:45:04Z</time></trkpt>
<trkpt lat="35.129878" lon="-84.95823"><ele>262.4</ele><time>2026-07-22T16:45:06Z</time></trkpt>
<trkpt lat="35.129853" lon="-84.958213"><ele>263.0</ele><time>2026-07-22T16:45:08Z</time></trkpt>
<trkpt lat="35.129829" lon="-84.95819"><ele>264.0</ele><time>2026-07-22T16:45:10Z</time></trkpt>
<trkpt lat="35.12981" lon="-84.958164"><ele>263.7</ele><time>2026-07-22T16:45:12Z</time></trkpt>
<trkpt lat="35.129779" lon="-84.958136"><ele>265.8</ele><time>2026-07-22T16:45:15Z</time></trkpt>
<trkpt lat="35.129758" lon="-84.958099"><ele>265.8</ele><time>2026-07-22T16:45:18Z</time></trkpt>
<trkpt lat="35.129744" lon="-84.958057"><ele>266.4</ele><time>2026-07-22T16:45:21Z</time></trkpt>
<trkpt lat="35.129732" lon="-84.958021"><ele>264.9</ele><time>2026-07-22T16:45:23Z</time></trkpt>
<trkpt lat="35.129721" lon="-84.957987"><ele>264.9</ele><time>2026-07-22T16:45:25Z</time></trkpt>
<trkpt lat="35.129712" lon="-84.957954"><ele>265.2</ele><time>2026-07-22T16:45:27Z</time></trkpt>
<trkpt lat="35.12971" lon="-84.957906"><ele>264.9</ele><time>2026-07-22T16:45:30Z</time></trkpt>
<trkpt lat="35.129707" lon="-84.957858"><ele>263.3</ele><time>2026-07-22T16:45:33Z</time></trkpt>
<trkpt lat="35.129702" lon="-84.957824"><ele>263.7</ele><time>2026-07-22T16:45:35Z</time></trkpt>
<trkpt lat="35.129694" lon="-84.957786"><ele>263.3</ele><time>2026-07-22T16:45:37Z</time></trkpt>
<trkpt lat="35.129685" lon="-84.957755"><ele>262.4</ele><time>2026-07-22T16:45:39Z</time></trkpt>
<trkpt lat="35.129671" lon="-84.957723"><ele>262.4</ele><time>2026-07-22T16:45:41Z</time></trkpt>
<trkpt lat="35.129659" lon="-84.957692"><ele>262.1</ele><time>2026-07-22T16:45:43Z</time></trkpt>
<trkpt lat="35.129657" lon="-84.957648"><ele>260.9</ele><time>2026-07-22T16:45:46Z</time></trkpt>
<trkpt lat="35.129678" lon="-84.957626"><ele>259.1</ele><time>2026-07-22T16:45:48Z</time></trkpt>
<trkpt lat="35.12971" lon="-84.957623"><ele>259.4</ele><time>2026-07-22T16:45:50Z</time></trkpt>
<trkpt lat="35.12975" lon="-84.957617"><ele>258.2</ele><time>2026-07-22T16:45:53Z</time></trkpt>
<trkpt lat="35.12978" lon="-84.957619"><ele>260.3</ele><time>2026-07-22T16:45:55Z</time></trkpt>
<trkpt lat="35.12981" lon="-84.957625"><ele>260.9</ele><time>2026-07-22T16:45:57Z</time></trkpt>
<trkpt lat="35.129843" lon="-84.957615"><ele>260.6</ele><time>2026-07-22T16:45:59Z</time></trkpt>
<trkpt lat="35.129867" lon="-84.95759"><ele>261.5</ele><time>2026-07-22T16:46:01Z</time></trkpt>
<trkpt lat="35.12989" lon="-84.957569"><ele>261.2</ele><time>2026-07-22T16:46:03Z</time></trkpt>
<trkpt lat="35.129916" lon="-84.957555"><ele>262.1</ele><time>2026-07-22T16:46:05Z</time></trkpt>
<trkpt lat="35.129942" lon="-84.957539"><ele>262.1</ele><time>2026-07-22T16:46:07Z</time></trkpt>
<trkpt lat="35.129971" lon="-84.957529"><ele>262.1</ele><time>2026-07-22T16:46:09Z</time></trkpt>
<trkpt lat="35.129997" lon="-84.957513"><ele>261.5</ele><time>2026-07-22T16:46:11Z</time></trkpt>
<trkpt lat="35.130021" lon="-84.957494"><ele>260.3</ele><time>2026-07-22T16:46:13Z</time></trkpt>
<trkpt lat="35.13004" lon="-84.957468"><ele>262.1</ele><time>2026-07-22T16:46:15Z</time></trkpt>
<trkpt lat="35.130062" lon="-84.957444"><ele>262.4</ele><time>2026-07-22T16:46:17Z</time></trkpt>
<trkpt lat="35.130085" lon="-84.957424"><ele>264.3</ele><time>2026-07-22T16:46:19Z</time></trkpt>
<trkpt lat="35.130114" lon="-84.957409"><ele>263.7</ele><time>2026-07-22T16:46:21Z</time></trkpt>
<trkpt lat="35.130138" lon="-84.957389"><ele>262.4</ele><time>2026-07-22T16:46:23Z</time></trkpt>
<trkpt lat="35.130153" lon="-84.957359"><ele>261.8</ele><time>2026-07-22T16:46:25Z</time></trkpt>
<trkpt lat="35.130172" lon="-84.95733"><ele>260.6</ele><time>2026-07-22T16:46:27Z</time></trkpt>
<trkpt lat="35.130191" lon="-84.957303"><ele>260.9</ele><time>2026-07-22T16:46:29Z</time></trkpt>
<trkpt lat="35.130229" lon="-84.957283"><ele>262.7</ele><time>2026-07-22T16:46:32Z</time></trkpt>
<trkpt lat="35.130256" lon="-84.957274"><ele>264.0</ele><time>2026-07-22T16:46:34Z</time></trkpt>
<trkpt lat="35.130283" lon="-84.957263"><ele>264.0</ele><time>2026-07-22T16:46:36Z</time></trkpt>
<trkpt lat="35.130309" lon="-84.957246"><ele>264.6</ele><time>2026-07-22T16:46:38Z</time></trkpt>
<trkpt lat="35.13034" lon="-84.957211"><ele>263.3</ele><time>2026-07-22T16:46:41Z</time></trkpt>
<trkpt lat="35.13036" lon="-84.957185"><ele>263.3</ele><time>2026-07-22T16:46:43Z</time></trkpt>
<trkpt lat="35.130385" lon="-84.957166"><ele>262.7</ele><time>2026-07-22T16:46:45Z</time></trkpt>
<trkpt lat="35.130414" lon="-84.957153"><ele>261.2</ele><time>2026-07-22T16:46:47Z</time></trkpt>
<trkpt lat="35.130444" lon="-84.957133"><ele>260.3</ele><time>2026-07-22T16:46:49Z</time></trkpt>
<trkpt lat="35.130468" lon="-84.95711"><ele>258.8</ele><time>2026-07-22T16:46:51Z</time></trkpt>
<trkpt lat="35.130505" lon="-84.957086"><ele>260.0</ele><time>2026-07-22T16:46:54Z</time></trkpt>
<trkpt lat="35.130535" lon="-84.957084"><ele>260.6</ele><time>2026-07-22T16:46:56Z</time></trkpt>
<trkpt lat="35.130565" lon="-84.957081"><ele>261.2</ele><time>2026-07-22T16:46:58Z</time></trkpt>
<trkpt lat="35.130593" lon="-84.957077"><ele>262.1</ele><time>2026-07-22T16:47:00Z</time></trkpt>
<trkpt lat="35.13063" lon="-84.957057"><ele>262.4</ele><time>2026-07-22T16:47:03Z</time></trkpt>
<trkpt lat="35.130655" lon="-84.957037"><ele>262.7</ele><time>2026-07-22T16:47:05Z</time></trkpt>
<trkpt lat="35.130677" lon="-84.957016"><ele>262.7</ele><time>2026-07-22T16:47:07Z</time></trkpt>
<trkpt lat="35.130701" lon="-84.956998"><ele>262.7</ele><time>2026-07-22T16:47:09Z</time></trkpt>
<trkpt lat="35.130728" lon="-84.95698"><ele>262.7</ele><time>2026-07-22T16:47:11Z</time></trkpt>
<trkpt lat="35.130761" lon="-84.956949"><ele>261.8</ele><time>2026-07-22T16:47:14Z</time></trkpt>
<trkpt lat="35.130785" lon="-84.956927"><ele>261.2</ele><time>2026-07-22T16:47:16Z</time></trkpt>
<trkpt lat="35.130809" lon="-84.956905"><ele>262.1</ele><time>2026-07-22T16:47:18Z</time></trkpt>
<trkpt lat="35.130842" lon="-84.956875"><ele>262.1</ele><time>2026-07-22T16:47:21Z</time></trkpt>
<trkpt lat="35.130869" lon="-84.956857"><ele>262.4</ele><time>2026-07-22T16:47:23Z</time></trkpt>
<trkpt lat="35.130891" lon="-84.956835"><ele>264.0</ele><time>2026-07-22T16:47:25Z</time></trkpt>
<trkpt lat="35.130905" lon="-84.956806"><ele>264.0</ele><time>2026-07-22T16:47:27Z</time></trkpt>
<trkpt lat="35.13092" lon="-84.956757"><ele>262.7</ele><time>2026-07-22T16:47:30Z</time></trkpt>
<trkpt lat="35.130937" lon="-84.956726"><ele>262.7</ele><time>2026-07-22T16:47:32Z</time></trkpt>
<trkpt lat="35.130958" lon="-84.956702"><ele>264.3</ele><time>2026-07-22T16:47:34Z</time></trkpt>
<trkpt lat="35.130992" lon="-84.956683"><ele>262.7</ele><time>2026-07-22T16:47:37Z</time></trkpt>
<trkpt lat="35.131018" lon="-84.956665"><ele>264.0</ele><time>2026-07-22T16:47:39Z</time></trkpt>
<trkpt lat="35.131036" lon="-84.956621"><ele>264.3</ele><time>2026-07-22T16:47:42Z</time></trkpt>
<trkpt lat="35.131043" lon="-84.956587"><ele>264.6</ele><time>2026-07-22T16:47:44Z</time></trkpt>
<trkpt lat="35.131028" lon="-84.956579"><ele>262.7</ele><time>2026-07-22T16:47:45Z</time></trkpt>
<trkpt lat="35.131015" lon="-84.956581"><ele>263.7</ele><time>2026-07-22T16:47:55Z</time></trkpt>
<trkpt lat="35.131016" lon="-84.956575"><ele>263.3</ele><time>2026-07-22T16:47:56Z</time></trkpt>
<trkpt lat="35.131028" lon="-84.956531"><ele>262.4</ele><time>2026-07-22T16:48:00Z</time></trkpt>
<trkpt lat="35.131051" lon="-84.956506"><ele>260.0</ele><time>2026-07-22T16:48:03Z</time></trkpt>
<trkpt lat="35.131053" lon="-84.956468"><ele>260.0</ele><time>2026-07-22T16:48:04Z</time></trkpt>
<trkpt lat="35.131074" lon="-84.956441"><ele>257.6</ele><time>2026-07-22T16:48:08Z</time></trkpt>
<trkpt lat="35.131085" lon="-84.956409"><ele>256.3</ele><time>2026-07-22T16:48:10Z</time></trkpt>
<trkpt lat="35.131109" lon="-84.956389"><ele>254.5</ele><time>2026-07-22T16:48:12Z</time></trkpt>
<trkpt lat="35.13114" lon="-84.956358"><ele>256.9</ele><time>2026-07-22T16:48:15Z</time></trkpt>
<trkpt lat="35.131165" lon="-84.956324"><ele>257.6</ele><time>2026-07-22T16:48:18Z</time></trkpt>
<trkpt lat="35.13118" lon="-84.956279"><ele>256.0</ele><time>2026-07-22T16:48:21Z</time></trkpt>
<trkpt lat="35.13118" lon="-84.956242"><ele>256.9</ele><time>2026-07-22T16:48:23Z</time></trkpt>
<trkpt lat="35.131191" lon="-84.956207"><ele>256.9</ele><time>2026-07-22T16:48:25Z</time></trkpt>
<trkpt lat="35.131205" lon="-84.956161"><ele>258.2</ele><time>2026-07-22T16:48:28Z</time></trkpt>
<trkpt lat="35.131202" lon="-84.956112"><ele>258.5</ele><time>2026-07-22T16:48:31Z</time></trkpt>
<trkpt lat="35.131183" lon="-84.956073"><ele>257.9</ele><time>2026-07-22T16:48:34Z</time></trkpt>
<trkpt lat="35.131153" lon="-84.956053"><ele>258.5</ele><time>2026-07-22T16:48:37Z</time></trkpt>
<trkpt lat="35.131125" lon="-84.956058"><ele>261.8</ele><time>2026-07-22T16:48:39Z</time></trkpt>
<trkpt lat="35.131087" lon="-84.956054"><ele>262.4</ele><time>2026-07-22T16:48:42Z</time></trkpt>
<trkpt lat="35.131052" lon="-84.956044"><ele>260.6</ele><time>2026-07-22T16:48:45Z</time></trkpt>
<trkpt lat="35.131022" lon="-84.956063"><ele>259.4</ele><time>2026-07-22T16:48:48Z</time></trkpt>
<trkpt lat="35.130996" lon="-84.956092"><ele>258.5</ele><time>2026-07-22T16:48:51Z</time></trkpt>
<trkpt lat="35.13097" lon="-84.95612"><ele>257.6</ele><time>2026-07-22T16:48:54Z</time></trkpt>
<trkpt lat="35.130947" lon="-84.956139"><ele>256.9</ele><time>2026-07-22T16:48:56Z</time></trkpt>
<trkpt lat="35.130921" lon="-84.956152"><ele>257.3</ele><time>2026-07-22T16:48:58Z</time></trkpt>
<trkpt lat="35.130895" lon="-84.956181"><ele>258.5</ele><time>2026-07-22T16:49:01Z</time></trkpt>
<trkpt lat="35.130872" lon="-84.956219"><ele>259.1</ele><time>2026-07-22T16:49:04Z</time></trkpt>
<trkpt lat="35.130846" lon="-84.956255"><ele>258.8</ele><time>2026-07-22T16:49:07Z</time></trkpt>
<trkpt lat="35.130827" lon="-84.956281"><ele>258.2</ele><time>2026-07-22T16:49:09Z</time></trkpt>
<trkpt lat="35.130807" lon="-84.956306"><ele>258.5</ele><time>2026-07-22T16:49:11Z</time></trkpt>
<trkpt lat="35.130782" lon="-84.956323"><ele>258.2</ele><time>2026-07-22T16:49:13Z</time></trkpt>
<trkpt lat="35.130756" lon="-84.956341"><ele>259.1</ele><time>2026-07-22T16:49:15Z</time></trkpt>
<trkpt lat="35.130719" lon="-84.956351"><ele>258.5</ele><time>2026-07-22T16:49:18Z</time></trkpt>
<trkpt lat="35.130693" lon="-84.956322"><ele>257.9</ele><time>2026-07-22T16:49:21Z</time></trkpt>
<trkpt lat="35.13067" lon="-84.956288"><ele>256.3</ele><time>2026-07-22T16:49:24Z</time></trkpt>
<trkpt lat="35.130641" lon="-84.956262"><ele>254.8</ele><time>2026-07-22T16:49:27Z</time></trkpt>
<trkpt lat="35.1306" lon="-84.95627"><ele>255.1</ele><time>2026-07-22T16:49:30Z</time></trkpt>
<trkpt lat="35.130581" lon="-84.956302"><ele>255.4</ele><time>2026-07-22T16:49:32Z</time></trkpt>
<trkpt lat="35.130577" lon="-84.956338"><ele>255.1</ele><time>2026-07-22T16:49:34Z</time></trkpt>
<trkpt lat="35.130571" lon="-84.956373"><ele>255.1</ele><time>2026-07-22T16:49:36Z</time></trkpt>
<trkpt lat="35.130563" lon="-84.956406"><ele>256.0</ele><time>2026-07-22T16:49:38Z</time></trkpt>
<trkpt lat="35.130539" lon="-84.956449"><ele>256.9</ele><time>2026-07-22T16:49:41Z</time></trkpt>
<trkpt lat="35.130522" lon="-84.95648"><ele>257.3</ele><time>2026-07-22T16:49:43Z</time></trkpt>
<trkpt lat="35.130504" lon="-84.95651"><ele>256.6</ele><time>2026-07-22T16:49:45Z</time></trkpt>
<trkpt lat="35.130485" lon="-84.95654"><ele>256.6</ele><time>2026-07-22T16:49:47Z</time></trkpt>
<trkpt lat="35.130462" lon="-84.956567"><ele>257.6</ele><time>2026-07-22T16:49:49Z</time></trkpt>
<trkpt lat="35.130435" lon="-84.956587"><ele>258.8</ele><time>2026-07-22T16:49:51Z</time></trkpt>
<trkpt lat="35.130406" lon="-84.956605"><ele>258.8</ele><time>2026-07-22T16:49:53Z</time></trkpt>
<trkpt lat="35.130379" lon="-84.956619"><ele>260.3</ele><time>2026-07-22T16:49:55Z</time></trkpt>
<trkpt lat="35.130355" lon="-84.956638"><ele>260.0</ele><time>2026-07-22T16:49:57Z</time></trkpt>
<trkpt lat="35.130331" lon="-84.95666"><ele>260.9</ele><time>2026-07-22T16:49:59Z</time></trkpt>
<trkpt lat="35.130307" lon="-84.956682"><ele>261.2</ele><time>2026-07-22T16:50:01Z</time></trkpt>
<trkpt lat="35.130283" lon="-84.9567"><ele>261.5</ele><time>2026-07-22T16:50:03Z</time></trkpt>
<trkpt lat="35.130258" lon="-84.956717"><ele>261.8</ele><time>2026-07-22T16:50:05Z</time></trkpt>
<trkpt lat="35.130233" lon="-84.956735"><ele>262.4</ele><time>2026-07-22T16:50:07Z</time></trkpt>
<trkpt lat="35.130204" lon="-84.956742"><ele>262.4</ele><time>2026-07-22T16:50:09Z</time></trkpt>
<trkpt lat="35.130174" lon="-84.956743"><ele>262.4</ele><time>2026-07-22T16:50:11Z</time></trkpt>
<trkpt lat="35.130144" lon="-84.956744"><ele>263.3</ele><time>2026-07-22T16:50:13Z</time></trkpt>
<trkpt lat="35.130109" lon="-84.956727"><ele>262.4</ele><time>2026-07-22T16:50:16Z</time></trkpt>
<trkpt lat="35.130087" lon="-84.956704"><ele>261.8</ele><time>2026-07-22T16:50:18Z</time></trkpt>
<trkpt lat="35.130068" lon="-84.956674"><ele>263.0</ele><time>2026-07-22T16:50:20Z</time></trkpt>
<trkpt lat="35.130049" lon="-84.956646"><ele>262.7</ele><time>2026-07-22T16:50:22Z</time></trkpt>
<trkpt lat="35.130028" lon="-84.956619"><ele>264.0</ele><time>2026-07-22T16:50:24Z</time></trkpt>
<trkpt lat="35.130023" lon="-84.956585"><ele>263.7</ele><time>2026-07-22T16:50:26Z</time></trkpt>
<trkpt lat="35.130019" lon="-84.956551"><ele>263.0</ele><time>2026-07-22T16:50:28Z</time></trkpt>
<trkpt lat="35.129998" lon="-84.956515"><ele>263.0</ele><time>2026-07-22T16:50:31Z</time></trkpt>
<trkpt lat="35.129962" lon="-84.956524"><ele>261.5</ele><time>2026-07-22T16:50:33Z</time></trkpt>
<trkpt lat="35.129932" lon="-84.956575"><ele>260.6</ele><time>2026-07-22T16:50:35Z</time></trkpt>
<trkpt lat="35.129918" lon="-84.956611"><ele>261.5</ele><time>2026-07-22T16:50:37Z</time></trkpt>
<trkpt lat="35.129914" lon="-84.956649"><ele>260.9</ele><time>2026-07-22T16:50:39Z</time></trkpt>
<trkpt lat="35.129899" lon="-84.956681"><ele>259.1</ele><time>2026-07-22T16:50:41Z</time></trkpt>
<trkpt lat="35.129886" lon="-84.956717"><ele>258.2</ele><time>2026-07-22T16:50:43Z</time></trkpt>
<trkpt lat="35.129873" lon="-84.956747"><ele>260.0</ele><time>2026-07-22T16:50:45Z</time></trkpt>
<trkpt lat="35.129855" lon="-84.956773"><ele>260.3</ele><time>2026-07-22T16:50:47Z</time></trkpt>
<trkpt lat="35.129836" lon="-84.9568"><ele>261.5</ele><time>2026-07-22T16:50:49Z</time></trkpt>
<trkpt lat="35.129802" lon="-84.956817"><ele>262.4</ele><time>2026-07-22T16:50:52Z</time></trkpt>
<trkpt lat="35.129766" lon="-84.95683"><ele>263.7</ele><time>2026-07-22T16:50:55Z</time></trkpt>
<trkpt lat="35.129723" lon="-84.956831"><ele>262.7</ele><time>2026-07-22T16:50:58Z</time></trkpt>
<trkpt lat="35.129696" lon="-84.956848"><ele>263.0</ele><time>2026-07-22T16:51:00Z</time></trkpt>
<trkpt lat="35.129678" lon="-84.956876"><ele>265.8</ele><time>2026-07-22T16:51:02Z</time></trkpt>
<trkpt lat="35.129663" lon="-84.956906"><ele>266.7</ele><time>2026-07-22T16:51:04Z</time></trkpt>
<trkpt lat="35.129647" lon="-84.956937"><ele>266.4</ele><time>2026-07-22T16:51:06Z</time></trkpt>
<trkpt lat="35.12963" lon="-84.956966"><ele>266.1</ele><time>2026-07-22T16:51:08Z</time></trkpt>
<trkpt lat="35.129593" lon="-84.956977"><ele>266.1</ele><time>2026-07-22T16:51:11Z</time></trkpt>
<trkpt lat="35.129564" lon="-84.956976"><ele>266.4</ele><time>2026-07-22T16:51:13Z</time></trkpt>
<trkpt lat="35.129536" lon="-84.956969"><ele>265.8</ele><time>2026-07-22T16:51:15Z</time></trkpt>
<trkpt lat="35.129518" lon="-84.956943"><ele>266.1</ele><time>2026-07-22T16:51:17Z</time></trkpt>
<trkpt lat="35.129506" lon="-84.956897"><ele>265.5</ele><time>2026-07-22T16:51:20Z</time></trkpt>
<trkpt lat="35.129503" lon="-84.956858"><ele>265.2</ele><time>2026-07-22T16:51:22Z</time></trkpt>
<trkpt lat="35.129496" lon="-84.95681"><ele>265.2</ele><time>2026-07-22T16:51:25Z</time></trkpt>
<trkpt lat="35.129482" lon="-84.95678"><ele>264.6</ele><time>2026-07-22T16:51:27Z</time></trkpt>
<trkpt lat="35.12947" lon="-84.956748"><ele>264.6</ele><time>2026-07-22T16:51:29Z</time></trkpt>
<trkpt lat="35.129457" lon="-84.956716"><ele>263.7</ele><time>2026-07-22T16:51:31Z</time></trkpt>
<trkpt lat="35.129447" lon="-84.956685"><ele>262.1</ele><time>2026-07-22T16:51:33Z</time></trkpt>
<trkpt lat="35.129408" lon="-84.956662"><ele>261.2</ele><time>2026-07-22T16:51:36Z</time></trkpt>
<trkpt lat="35.129375" lon="-84.956674"><ele>261.5</ele><time>2026-07-22T16:51:38Z</time></trkpt>
<trkpt lat="35.129343" lon="-84.956697"><ele>260.6</ele><time>2026-07-22T16:51:40Z</time></trkpt>
<trkpt lat="35.129317" lon="-84.956722"><ele>261.2</ele><time>2026-07-22T16:51:42Z</time></trkpt>
<trkpt lat="35.129293" lon="-84.956746"><ele>262.1</ele><time>2026-07-22T16:51:44Z</time></trkpt>
<trkpt lat="35.129267" lon="-84.956769"><ele>262.4</ele><time>2026-07-22T16:51:46Z</time></trkpt>
<trkpt lat="35.129236" lon="-84.956785"><ele>262.1</ele><time>2026-07-22T16:51:48Z</time></trkpt>
<trkpt lat="35.129204" lon="-84.956795"><ele>262.7</ele><time>2026-07-22T16:51:50Z</time></trkpt>
<trkpt lat="35.129174" lon="-84.956803"><ele>261.8</ele><time>2026-07-22T16:51:52Z</time></trkpt>
<trkpt lat="35.129144" lon="-84.956811"><ele>263.7</ele><time>2026-07-22T16:51:54Z</time></trkpt>
<trkpt lat="35.129105" lon="-84.9568"><ele>265.2</ele><time>2026-07-22T16:51:57Z</time></trkpt>
<trkpt lat="35.129074" lon="-84.956787"><ele>263.3</ele><time>2026-07-22T16:52:00Z</time></trkpt>
<trkpt lat="35.12905" lon="-84.956751"><ele>264.0</ele><time>2026-07-22T16:52:03Z</time></trkpt>
<trkpt lat="35.129036" lon="-84.956753"><ele>263.0</ele><time>2026-07-22T16:52:04Z</time></trkpt>
<trkpt lat="35.12903" lon="-84.956759"><ele>261.2</ele><time>2026-07-22T16:52:05Z</time></trkpt>
<trkpt lat="35.129027" lon="-84.956762"><ele>261.2</ele><time>2026-07-22T16:52:07Z</time></trkpt>
<trkpt lat="35.129024" lon="-84.956764"><ele>261.2</ele><time>2026-07-22T16:52:08Z</time></trkpt>
<trkpt lat="35.129042" lon="-84.956737"><ele>260.0</ele><time>2026-07-22T16:52:14Z</time></trkpt>
<trkpt lat="35.129103" lon="-84.956746"><ele>259.1</ele><time>2026-07-22T16:52:15Z</time></trkpt>
<trkpt lat="35.129123" lon="-84.956788"><ele>259.4</ele><time>2026-07-22T16:52:16Z</time></trkpt>
<trkpt lat="35.129135" lon="-84.956822"><ele>262.7</ele><time>2026-07-22T16:52:20Z</time></trkpt>
<trkpt lat="35.129161" lon="-84.95684"><ele>260.0</ele><time>2026-07-22T16:52:24Z</time></trkpt>
<trkpt lat="35.129179" lon="-84.956866"><ele>255.4</ele><time>2026-07-22T16:52:28Z</time></trkpt>
<trkpt lat="35.129199" lon="-84.956896"><ele>251.8</ele><time>2026-07-22T16:52:32Z</time></trkpt>
<trkpt lat="35.129183" lon="-84.95693"><ele>251.5</ele><time>2026-07-22T16:52:37Z</time></trkpt>
<trkpt lat="35.129204" lon="-84.956957"><ele>245.4</ele><time>2026-07-22T16:52:40Z</time></trkpt>
<trkpt lat="35.129221" lon="-84.956985"><ele>238.7</ele><time>2026-07-22T16:52:43Z</time></trkpt>
<trkpt lat="35.129237" lon="-84.95702"><ele>232.0</ele><time>2026-07-22T16:52:47Z</time></trkpt>
<trkpt lat="35.129273" lon="-84.957018"><ele>226.2</ele><time>2026-07-22T16:52:50Z</time></trkpt>
<trkpt lat="35.129311" lon="-84.957014"><ele>223.7</ele><time>2026-07-22T16:52:53Z</time></trkpt>
<trkpt lat="35.12934" lon="-84.957019"><ele>224.6</ele><time>2026-07-22T16:52:55Z</time></trkpt>
<trkpt lat="35.129375" lon="-84.95703"><ele>227.1</ele><time>2026-07-22T16:52:58Z</time></trkpt>
<trkpt lat="35.129405" lon="-84.957033"><ele>228.0</ele><time>2026-07-22T16:53:00Z</time></trkpt>
<trkpt lat="35.129438" lon="-84.957031"><ele>228.6</ele><time>2026-07-22T16:53:02Z</time></trkpt>
<trkpt lat="35.129471" lon="-84.957022"><ele>230.4</ele><time>2026-07-22T16:53:04Z</time></trkpt>
<trkpt lat="35.129499" lon="-84.957014"><ele>232.0</ele><time>2026-07-22T16:53:06Z</time></trkpt>
<trkpt lat="35.129531" lon="-84.956997"><ele>232.0</ele><time>2026-07-22T16:53:08Z</time></trkpt>
<trkpt lat="35.129557" lon="-84.956984"><ele>232.6</ele><time>2026-07-22T16:53:10Z</time></trkpt>
<trkpt lat="35.129587" lon="-84.956968"><ele>232.6</ele><time>2026-07-22T16:53:12Z</time></trkpt>
<trkpt lat="35.129616" lon="-84.956946"><ele>234.4</ele><time>2026-07-22T16:53:14Z</time></trkpt>
<trkpt lat="35.129645" lon="-84.956922"><ele>235.9</ele><time>2026-07-22T16:53:16Z</time></trkpt>
<trkpt lat="35.129674" lon="-84.956896"><ele>237.1</ele><time>2026-07-22T16:53:18Z</time></trkpt>
<trkpt lat="35.129706" lon="-84.956868"><ele>235.9</ele><time>2026-07-22T16:53:20Z</time></trkpt>
<trkpt lat="35.129733" lon="-84.95684"><ele>237.7</ele><time>2026-07-22T16:53:22Z</time></trkpt>
<trkpt lat="35.129757" lon="-84.956807"><ele>238.7</ele><time>2026-07-22T16:53:24Z</time></trkpt>
<trkpt lat="35.129784" lon="-84.956777"><ele>239.9</ele><time>2026-07-22T16:53:26Z</time></trkpt>
<trkpt lat="35.12981" lon="-84.956745"><ele>241.1</ele><time>2026-07-22T16:53:28Z</time></trkpt>
<trkpt lat="35.129833" lon="-84.956707"><ele>242.9</ele><time>2026-07-22T16:53:30Z</time></trkpt>
<trkpt lat="35.129855" lon="-84.956665"><ele>242.3</ele><time>2026-07-22T16:53:32Z</time></trkpt>
<trkpt lat="35.129876" lon="-84.956617"><ele>242.9</ele><time>2026-07-22T16:53:34Z</time></trkpt>
<trkpt lat="35.129887" lon="-84.956568"><ele>242.9</ele><time>2026-07-22T16:53:36Z</time></trkpt>
<trkpt lat="35.129899" lon="-84.956522"><ele>243.8</ele><time>2026-07-22T16:53:38Z</time></trkpt>
<trkpt lat="35.129914" lon="-84.956475"><ele>244.8</ele><time>2026-07-22T16:53:40Z</time></trkpt>
<trkpt lat="35.129927" lon="-84.956433"><ele>245.4</ele><time>2026-07-22T16:53:42Z</time></trkpt>
<trkpt lat="35.129942" lon="-84.956391"><ele>246.6</ele><time>2026-07-22T16:53:44Z</time></trkpt>
<trkpt lat="35.129954" lon="-84.956344"><ele>248.4</ele><time>2026-07-22T16:53:46Z</time></trkpt>
<trkpt lat="35.129964" lon="-84.956295"><ele>249.9</ele><time>2026-07-22T16:53:48Z</time></trkpt>
<trkpt lat="35.129982" lon="-84.956252"><ele>251.8</ele><time>2026-07-22T16:53:50Z</time></trkpt>
<trkpt lat="35.129991" lon="-84.956211"><ele>252.7</ele><time>2026-07-22T16:53:52Z</time></trkpt>
<trkpt lat="35.129998" lon="-84.956175"><ele>252.7</ele><time>2026-07-22T16:53:54Z</time></trkpt>
<trkpt lat="35.130002" lon="-84.956139"><ele>253.0</ele><time>2026-07-22T16:53:56Z</time></trkpt>
<trkpt lat="35.130011" lon="-84.956104"><ele>254.2</ele><time>2026-07-22T16:53:58Z</time></trkpt>
<trkpt lat="35.130029" lon="-84.956073"><ele>255.7</ele><time>2026-07-22T16:54:00Z</time></trkpt>
<trkpt lat="35.130059" lon="-84.956063"><ele>257.9</ele><time>2026-07-22T16:54:02Z</time></trkpt>
<trkpt lat="35.130093" lon="-84.956075"><ele>257.6</ele><time>2026-07-22T16:54:05Z</time></trkpt>
<trkpt lat="35.130127" lon="-84.956095"><ele>257.9</ele><time>2026-07-22T16:54:08Z</time></trkpt>
<trkpt lat="35.130147" lon="-84.956134"><ele>260.0</ele><time>2026-07-22T16:54:11Z</time></trkpt>
<trkpt lat="35.130149" lon="-84.956178"><ele>260.6</ele><time>2026-07-22T16:54:14Z</time></trkpt>
<trkpt lat="35.130147" lon="-84.956225"><ele>261.5</ele><time>2026-07-22T16:54:17Z</time></trkpt>
<trkpt lat="35.130146" lon="-84.956274"><ele>262.4</ele><time>2026-07-22T16:54:20Z</time></trkpt>
<trkpt lat="35.130151" lon="-84.956309"><ele>263.0</ele><time>2026-07-22T16:54:22Z</time></trkpt>
<trkpt lat="35.130153" lon="-84.956343"><ele>264.3</ele><time>2026-07-22T16:54:24Z</time></trkpt>
<trkpt lat="35.130161" lon="-84.956375"><ele>263.3</ele><time>2026-07-22T16:54:26Z</time></trkpt>
<trkpt lat="35.130184" lon="-84.956397"><ele>262.1</ele><time>2026-07-22T16:54:28Z</time></trkpt>
<trkpt lat="35.130215" lon="-84.956403"><ele>261.2</ele><time>2026-07-22T16:54:30Z</time></trkpt>
<trkpt lat="35.130243" lon="-84.956407"><ele>262.1</ele><time>2026-07-22T16:54:32Z</time></trkpt>
<trkpt lat="35.130273" lon="-84.9564"><ele>260.9</ele><time>2026-07-22T16:54:34Z</time></trkpt>
<trkpt lat="35.1303" lon="-84.956383"><ele>259.4</ele><time>2026-07-22T16:54:36Z</time></trkpt>
<trkpt lat="35.130326" lon="-84.956363"><ele>260.3</ele><time>2026-07-22T16:54:38Z</time></trkpt>
<trkpt lat="35.130358" lon="-84.956335"><ele>261.2</ele><time>2026-07-22T16:54:41Z</time></trkpt>
<trkpt lat="35.130382" lon="-84.956298"><ele>262.4</ele><time>2026-07-22T16:54:44Z</time></trkpt>
<trkpt lat="35.130397" lon="-84.956257"><ele>262.4</ele><time>2026-07-22T16:54:47Z</time></trkpt>
<trkpt lat="35.130406" lon="-84.956207"><ele>262.7</ele><time>2026-07-22T16:54:50Z</time></trkpt>
<trkpt lat="35.130414" lon="-84.956173"><ele>262.7</ele><time>2026-07-22T16:54:52Z</time></trkpt>
<trkpt lat="35.130423" lon="-84.95614"><ele>263.0</ele><time>2026-07-22T16:54:54Z</time></trkpt>
<trkpt lat="35.130435" lon="-84.956107"><ele>262.1</ele><time>2026-07-22T16:54:56Z</time></trkpt>
<trkpt lat="35.130449" lon="-84.956075"><ele>262.1</ele><time>2026-07-22T16:54:58Z</time></trkpt>
<trkpt lat="35.13046" lon="-84.956043"><ele>261.8</ele><time>2026-07-22T16:55:00Z</time></trkpt>
<trkpt lat="35.13047" lon="-84.956011"><ele>262.7</ele><time>2026-07-22T16:55:02Z</time></trkpt>
<trkpt lat="35.130473" lon="-84.955961"><ele>261.8</ele><time>2026-07-22T16:55:05Z</time></trkpt>
<trkpt lat="35.130464" lon="-84.955929"><ele>261.5</ele><time>2026-07-22T16:55:07Z</time></trkpt>
<trkpt lat="35.130456" lon="-84.95588"><ele>261.2</ele><time>2026-07-22T16:55:10Z</time></trkpt>
<trkpt lat="35.130454" lon="-84.955847"><ele>261.5</ele><time>2026-07-22T16:55:12Z</time></trkpt>
<trkpt lat="35.13046" lon="-84.955814"><ele>260.6</ele><time>2026-07-22T16:55:14Z</time></trkpt>
<trkpt lat="35.130471" lon="-84.955781"><ele>260.3</ele><time>2026-07-22T16:55:16Z</time></trkpt>
<trkpt lat="35.130479" lon="-84.955748"><ele>260.9</ele><time>2026-07-22T16:55:18Z</time></trkpt>
<trkpt lat="35.130482" lon="-84.955714"><ele>260.6</ele><time>2026-07-22T16:55:20Z</time></trkpt>
<trkpt lat="35.130489" lon="-84.955664"><ele>261.2</ele><time>2026-07-22T16:55:23Z</time></trkpt>
<trkpt lat="35.1305" lon="-84.95563"><ele>260.3</ele><time>2026-07-22T16:55:25Z</time></trkpt>
<trkpt lat="35.130509" lon="-84.955597"><ele>260.9</ele><time>2026-07-22T16:55:27Z</time></trkpt>
<trkpt lat="35.130522" lon="-84.955565"><ele>261.2</ele><time>2026-07-22T16:55:29Z</time></trkpt>
<trkpt lat="35.130545" lon="-84.955538"><ele>262.4</ele><time>2026-07-22T16:55:31Z</time></trkpt>
<trkpt lat="35.130569" lon="-84.955518"><ele>263.7</ele><time>2026-07-22T16:55:33Z</time></trkpt>
<trkpt lat="35.130601" lon="-84.955487"><ele>262.4</ele><time>2026-07-22T16:55:36Z</time></trkpt>
<trkpt lat="35.130629" lon="-84.955477"><ele>264.0</ele><time>2026-07-22T16:55:38Z</time></trkpt>
<trkpt lat="35.130656" lon="-84.955469"><ele>264.3</ele><time>2026-07-22T16:55:40Z</time></trkpt>
<trkpt lat="35.130666" lon="-84.955468"><ele>263.7</ele><time>2026-07-22T16:55:41Z</time></trkpt>
<trkpt lat="35.130671" lon="-84.955471"><ele>264.0</ele><time>2026-07-22T16:55:42Z</time></trkpt>
<trkpt lat="35.130674" lon="-84.95547"><ele>264.0</ele><time>2026-07-22T16:55:48Z</time></trkpt>
<trkpt lat="35.130677" lon="-84.95547"><ele>264.3</ele><time>2026-07-22T16:55:49Z</time></trkpt>
<trkpt lat="35.130713" lon="-84.955456"><ele>264.9</ele><time>2026-07-22T16:55:53Z</time></trkpt>
<trkpt lat="35.13074" lon="-84.955443"><ele>264.6</ele><time>2026-07-22T16:55:55Z</time></trkpt>
<trkpt lat="35.130769" lon="-84.955433"><ele>265.2</ele><time>2026-07-22T16:55:57Z</time></trkpt>
<trkpt lat="35.130798" lon="-84.955418"><ele>265.2</ele><time>2026-07-22T16:55:59Z</time></trkpt>
<trkpt lat="35.130826" lon="-84.955406"><ele>265.2</ele><time>2026-07-22T16:56:01Z</time></trkpt>
<trkpt lat="35.130855" lon="-84.955393"><ele>264.9</ele><time>2026-07-22T16:56:03Z</time></trkpt>
<trkpt lat="35.130882" lon="-84.95538"><ele>264.6</ele><time>2026-07-22T16:56:05Z</time></trkpt>
<trkpt lat="35.13092" lon="-84.955366"><ele>264.6</ele><time>2026-07-22T16:56:08Z</time></trkpt>
<trkpt lat="35.130958" lon="-84.955357"><ele>264.6</ele><time>2026-07-22T16:56:11Z</time></trkpt>
<trkpt lat="35.130997" lon="-84.955351"><ele>264.0</ele><time>2026-07-22T16:56:14Z</time></trkpt>
<trkpt lat="35.131036" lon="-84.955345"><ele>264.6</ele><time>2026-07-22T16:56:17Z</time></trkpt>
<trkpt lat="35.131076" lon="-84.955336"><ele>263.7</ele><time>2026-07-22T16:56:20Z</time></trkpt>
<trkpt lat="35.1311" lon="-84.955319"><ele>263.3</ele><time>2026-07-22T16:56:22Z</time></trkpt>
<trkpt lat="35.131132" lon="-84.955289"><ele>263.3</ele><time>2026-07-22T16:56:25Z</time></trkpt>
<trkpt lat="35.131163" lon="-84.955253"><ele>262.7</ele><time>2026-07-22T16:56:28Z</time></trkpt>
<trkpt lat="35.131191" lon="-84.95522"><ele>263.0</ele><time>2026-07-22T16:56:31Z</time></trkpt>
<trkpt lat="35.131217" lon="-84.955187"><ele>263.3</ele><time>2026-07-22T16:56:34Z</time></trkpt>
<trkpt lat="35.131235" lon="-84.955159"><ele>264.9</ele><time>2026-07-22T16:56:36Z</time></trkpt>
<trkpt lat="35.131252" lon="-84.955132"><ele>265.5</ele><time>2026-07-22T16:56:38Z</time></trkpt>
<trkpt lat="35.13128" lon="-84.955094"><ele>264.3</ele><time>2026-07-22T16:56:41Z</time></trkpt>
<trkpt lat="35.131301" lon="-84.955072"><ele>263.3</ele><time>2026-07-22T16:56:43Z</time></trkpt>
<trkpt lat="35.131326" lon="-84.955053"><ele>263.7</ele><time>2026-07-22T16:56:45Z</time></trkpt>
<trkpt lat="35.131352" lon="-84.955041"><ele>264.3</ele><time>2026-07-22T16:56:47Z</time></trkpt>
<trkpt lat="35.131392" lon="-84.955024"><ele>263.3</ele><time>2026-07-22T16:56:50Z</time></trkpt>
<trkpt lat="35.131417" lon="-84.95501"><ele>263.3</ele><time>2026-07-22T16:56:52Z</time></trkpt>
<trkpt lat="35.131446" lon="-84.955002"><ele>264.3</ele><time>2026-07-22T16:56:54Z</time></trkpt>
<trkpt lat="35.131476" lon="-84.954992"><ele>264.3</ele><time>2026-07-22T16:56:56Z</time></trkpt>
<trkpt lat="35.131504" lon="-84.954996"><ele>264.3</ele><time>2026-07-22T16:56:58Z</time></trkpt>
<trkpt lat="35.131542" lon="-84.954992"><ele>264.6</ele><time>2026-07-22T16:57:01Z</time></trkpt>
<trkpt lat="35.13157" lon="-84.954979"><ele>264.3</ele><time>2026-07-22T16:57:03Z</time></trkpt>
<trkpt lat="35.131597" lon="-84.954966"><ele>264.3</ele><time>2026-07-22T16:57:05Z</time></trkpt>
<trkpt lat="35.131623" lon="-84.954943"><ele>263.3</ele><time>2026-07-22T16:57:07Z</time></trkpt>
<trkpt lat="35.131644" lon="-84.95492"><ele>261.5</ele><time>2026-07-22T16:57:09Z</time></trkpt>
<trkpt lat="35.131664" lon="-84.954894"><ele>261.2</ele><time>2026-07-22T16:57:11Z</time></trkpt>
<trkpt lat="35.131689" lon="-84.954871"><ele>262.1</ele><time>2026-07-22T16:57:13Z</time></trkpt>
<trkpt lat="35.131714" lon="-84.954853"><ele>263.0</ele><time>2026-07-22T16:57:15Z</time></trkpt>
<trkpt lat="35.131743" lon="-84.954842"><ele>263.0</ele><time>2026-07-22T16:57:17Z</time></trkpt>
<trkpt lat="35.131777" lon="-84.95484"><ele>264.3</ele><time>2026-07-22T16:57:19Z</time></trkpt>
<trkpt lat="35.131807" lon="-84.954843"><ele>265.2</ele><time>2026-07-22T16:57:21Z</time></trkpt>
<trkpt lat="35.13184" lon="-84.954844"><ele>264.3</ele><time>2026-07-22T16:57:23Z</time></trkpt>
<trkpt lat="35.13189" lon="-84.954851"><ele>268.2</ele><time>2026-07-22T16:57:24Z</time></trkpt>
<trkpt lat="35.131914" lon="-84.954869"><ele>266.1</ele><time>2026-07-22T16:57:27Z</time></trkpt>
<trkpt lat="35.131922" lon="-84.954901"><ele>262.1</ele><time>2026-07-22T16:57:30Z</time></trkpt>
<trkpt lat="35.131932" lon="-84.954945"><ele>263.7</ele><time>2026-07-22T16:57:33Z</time></trkpt>
<trkpt lat="35.131945" lon="-84.954991"><ele>263.3</ele><time>2026-07-22T16:57:36Z</time></trkpt>
<trkpt lat="35.131956" lon="-84.955037"><ele>263.0</ele><time>2026-07-22T16:57:39Z</time></trkpt>
<trkpt lat="35.131966" lon="-84.955072"><ele>262.4</ele><time>2026-07-22T16:57:41Z</time></trkpt>
<trkpt lat="35.131972" lon="-84.95511"><ele>263.3</ele><time>2026-07-22T16:57:43Z</time></trkpt>
<trkpt lat="35.131984" lon="-84.955145"><ele>263.7</ele><time>2026-07-22T16:57:45Z</time></trkpt>
<trkpt lat="35.131998" lon="-84.955176"><ele>262.7</ele><time>2026-07-22T16:57:47Z</time></trkpt>
<trkpt lat="35.132023" lon="-84.955191"><ele>261.8</ele><time>2026-07-22T16:57:49Z</time></trkpt>
<trkpt lat="35.132057" lon="-84.955173"><ele>261.2</ele><time>2026-07-22T16:57:51Z</time></trkpt>
<trkpt lat="35.132082" lon="-84.95514"><ele>260.6</ele><time>2026-07-22T16:57:53Z</time></trkpt>
<trkpt lat="35.132095" lon="-84.9551"><ele>259.7</ele><time>2026-07-22T16:57:55Z</time></trkpt>
<trkpt lat="35.132104" lon="-84.955063"><ele>259.1</ele><time>2026-07-22T16:57:57Z</time></trkpt>
<trkpt lat="35.132111" lon="-84.955025"><ele>259.4</ele><time>2026-07-22T16:57:59Z</time></trkpt>
<trkpt lat="35.13212" lon="-84.954987"><ele>257.9</ele><time>2026-07-22T16:58:01Z</time></trkpt>
<trkpt lat="35.132131" lon="-84.954955"><ele>258.2</ele><time>2026-07-22T16:58:03Z</time></trkpt>
<trkpt lat="35.132141" lon="-84.954922"><ele>258.5</ele><time>2026-07-22T16:58:05Z</time></trkpt>
<trkpt lat="35.132158" lon="-84.954891"><ele>258.5</ele><time>2026-07-22T16:58:07Z</time></trkpt>
<trkpt lat="35.132176" lon="-84.954862"><ele>257.9</ele><time>2026-07-22T16:58:09Z</time></trkpt>
<trkpt lat="35.1322" lon="-84.954845"><ele>258.5</ele><time>2026-07-22T16:58:11Z</time></trkpt>
<trkpt lat="35.132229" lon="-84.954836"><ele>259.4</ele><time>2026-07-22T16:58:13Z</time></trkpt>
<trkpt lat="35.132257" lon="-84.954838"><ele>259.4</ele><time>2026-07-22T16:58:15Z</time></trkpt>
<trkpt lat="35.132286" lon="-84.954841"><ele>260.6</ele><time>2026-07-22T16:58:17Z</time></trkpt>
<trkpt lat="35.132316" lon="-84.954848"><ele>260.6</ele><time>2026-07-22T16:58:19Z</time></trkpt>
<trkpt lat="35.132351" lon="-84.954865"><ele>260.9</ele><time>2026-07-22T16:58:22Z</time></trkpt>
<trkpt lat="35.132384" lon="-84.954889"><ele>261.5</ele><time>2026-07-22T16:58:25Z</time></trkpt>
<trkpt lat="35.132413" lon="-84.95489"><ele>261.8</ele><time>2026-07-22T16:58:27Z</time></trkpt>
<trkpt lat="35.132436" lon="-84.954858"><ele>260.6</ele><time>2026-07-22T16:58:29Z</time></trkpt>
<trkpt lat="35.132436" lon="-84.954814"><ele>261.2</ele><time>2026-07-22T16:58:31Z</time></trkpt>
<trkpt lat="35.132415" lon="-84.954775"><ele>260.0</ele><time>2026-07-22T16:58:33Z</time></trkpt>
<trkpt lat="35.132404" lon="-84.954739"><ele>259.1</ele><time>2026-07-22T16:58:35Z</time></trkpt>
<trkpt lat="35.132393" lon="-84.954702"><ele>259.4</ele><time>2026-07-22T16:58:37Z</time></trkpt>
<trkpt lat="35.132381" lon="-84.954667"><ele>259.4</ele><time>2026-07-22T16:58:39Z</time></trkpt>
<trkpt lat="35.132376" lon="-84.954632"><ele>259.7</ele><time>2026-07-22T16:58:41Z</time></trkpt>
<trkpt lat="35.132379" lon="-84.954598"><ele>258.8</ele><time>2026-07-22T16:58:43Z</time></trkpt>
<trkpt lat="35.132404" lon="-84.95456"><ele>256.6</ele><time>2026-07-22T16:58:46Z</time></trkpt>
<trkpt lat="35.132433" lon="-84.954546"><ele>256.9</ele><time>2026-07-22T16:58:48Z</time></trkpt>
<trkpt lat="35.132465" lon="-84.954537"><ele>257.3</ele><time>2026-07-22T16:58:50Z</time></trkpt>
<trkpt lat="35.132495" lon="-84.95453"><ele>257.3</ele><time>2026-07-22T16:58:52Z</time></trkpt>
<trkpt lat="35.132524" lon="-84.954523"><ele>257.6</ele><time>2026-07-22T16:58:54Z</time></trkpt>
<trkpt lat="35.132553" lon="-84.954519"><ele>256.9</ele><time>2026-07-22T16:58:56Z</time></trkpt>
<trkpt lat="35.132595" lon="-84.954526"><ele>256.3</ele><time>2026-07-22T16:58:59Z</time></trkpt>
<trkpt lat="35.132623" lon="-84.954535"><ele>256.3</ele><time>2026-07-22T16:59:01Z</time></trkpt>
<trkpt lat="35.13266" lon="-84.954545"><ele>256.9</ele><time>2026-07-22T16:59:04Z</time></trkpt>
<trkpt lat="35.132699" lon="-84.954555"><ele>256.9</ele><time>2026-07-22T16:59:07Z</time></trkpt>
<trkpt lat="35.132726" lon="-84.954565"><ele>258.2</ele><time>2026-07-22T16:59:09Z</time></trkpt>
<trkpt lat="35.132754" lon="-84.95457"><ele>258.2</ele><time>2026-07-22T16:59:11Z</time></trkpt>
<trkpt lat="35.132784" lon="-84.95457"><ele>257.9</ele><time>2026-07-22T16:59:13Z</time></trkpt>
<trkpt lat="35.132815" lon="-84.95457"><ele>258.2</ele><time>2026-07-22T16:59:15Z</time></trkpt>
<trkpt lat="35.132848" lon="-84.954567"><ele>258.2</ele><time>2026-07-22T16:59:17Z</time></trkpt>
<trkpt lat="35.132879" lon="-84.95457"><ele>258.8</ele><time>2026-07-22T16:59:19Z</time></trkpt>
<trkpt lat="35.13291" lon="-84.954578"><ele>260.3</ele><time>2026-07-22T16:59:21Z</time></trkpt>
<trkpt lat="35.132947" lon="-84.954596"><ele>260.3</ele><time>2026-07-22T16:59:24Z</time></trkpt>
<trkpt lat="35.132975" lon="-84.954601"><ele>261.2</ele><time>2026-07-22T16:59:26Z</time></trkpt>
<trkpt lat="35.133014" lon="-84.954617"><ele>261.5</ele><time>2026-07-22T16:59:29Z</time></trkpt>
<trkpt lat="35.133053" lon="-84.954642"><ele>261.5</ele><time>2026-07-22T16:59:32Z</time></trkpt>
<trkpt lat="35.133086" lon="-84.954669"><ele>260.9</ele><time>2026-07-22T16:59:35Z</time></trkpt>
<trkpt lat="35.133106" lon="-84.95471"><ele>259.7</ele><time>2026-07-22T16:59:38Z</time></trkpt>
<trkpt lat="35.13311" lon="-84.954759"><ele>259.7</ele><time>2026-07-22T16:59:41Z</time></trkpt>
<trkpt lat="35.133109" lon="-84.954807"><ele>259.4</ele><time>2026-07-22T16:59:44Z</time></trkpt>
<trkpt lat="35.133106" lon="-84.954841"><ele>260.0</ele><time>2026-07-22T16:59:46Z</time></trkpt>
<trkpt lat="35.133095" lon="-84.954888"><ele>258.8</ele><time>2026-07-22T16:59:49Z</time></trkpt>
<trkpt lat="35.133086" lon="-84.954932"><ele>257.9</ele><time>2026-07-22T16:59:52Z</time></trkpt>
<trkpt lat="35.133078" lon="-84.954964"><ele>258.8</ele><time>2026-07-22T16:59:54Z</time></trkpt>
<trkpt lat="35.133069" lon="-84.955012"><ele>260.3</ele><time>2026-07-22T16:59:57Z</time></trkpt>
<trkpt lat="35.133066" lon="-84.955049"><ele>259.7</ele><time>2026-07-22T16:59:59Z</time></trkpt>
<trkpt lat="35.13306" lon="-84.955083"><ele>259.7</ele><time>2026-07-22T17:00:01Z</time></trkpt>
<trkpt lat="35.133057" lon="-84.955119"><ele>260.3</ele><time>2026-07-22T17:00:03Z</time></trkpt>
<trkpt lat="35.133054" lon="-84.955169"><ele>260.3</ele><time>2026-07-22T17:00:06Z</time></trkpt>
<trkpt lat="35.133071" lon="-84.955199"><ele>261.2</ele><time>2026-07-22T17:00:08Z</time></trkpt>
<trkpt lat="35.133099" lon="-84.955218"><ele>260.6</ele><time>2026-07-22T17:00:10Z</time></trkpt>
<trkpt lat="35.133129" lon="-84.955217"><ele>261.5</ele><time>2026-07-22T17:00:12Z</time></trkpt>
<trkpt lat="35.133158" lon="-84.955206"><ele>261.2</ele><time>2026-07-22T17:00:14Z</time></trkpt>
<trkpt lat="35.133182" lon="-84.955185"><ele>260.6</ele><time>2026-07-22T17:00:16Z</time></trkpt>
<trkpt lat="35.1332" lon="-84.955157"><ele>260.3</ele><time>2026-07-22T17:00:18Z</time></trkpt>
<trkpt lat="35.133211" lon="-84.955123"><ele>259.4</ele><time>2026-07-22T17:00:20Z</time></trkpt>
<trkpt lat="35.133227" lon="-84.95509"><ele>256.9</ele><time>2026-07-22T17:00:22Z</time></trkpt>
<trkpt lat="35.133242" lon="-84.955055"><ele>257.9</ele><time>2026-07-22T17:00:24Z</time></trkpt>
<trkpt lat="35.133253" lon="-84.955021"><ele>257.6</ele><time>2026-07-22T17:00:26Z</time></trkpt>
<trkpt lat="35.13326" lon="-84.954985"><ele>256.3</ele><time>2026-07-22T17:00:28Z</time></trkpt>
<trkpt lat="35.133269" lon="-84.954949"><ele>255.7</ele><time>2026-07-22T17:00:30Z</time></trkpt>
<trkpt lat="35.133287" lon="-84.95492"><ele>255.4</ele><time>2026-07-22T17:00:32Z</time></trkpt>
<trkpt lat="35.133308" lon="-84.954892"><ele>253.3</ele><time>2026-07-22T17:00:34Z</time></trkpt>
<trkpt lat="35.133327" lon="-84.954859"><ele>253.0</ele><time>2026-07-22T17:00:36Z</time></trkpt>
<trkpt lat="35.13334" lon="-84.954828"><ele>254.2</ele><time>2026-07-22T17:00:38Z</time></trkpt>
<trkpt lat="35.133353" lon="-84.954798"><ele>254.5</ele><time>2026-07-22T17:00:40Z</time></trkpt>
<trkpt lat="35.133384" lon="-84.954764"><ele>255.7</ele><time>2026-07-22T17:00:43Z</time></trkpt>
<trkpt lat="35.13341" lon="-84.954747"><ele>256.6</ele><time>2026-07-22T17:00:45Z</time></trkpt>
<trkpt lat="35.13343" lon="-84.954719"><ele>257.3</ele><time>2026-07-22T17:00:47Z</time></trkpt>
<trkpt lat="35.133444" lon="-84.954688"><ele>258.2</ele><time>2026-07-22T17:00:49Z</time></trkpt>
<trkpt lat="35.133468" lon="-84.954649"><ele>257.6</ele><time>2026-07-22T17:00:52Z</time></trkpt>
<trkpt lat="35.133504" lon="-84.954629"><ele>257.6</ele><time>2026-07-22T17:00:55Z</time></trkpt>
<trkpt lat="35.133545" lon="-84.954626"><ele>257.9</ele><time>2026-07-22T17:00:58Z</time></trkpt>
<trkpt lat="35.133574" lon="-84.954631"><ele>257.9</ele><time>2026-07-22T17:01:00Z</time></trkpt>
<trkpt lat="35.133602" lon="-84.954635"><ele>258.2</ele><time>2026-07-22T17:01:02Z</time></trkpt>
<trkpt lat="35.13363" lon="-84.954635"><ele>258.2</ele><time>2026-07-22T17:01:04Z</time></trkpt>
<trkpt lat="35.133663" lon="-84.954641"><ele>257.6</ele><time>2026-07-22T17:01:06Z</time></trkpt>
<trkpt lat="35.133697" lon="-84.954641"><ele>255.7</ele><time>2026-07-22T17:01:08Z</time></trkpt>
<trkpt lat="35.133728" lon="-84.954638"><ele>254.8</ele><time>2026-07-22T17:01:10Z</time></trkpt>
<trkpt lat="35.133756" lon="-84.954634"><ele>254.8</ele><time>2026-07-22T17:01:12Z</time></trkpt>
<trkpt lat="35.133785" lon="-84.954632"><ele>254.5</ele><time>2026-07-22T17:01:14Z</time></trkpt>
<trkpt lat="35.133816" lon="-84.954628"><ele>253.9</ele><time>2026-07-22T17:01:16Z</time></trkpt>
<trkpt lat="35.133843" lon="-84.954621"><ele>253.9</ele><time>2026-07-22T17:01:18Z</time></trkpt>
<trkpt lat="35.133872" lon="-84.954606"><ele>253.3</ele><time>2026-07-22T17:01:21Z</time></trkpt>
<trkpt lat="35.133894" lon="-84.954576"><ele>253.3</ele><time>2026-07-22T17:01:24Z</time></trkpt>
<trkpt lat="35.133872" lon="-84.954542"><ele>253.0</ele><time>2026-07-22T17:01:27Z</time></trkpt>
<trkpt lat="35.133858" lon="-84.95453"><ele>253.0</ele><time>2026-07-22T17:01:28Z</time></trkpt>
<trkpt lat="35.133853" lon="-84.95453"><ele>252.7</ele><time>2026-07-22T17:01:29Z</time></trkpt>
<trkpt lat="35.133846" lon="-84.954519"><ele>252.7</ele><time>2026-07-22T17:01:30Z</time></trkpt>
<trkpt lat="35.133844" lon="-84.954517"><ele>252.7</ele><time>2026-07-22T17:01:31Z</time></trkpt>
<trkpt lat="35.133844" lon="-84.954517"><ele>252.7</ele><time>2026-07-22T17:01:37Z</time></trkpt>
<trkpt lat="35.133847" lon="-84.954518"><ele>253.0</ele><time>2026-07-22T17:01:38Z</time></trkpt>
<trkpt lat="35.133872" lon="-84.9545"><ele>253.3</ele><time>2026-07-22T17:01:41Z</time></trkpt>
<trkpt lat="35.1339" lon="-84.954472"><ele>253.3</ele><time>2026-07-22T17:01:44Z</time></trkpt>
<trkpt lat="35.133921" lon="-84.954435"><ele>255.4</ele><time>2026-07-22T17:01:47Z</time></trkpt>
<trkpt lat="35.13394" lon="-84.954396"><ele>255.7</ele><time>2026-07-22T17:01:50Z</time></trkpt>
<trkpt lat="35.133966" lon="-84.954363"><ele>256.9</ele><time>2026-07-22T17:01:53Z</time></trkpt>
<trkpt lat="35.133987" lon="-84.95434"><ele>255.7</ele><time>2026-07-22T17:01:55Z</time></trkpt>
<trkpt lat="35.134016" lon="-84.954309"><ele>254.8</ele><time>2026-07-22T17:01:58Z</time></trkpt>
<trkpt lat="35.134048" lon="-84.954277"><ele>254.5</ele><time>2026-07-22T17:02:01Z</time></trkpt>
<trkpt lat="35.134076" lon="-84.954245"><ele>253.9</ele><time>2026-07-22T17:02:04Z</time></trkpt>
<trkpt lat="35.134097" lon="-84.954223"><ele>252.7</ele><time>2026-07-22T17:02:06Z</time></trkpt>
<trkpt lat="35.13412" lon="-84.954203"><ele>253.3</ele><time>2026-07-22T17:02:08Z</time></trkpt>
<trkpt lat="35.134142" lon="-84.954182"><ele>253.9</ele><time>2026-07-22T17:02:10Z</time></trkpt>
<trkpt lat="35.134164" lon="-84.954162"><ele>255.7</ele><time>2026-07-22T17:02:12Z</time></trkpt>
<trkpt lat="35.134187" lon="-84.954142"><ele>254.5</ele><time>2026-07-22T17:02:14Z</time></trkpt>
<trkpt lat="35.134214" lon="-84.954129"><ele>256.3</ele><time>2026-07-22T17:02:16Z</time></trkpt>
<trkpt lat="35.134246" lon="-84.954117"><ele>253.9</ele><time>2026-07-22T17:02:18Z</time></trkpt>
<trkpt lat="35.134286" lon="-84.95411"><ele>254.2</ele><time>2026-07-22T17:02:21Z</time></trkpt>
<trkpt lat="35.134317" lon="-84.954127"><ele>254.8</ele><time>2026-07-22T17:02:24Z</time></trkpt>
<trkpt lat="35.134314" lon="-84.954136"><ele>254.5</ele><time>2026-07-22T17:02:25Z</time></trkpt>
<trkpt lat="35.134312" lon="-84.954139"><ele>254.5</ele><time>2026-07-22T17:02:29Z</time></trkpt>
<trkpt lat="35.134311" lon="-84.954136"><ele>255.1</ele><time>2026-07-22T17:02:30Z</time></trkpt>
<trkpt lat="35.134346" lon="-84.954117"><ele>256.6</ele><time>2026-07-22T17:02:33Z</time></trkpt>
<trkpt lat="35.134378" lon="-84.954131"><ele>257.6</ele><time>2026-07-22T17:02:37Z</time></trkpt>
<trkpt lat="35.134402" lon="-84.954155"><ele>256.6</ele><time>2026-07-22T17:02:41Z</time></trkpt>
<trkpt lat="35.134429" lon="-84.954171"><ele>256.9</ele><time>2026-07-22T17:02:44Z</time></trkpt>
<trkpt lat="35.134459" lon="-84.954186"><ele>257.6</ele><time>2026-07-22T17:02:47Z</time></trkpt>
<trkpt lat="35.134497" lon="-84.954192"><ele>257.3</ele><time>2026-07-22T17:02:50Z</time></trkpt>
<trkpt lat="35.134535" lon="-84.9542"><ele>257.3</ele><time>2026-07-22T17:02:53Z</time></trkpt>
<trkpt lat="35.134562" lon="-84.954203"><ele>256.0</ele><time>2026-07-22T17:02:55Z</time></trkpt>
<trkpt lat="35.134603" lon="-84.954213"><ele>255.7</ele><time>2026-07-22T17:02:58Z</time></trkpt>
<trkpt lat="35.13463" lon="-84.95421"><ele>256.6</ele><time>2026-07-22T17:03:00Z</time></trkpt>
<trkpt lat="35.134659" lon="-84.954208"><ele>257.3</ele><time>2026-07-22T17:03:02Z</time></trkpt>
<trkpt lat="35.134688" lon="-84.954195"><ele>256.0</ele><time>2026-07-22T17:03:04Z</time></trkpt>
<trkpt lat="35.134716" lon="-84.954182"><ele>256.0</ele><time>2026-07-22T17:03:06Z</time></trkpt>
<trkpt lat="35.134744" lon="-84.954165"><ele>256.0</ele><time>2026-07-22T17:03:08Z</time></trkpt>
<trkpt lat="35.134768" lon="-84.954144"><ele>255.7</ele><time>2026-07-22T17:03:10Z</time></trkpt>
<trkpt lat="35.134795" lon="-84.954128"><ele>256.3</ele><time>2026-07-22T17:03:12Z</time></trkpt>
<trkpt lat="35.13482" lon="-84.954107"><ele>256.9</ele><time>2026-07-22T17:03:14Z</time></trkpt>
<trkpt lat="35.134846" lon="-84.954089"><ele>257.9</ele><time>2026-07-22T17:03:16Z</time></trkpt>
<trkpt lat="35.134874" lon="-84.954081"><ele>259.1</ele><time>2026-07-22T17:03:18Z</time></trkpt>
<trkpt lat="35.134898" lon="-84.95406"><ele>259.7</ele><time>2026-07-22T17:03:20Z</time></trkpt>
<trkpt lat="35.13492" lon="-84.954038"><ele>259.7</ele><time>2026-07-22T17:03:22Z</time></trkpt>
<trkpt lat="35.134939" lon="-84.954014"><ele>260.0</ele><time>2026-07-22T17:03:24Z</time></trkpt>
<trkpt lat="35.134964" lon="-84.953997"><ele>260.9</ele><time>2026-07-22T17:03:26Z</time></trkpt>
<trkpt lat="35.134996" lon="-84.954008"><ele>260.0</ele><time>2026-07-22T17:03:28Z</time></trkpt>
<trkpt lat="35.135011" lon="-84.954053"><ele>259.1</ele><time>2026-07-22T17:03:31Z</time></trkpt>
<trkpt lat="35.135014" lon="-84.954101"><ele>260.3</ele><time>2026-07-22T17:03:34Z</time></trkpt>
<trkpt lat="35.135024" lon="-84.954143"><ele>260.0</ele><time>2026-07-22T17:03:37Z</time></trkpt>
<trkpt lat="35.135047" lon="-84.954181"><ele>260.6</ele><time>2026-07-22T17:03:40Z</time></trkpt>
<trkpt lat="35.13507" lon="-84.954201"><ele>261.8</ele><time>2026-07-22T17:03:42Z</time></trkpt>
<trkpt lat="35.135094" lon="-84.95422"><ele>261.8</ele><time>2026-07-22T17:03:44Z</time></trkpt>
<trkpt lat="35.135125" lon="-84.95422"><ele>261.8</ele><time>2026-07-22T17:03:46Z</time></trkpt>
<trkpt lat="35.135156" lon="-84.954203"><ele>261.2</ele><time>2026-07-22T17:03:48Z</time></trkpt>
<trkpt lat="35.135185" lon="-84.954186"><ele>260.6</ele><time>2026-07-22T17:03:50Z</time></trkpt>
<trkpt lat="35.135215" lon="-84.954175"><ele>260.0</ele><time>2026-07-22T17:03:52Z</time></trkpt>
<trkpt lat="35.135253" lon="-84.954155"><ele>261.2</ele><time>2026-07-22T17:03:55Z</time></trkpt>
<trkpt lat="35.135276" lon="-84.954131"><ele>259.7</ele><time>2026-07-22T17:03:57Z</time></trkpt>
<trkpt lat="35.135291" lon="-84.954123"><ele>259.7</ele><time>2026-07-22T17:03:58Z</time></trkpt>
<trkpt lat="35.1353" lon="-84.954123"><ele>260.9</ele><time>2026-07-22T17:03:59Z</time></trkpt>
<trkpt lat="35.135304" lon="-84.954124"><ele>261.2</ele><time>2026-07-22T17:04:00Z</time></trkpt>
<trkpt lat="35.135314" lon="-84.954117"><ele>260.9</ele><time>2026-07-22T17:04:01Z</time></trkpt>
<trkpt lat="35.135347" lon="-84.95409"><ele>261.8</ele><time>2026-07-22T17:04:04Z</time></trkpt>
<trkpt lat="35.13537" lon="-84.954052"><ele>260.6</ele><time>2026-07-22T17:04:07Z</time></trkpt>
<trkpt lat="35.135369" lon="-84.954051"><ele>260.0</ele><time>2026-07-22T17:04:08Z</time></trkpt>
<trkpt lat="35.135351" lon="-84.954061"><ele>258.8</ele><time>2026-07-22T17:04:09Z</time></trkpt>
<trkpt lat="35.135347" lon="-84.954064"><ele>258.8</ele><time>2026-07-22T17:04:10Z</time></trkpt>
<trkpt lat="35.135346" lon="-84.954062"><ele>259.4</ele><time>2026-07-22T17:04:11Z</time></trkpt>
<trkpt lat="35.13536" lon="-84.954037"><ele>259.4</ele><time>2026-07-22T17:04:14Z</time></trkpt>
<trkpt lat="35.135359" lon="-84.954036"><ele>259.4</ele><time>2026-07-22T17:04:15Z</time></trkpt>
<trkpt lat="35.135357" lon="-84.954035"><ele>259.4</ele><time>2026-07-22T17:04:22Z</time></trkpt>
<trkpt lat="35.135359" lon="-84.954026"><ele>259.1</ele><time>2026-07-22T17:04:23Z</time></trkpt>
<trkpt lat="35.135375" lon="-84.953988"><ele>261.5</ele><time>2026-07-22T17:04:25Z</time></trkpt>
<trkpt lat="35.135383" lon="-84.953954"><ele>258.8</ele><time>2026-07-22T17:04:28Z</time></trkpt>
<trkpt lat="35.13539" lon="-84.953921"><ele>258.2</ele><time>2026-07-22T17:04:30Z</time></trkpt>
<trkpt lat="35.135413" lon="-84.953892"><ele>258.5</ele><time>2026-07-22T17:04:32Z</time></trkpt>
<trkpt lat="35.135447" lon="-84.953872"><ele>258.5</ele><time>2026-07-22T17:04:34Z</time></trkpt>
<trkpt lat="35.135485" lon="-84.953867"><ele>260.0</ele><time>2026-07-22T17:04:36Z</time></trkpt>
<trkpt lat="35.135527" lon="-84.953878"><ele>260.0</ele><time>2026-07-22T17:04:39Z</time></trkpt>
<trkpt lat="35.135558" lon="-84.953884"><ele>260.9</ele><time>2026-07-22T17:04:41Z</time></trkpt>
<trkpt lat="35.135589" lon="-84.953878"><ele>262.4</ele><time>2026-07-22T17:04:43Z</time></trkpt>
<trkpt lat="35.135622" lon="-84.953865"><ele>263.3</ele><time>2026-07-22T17:04:45Z</time></trkpt>
<trkpt lat="35.135654" lon="-84.953854"><ele>264.0</ele><time>2026-07-22T17:04:47Z</time></trkpt>
<trkpt lat="35.135685" lon="-84.953856"><ele>264.6</ele><time>2026-07-22T17:04:49Z</time></trkpt>
<trkpt lat="35.135715" lon="-84.953861"><ele>265.2</ele><time>2026-07-22T17:04:51Z</time></trkpt>
<trkpt lat="35.135748" lon="-84.953874"><ele>266.4</ele><time>2026-07-22T17:04:53Z</time></trkpt>
<trkpt lat="35.135789" lon="-84.953869"><ele>264.6</ele><time>2026-07-22T17:04:55Z</time></trkpt>
<trkpt lat="35.135819" lon="-84.953875"><ele>267.0</ele><time>2026-07-22T17:04:57Z</time></trkpt>
<trkpt lat="35.135854" lon="-84.953881"><ele>267.0</ele><time>2026-07-22T17:05:00Z</time></trkpt>
<trkpt lat="35.135884" lon="-84.953877"><ele>267.9</ele><time>2026-07-22T17:05:03Z</time></trkpt>
<trkpt lat="35.135919" lon="-84.953881"><ele>268.8</ele><time>2026-07-22T17:05:06Z</time></trkpt>
<trkpt lat="35.135948" lon="-84.95389"><ele>267.3</ele><time>2026-07-22T17:05:08Z</time></trkpt>
<trkpt lat="35.135973" lon="-84.953909"><ele>266.4</ele><time>2026-07-22T17:05:10Z</time></trkpt>
<trkpt lat="35.136" lon="-84.953921"><ele>267.0</ele><time>2026-07-22T17:05:12Z</time></trkpt>
<trkpt lat="35.136027" lon="-84.953929"><ele>267.3</ele><time>2026-07-22T17:05:14Z</time></trkpt>
<trkpt lat="35.136065" lon="-84.953935"><ele>267.3</ele><time>2026-07-22T17:05:17Z</time></trkpt>
<trkpt lat="35.136094" lon="-84.953927"><ele>267.6</ele><time>2026-07-22T17:05:19Z</time></trkpt>
<trkpt lat="35.136116" lon="-84.953899"><ele>267.6</ele><time>2026-07-22T17:05:21Z</time></trkpt>
<trkpt lat="35.136126" lon="-84.953862"><ele>267.3</ele><time>2026-07-22T17:05:23Z</time></trkpt>
<trkpt lat="35.136137" lon="-84.953823"><ele>267.3</ele><time>2026-07-22T17:05:25Z</time></trkpt>
<trkpt lat="35.136154" lon="-84.953792"><ele>267.9</ele><time>2026-07-22T17:05:27Z</time></trkpt>
<trkpt lat="35.136176" lon="-84.953768"><ele>270.1</ele><time>2026-07-22T17:05:29Z</time></trkpt>
<trkpt lat="35.136192" lon="-84.953739"><ele>271.0</ele><time>2026-07-22T17:05:31Z</time></trkpt>
<trkpt lat="35.136184" lon="-84.953688"><ele>269.1</ele><time>2026-07-22T17:05:34Z</time></trkpt>
<trkpt lat="35.136157" lon="-84.953655"><ele>268.2</ele><time>2026-07-22T17:05:36Z</time></trkpt>
<trkpt lat="35.136122" lon="-84.953629"><ele>267.0</ele><time>2026-07-22T17:05:38Z</time></trkpt>
<trkpt lat="35.136095" lon="-84.953604"><ele>266.1</ele><time>2026-07-22T17:05:40Z</time></trkpt>
<trkpt lat="35.136064" lon="-84.953587"><ele>266.4</ele><time>2026-07-22T17:05:42Z</time></trkpt>
<trkpt lat="35.136038" lon="-84.953569"><ele>265.8</ele><time>2026-07-22T17:05:44Z</time></trkpt>
<trkpt lat="35.13601" lon="-84.953551"><ele>265.8</ele><time>2026-07-22T17:05:46Z</time></trkpt>
<trkpt lat="35.135984" lon="-84.953534"><ele>266.7</ele><time>2026-07-22T17:05:48Z</time></trkpt>
<trkpt lat="35.135962" lon="-84.953496"><ele>266.1</ele><time>2026-07-22T17:05:51Z</time></trkpt>
<trkpt lat="35.135959" lon="-84.953452"><ele>266.1</ele><time>2026-07-22T17:05:54Z</time></trkpt>
<trkpt lat="35.135971" lon="-84.953418"><ele>263.7</ele><time>2026-07-22T17:05:56Z</time></trkpt>
<trkpt lat="35.135984" lon="-84.953387"><ele>264.6</ele><time>2026-07-22T17:05:58Z</time></trkpt>
<trkpt lat="35.136004" lon="-84.953363"><ele>265.5</ele><time>2026-07-22T17:06:00Z</time></trkpt>
<trkpt lat="35.136029" lon="-84.953344"><ele>265.8</ele><time>2026-07-22T17:06:02Z</time></trkpt>
<trkpt lat="35.136069" lon="-84.953338"><ele>264.3</ele><time>2026-07-22T17:06:05Z</time></trkpt>
<trkpt lat="35.136108" lon="-84.953329"><ele>264.6</ele><time>2026-07-22T17:06:08Z</time></trkpt>
<trkpt lat="35.136135" lon="-84.953328"><ele>265.8</ele><time>2026-07-22T17:06:10Z</time></trkpt>
<trkpt lat="35.136162" lon="-84.953317"><ele>267.3</ele><time>2026-07-22T17:06:12Z</time></trkpt>
<trkpt lat="35.136185" lon="-84.953298"><ele>266.7</ele><time>2026-07-22T17:06:14Z</time></trkpt>
<trkpt lat="35.136207" lon="-84.953256"><ele>267.0</ele><time>2026-07-22T17:06:17Z</time></trkpt>
<trkpt lat="35.136216" lon="-84.953224"><ele>267.0</ele><time>2026-07-22T17:06:19Z</time></trkpt>
<trkpt lat="35.136212" lon="-84.953186"><ele>266.7</ele><time>2026-07-22T17:06:21Z</time></trkpt>
<trkpt lat="35.1362" lon="-84.953153"><ele>267.0</ele><time>2026-07-22T17:06:23Z</time></trkpt>
<trkpt lat="35.13617" lon="-84.953137"><ele>266.4</ele><time>2026-07-22T17:06:25Z</time></trkpt>
<trkpt lat="35.136134" lon="-84.953124"><ele>265.5</ele><time>2026-07-22T17:06:27Z</time></trkpt>
<trkpt lat="35.136104" lon="-84.953106"><ele>264.6</ele><time>2026-07-22T17:06:29Z</time></trkpt>
<trkpt lat="35.136076" lon="-84.953085"><ele>264.6</ele><time>2026-07-22T17:06:31Z</time></trkpt>
<trkpt lat="35.136056" lon="-84.953058"><ele>265.5</ele><time>2026-07-22T17:06:33Z</time></trkpt>
<trkpt lat="35.136046" lon="-84.953022"><ele>267.9</ele><time>2026-07-22T17:06:35Z</time></trkpt>
<trkpt lat="35.13604" lon="-84.952988"><ele>267.6</ele><time>2026-07-22T17:06:37Z</time></trkpt>
<trkpt lat="35.136043" lon="-84.95295"><ele>267.9</ele><time>2026-07-22T17:06:39Z</time></trkpt>
<trkpt lat="35.136055" lon="-84.952911"><ele>269.1</ele><time>2026-07-22T17:06:41Z</time></trkpt>
<trkpt lat="35.136077" lon="-84.952879"><ele>268.5</ele><time>2026-07-22T17:06:43Z</time></trkpt>
<trkpt lat="35.136102" lon="-84.952852"><ele>267.9</ele><time>2026-07-22T17:06:45Z</time></trkpt>
<trkpt lat="35.13613" lon="-84.952833"><ele>266.4</ele><time>2026-07-22T17:06:47Z</time></trkpt>
<trkpt lat="35.136161" lon="-84.952825"><ele>266.7</ele><time>2026-07-22T17:06:49Z</time></trkpt>
<trkpt lat="35.136192" lon="-84.952815"><ele>264.9</ele><time>2026-07-22T17:06:51Z</time></trkpt>
<trkpt lat="35.136217" lon="-84.952799"><ele>265.2</ele><time>2026-07-22T17:06:53Z</time></trkpt>
<trkpt lat="35.13624" lon="-84.952778"><ele>265.8</ele><time>2026-07-22T17:06:55Z</time></trkpt>
<trkpt lat="35.13626" lon="-84.952754"><ele>265.5</ele><time>2026-07-22T17:06:57Z</time></trkpt>
<trkpt lat="35.136294" lon="-84.95273"><ele>266.4</ele><time>2026-07-22T17:07:00Z</time></trkpt>
<trkpt lat="35.136336" lon="-84.952722"><ele>266.1</ele><time>2026-07-22T17:07:03Z</time></trkpt>
<trkpt lat="35.136366" lon="-84.952726"><ele>264.9</ele><time>2026-07-22T17:07:05Z</time></trkpt>
<trkpt lat="35.136395" lon="-84.952725"><ele>265.2</ele><time>2026-07-22T17:07:07Z</time></trkpt>
<trkpt lat="35.136433" lon="-84.952708"><ele>265.8</ele><time>2026-07-22T17:07:10Z</time></trkpt>
<trkpt lat="35.136471" lon="-84.952695"><ele>267.9</ele><time>2026-07-22T17:07:13Z</time></trkpt>
<trkpt lat="35.136502" lon="-84.952697"><ele>267.6</ele><time>2026-07-22T17:07:15Z</time></trkpt>
<trkpt lat="35.136532" lon="-84.952692"><ele>268.2</ele><time>2026-07-22T17:07:17Z</time></trkpt>
<trkpt lat="35.13656" lon="-84.952688"><ele>268.2</ele><time>2026-07-22T17:07:19Z</time></trkpt>
<trkpt lat="35.136594" lon="-84.952668"><ele>269.7</ele><time>2026-07-22T17:07:22Z</time></trkpt>
<trkpt lat="35.136626" lon="-84.952635"><ele>269.1</ele><time>2026-07-22T17:07:25Z</time></trkpt>
<trkpt lat="35.136645" lon="-84.952607"><ele>268.8</ele><time>2026-07-22T17:07:27Z</time></trkpt>
<trkpt lat="35.136663" lon="-84.952578"><ele>268.8</ele><time>2026-07-22T17:07:29Z</time></trkpt>
<trkpt lat="35.136679" lon="-84.952551"><ele>268.2</ele><time>2026-07-22T17:07:31Z</time></trkpt>
<trkpt lat="35.136703" lon="-84.952534"><ele>268.5</ele><time>2026-07-22T17:07:33Z</time></trkpt>
<trkpt lat="35.136738" lon="-84.952506"><ele>267.3</ele><time>2026-07-22T17:07:36Z</time></trkpt>
<trkpt lat="35.136765" lon="-84.952494"><ele>267.3</ele><time>2026-07-22T17:07:38Z</time></trkpt>
<trkpt lat="35.136805" lon="-84.952482"><ele>269.4</ele><time>2026-07-22T17:07:41Z</time></trkpt>
<trkpt lat="35.136839" lon="-84.952465"><ele>268.8</ele><time>2026-07-22T17:07:44Z</time></trkpt>
<trkpt lat="35.136867" lon="-84.952448"><ele>269.1</ele><time>2026-07-22T17:07:46Z</time></trkpt>
<trkpt lat="35.136895" lon="-84.952433"><ele>267.3</ele><time>2026-07-22T17:07:48Z</time></trkpt>
<trkpt lat="35.136925" lon="-84.952424"><ele>267.6</ele><time>2026-07-22T17:07:50Z</time></trkpt>
<trkpt lat="35.136952" lon="-84.952411"><ele>270.4</ele><time>2026-07-22T17:07:52Z</time></trkpt>
<trkpt lat="35.13698" lon="-84.952388"><ele>269.4</ele><time>2026-07-22T17:07:54Z</time></trkpt>
<trkpt lat="35.137005" lon="-84.952369"><ele>269.4</ele><time>2026-07-22T17:07:56Z</time></trkpt>
<trkpt lat="35.137026" lon="-84.952347"><ele>270.4</ele><time>2026-07-22T17:07:58Z</time></trkpt>
<trkpt lat="35.137044" lon="-84.952319"><ele>271.0</ele><time>2026-07-22T17:08:00Z</time></trkpt>
<trkpt lat="35.137064" lon="-84.952274"><ele>269.7</ele><time>2026-07-22T17:08:03Z</time></trkpt>
<trkpt lat="35.137066" lon="-84.95224"><ele>272.5</ele><time>2026-07-22T17:08:05Z</time></trkpt>
<trkpt lat="35.137063" lon="-84.952239"><ele>272.2</ele><time>2026-07-22T17:08:06Z</time></trkpt>
<trkpt lat="35.137064" lon="-84.952236"><ele>272.2</ele><time>2026-07-22T17:08:07Z</time></trkpt>
<trkpt lat="35.137074" lon="-84.952199"><ele>273.4</ele><time>2026-07-22T17:08:10Z</time></trkpt>
<trkpt lat="35.137073" lon="-84.952163"><ele>272.5</ele><time>2026-07-22T17:08:12Z</time></trkpt>
<trkpt lat="35.137089" lon="-84.952118"><ele>271.9</ele><time>2026-07-22T17:08:15Z</time></trkpt>
<trkpt lat="35.137106" lon="-84.952091"><ele>272.5</ele><time>2026-07-22T17:08:17Z</time></trkpt>
<trkpt lat="35.137131" lon="-84.952063"><ele>272.2</ele><time>2026-07-22T17:08:20Z</time></trkpt>
<trkpt lat="35.137161" lon="-84.952069"><ele>272.2</ele><time>2026-07-22T17:08:22Z</time></trkpt>
<trkpt lat="35.137189" lon="-84.952048"><ele>272.2</ele><time>2026-07-22T17:08:25Z</time></trkpt>
<trkpt lat="35.137197" lon="-84.952011"><ele>274.0</ele><time>2026-07-22T17:08:27Z</time></trkpt>
<trkpt lat="35.137205" lon="-84.951973"><ele>271.9</ele><time>2026-07-22T17:08:31Z</time></trkpt>
<trkpt lat="35.137192" lon="-84.951941"><ele>270.4</ele><time>2026-07-22T17:08:34Z</time></trkpt>
<trkpt lat="35.137185" lon="-84.951906"><ele>268.8</ele><time>2026-07-22T17:08:37Z</time></trkpt>
<trkpt lat="35.137184" lon="-84.951868"><ele>268.2</ele><time>2026-07-22T17:08:40Z</time></trkpt>
<trkpt lat="35.137198" lon="-84.951832"><ele>267.6</ele><time>2026-07-22T17:08:43Z</time></trkpt>
<trkpt lat="35.137214" lon="-84.9518"><ele>267.6</ele><time>2026-07-22T17:08:46Z</time></trkpt>
<trkpt lat="35.137232" lon="-84.951772"><ele>266.7</ele><time>2026-07-22T17:08:49Z</time></trkpt>
<trkpt lat="35.137246" lon="-84.951733"><ele>267.0</ele><time>2026-07-22T17:08:52Z</time></trkpt>
</trkseg></trk></gpx>